<?xml version="1.0" encoding="UTF-8" standalone="no" ?>
<gpx xmlns="http://www.topografix.com/GPX/1/1" xmlns:xsi="http://www.w3.org/2001/XMLSchema-instance" xsi:schemaLocation="http://www.topografix.com/GPX/1/1 http://www.topografix.com/GPX/1/1/gpx.xsd" version="1.1" creator="VisuGPX - https://www.visugpx.com">
  <metadata>
    <name>GOTOES Export</name>
    <desc><![CDATA[Created with GOTOES STRAVA TOOLS Version 12.6]]></desc>
  </metadata>
  <trk>
    <name><![CDATA[GOTOES Export]]></name>
    <trkseg>
      <trkpt lat="45.06345" lon="5.59737">
        <ele>1921</ele>
        <time>2021-03-28T13:09:27Z</time>
      </trkpt>
      <trkpt lat="45.06345" lon="5.59737">
        <ele>1921</ele>
        <time>2021-03-28T13:09:28Z</time>
      </trkpt>
      <trkpt lat="45.06345" lon="5.59737">
        <ele>1921</ele>
        <time>2021-03-28T13:09:29Z</time>
      </trkpt>
      <trkpt lat="45.06315" lon="5.59727">
        <ele>1916</ele>
        <time>2021-03-28T13:09:30Z</time>
      </trkpt>
      <trkpt lat="45.06315" lon="5.59727">
        <ele>1917</ele>
        <time>2021-03-28T13:09:31Z</time>
      </trkpt>
      <trkpt lat="45.06317" lon="5.59727">
        <ele>1917</ele>
        <time>2021-03-28T13:09:32Z</time>
      </trkpt>
      <trkpt lat="45.06317" lon="5.59727">
        <ele>1918</ele>
        <time>2021-03-28T13:09:33Z</time>
      </trkpt>
      <trkpt lat="45.06317" lon="5.59727">
        <ele>1918</ele>
        <time>2021-03-28T13:09:34Z</time>
      </trkpt>
      <trkpt lat="45.06318" lon="5.59728">
        <ele>1917</ele>
        <time>2021-03-28T13:09:35Z</time>
      </trkpt>
      <trkpt lat="45.06318" lon="5.59728">
        <ele>1917</ele>
        <time>2021-03-28T13:09:36Z</time>
      </trkpt>
      <trkpt lat="45.06318" lon="5.5973">
        <ele>1916</ele>
        <time>2021-03-28T13:09:37Z</time>
      </trkpt>
      <trkpt lat="45.06318" lon="5.5973">
        <ele>1916</ele>
        <time>2021-03-28T13:09:38Z</time>
      </trkpt>
      <trkpt lat="45.06318" lon="5.5973">
        <ele>1916</ele>
        <time>2021-03-28T13:09:39Z</time>
      </trkpt>
      <trkpt lat="45.06318" lon="5.5973">
        <ele>1916</ele>
        <time>2021-03-28T13:09:40Z</time>
      </trkpt>
      <trkpt lat="45.06318" lon="5.5973">
        <ele>1916</ele>
        <time>2021-03-28T13:09:41Z</time>
      </trkpt>
      <trkpt lat="45.06318" lon="5.5973">
        <ele>1916</ele>
        <time>2021-03-28T13:09:42Z</time>
      </trkpt>
      <trkpt lat="45.06318" lon="5.5973">
        <ele>1916</ele>
        <time>2021-03-28T13:09:43Z</time>
      </trkpt>
      <trkpt lat="45.06318" lon="5.5973">
        <ele>1916</ele>
        <time>2021-03-28T13:09:44Z</time>
      </trkpt>
      <trkpt lat="45.06318" lon="5.5973">
        <ele>1916</ele>
        <time>2021-03-28T13:09:45Z</time>
      </trkpt>
      <trkpt lat="45.06318" lon="5.5973">
        <ele>1916</ele>
        <time>2021-03-28T13:09:46Z</time>
      </trkpt>
      <trkpt lat="45.06318" lon="5.5973">
        <ele>1916</ele>
        <time>2021-03-28T13:09:47Z</time>
      </trkpt>
      <trkpt lat="45.06318" lon="5.5973">
        <ele>1916</ele>
        <time>2021-03-28T13:09:48Z</time>
      </trkpt>
      <trkpt lat="45.06318" lon="5.5973">
        <ele>1916</ele>
        <time>2021-03-28T13:09:49Z</time>
      </trkpt>
      <trkpt lat="45.06318" lon="5.5973">
        <ele>1916</ele>
        <time>2021-03-28T13:09:50Z</time>
      </trkpt>
      <trkpt lat="45.06318" lon="5.5973">
        <ele>1916</ele>
        <time>2021-03-28T13:09:51Z</time>
      </trkpt>
      <trkpt lat="45.06318" lon="5.5973">
        <ele>1916</ele>
        <time>2021-03-28T13:09:52Z</time>
      </trkpt>
      <trkpt lat="45.06318" lon="5.5973">
        <ele>1916</ele>
        <time>2021-03-28T13:09:53Z</time>
      </trkpt>
      <trkpt lat="45.06318" lon="5.5973">
        <ele>1916</ele>
        <time>2021-03-28T13:09:54Z</time>
      </trkpt>
      <trkpt lat="45.06325" lon="5.59735">
        <ele>1916</ele>
        <time>2021-03-28T13:09:55Z</time>
      </trkpt>
      <trkpt lat="45.06325" lon="5.59733">
        <ele>1916</ele>
        <time>2021-03-28T13:09:56Z</time>
      </trkpt>
      <trkpt lat="45.06323" lon="5.59735">
        <ele>1916</ele>
        <time>2021-03-28T13:09:57Z</time>
      </trkpt>
      <trkpt lat="45.06323" lon="5.59733">
        <ele>1915</ele>
        <time>2021-03-28T13:09:58Z</time>
      </trkpt>
      <trkpt lat="45.06323" lon="5.59732">
        <ele>1915</ele>
        <time>2021-03-28T13:09:59Z</time>
      </trkpt>
      <trkpt lat="45.06323" lon="5.59732">
        <ele>1915</ele>
        <time>2021-03-28T13:10:00Z</time>
      </trkpt>
      <trkpt lat="45.06323" lon="5.59732">
        <ele>1914</ele>
        <time>2021-03-28T13:10:01Z</time>
      </trkpt>
      <trkpt lat="45.06323" lon="5.5973">
        <ele>1914</ele>
        <time>2021-03-28T13:10:02Z</time>
      </trkpt>
      <trkpt lat="45.06323" lon="5.59728">
        <ele>1914</ele>
        <time>2021-03-28T13:10:03Z</time>
      </trkpt>
      <trkpt lat="45.06323" lon="5.59727">
        <ele>1914</ele>
        <time>2021-03-28T13:10:04Z</time>
      </trkpt>
      <trkpt lat="45.06323" lon="5.59725">
        <ele>1914</ele>
        <time>2021-03-28T13:10:05Z</time>
      </trkpt>
      <trkpt lat="45.06323" lon="5.59723">
        <ele>1914</ele>
        <time>2021-03-28T13:10:06Z</time>
      </trkpt>
      <trkpt lat="45.06327" lon="5.59717">
        <ele>1913</ele>
        <time>2021-03-28T13:10:07Z</time>
      </trkpt>
      <trkpt lat="45.06327" lon="5.59712">
        <ele>1912</ele>
        <time>2021-03-28T13:10:08Z</time>
      </trkpt>
      <trkpt lat="45.06327" lon="5.597">
        <ele>1911</ele>
        <time>2021-03-28T13:10:09Z</time>
      </trkpt>
      <trkpt lat="45.06325" lon="5.59687">
        <ele>1910</ele>
        <time>2021-03-28T13:10:10Z</time>
      </trkpt>
      <trkpt lat="45.06327" lon="5.59673">
        <ele>1908</ele>
        <time>2021-03-28T13:10:11Z</time>
      </trkpt>
      <trkpt lat="45.06328" lon="5.5966">
        <ele>1907</ele>
        <time>2021-03-28T13:10:12Z</time>
      </trkpt>
      <trkpt lat="45.06328" lon="5.59648">
        <ele>1906</ele>
        <time>2021-03-28T13:10:13Z</time>
      </trkpt>
      <trkpt lat="45.06328" lon="5.59637">
        <ele>1906</ele>
        <time>2021-03-28T13:10:14Z</time>
      </trkpt>
      <trkpt lat="45.06328" lon="5.59625">
        <ele>1905</ele>
        <time>2021-03-28T13:10:15Z</time>
      </trkpt>
      <trkpt lat="45.06328" lon="5.59612">
        <ele>1904</ele>
        <time>2021-03-28T13:10:16Z</time>
      </trkpt>
      <trkpt lat="45.06328" lon="5.596">
        <ele>1903</ele>
        <time>2021-03-28T13:10:17Z</time>
      </trkpt>
      <trkpt lat="45.06323" lon="5.59587">
        <ele>1902</ele>
        <time>2021-03-28T13:10:18Z</time>
      </trkpt>
      <trkpt lat="45.06317" lon="5.59575">
        <ele>1901</ele>
        <time>2021-03-28T13:10:19Z</time>
      </trkpt>
      <trkpt lat="45.06312" lon="5.59563">
        <ele>1899</ele>
        <time>2021-03-28T13:10:20Z</time>
      </trkpt>
      <trkpt lat="45.06307" lon="5.59552">
        <ele>1899</ele>
        <time>2021-03-28T13:10:21Z</time>
      </trkpt>
      <trkpt lat="45.06303" lon="5.59538">
        <ele>1898</ele>
        <time>2021-03-28T13:10:22Z</time>
      </trkpt>
      <trkpt lat="45.06305" lon="5.59523">
        <ele>1898</ele>
        <time>2021-03-28T13:10:23Z</time>
      </trkpt>
      <trkpt lat="45.06305" lon="5.5951">
        <ele>1898</ele>
        <time>2021-03-28T13:10:24Z</time>
      </trkpt>
      <trkpt lat="45.06305" lon="5.59498">
        <ele>1899</ele>
        <time>2021-03-28T13:10:25Z</time>
      </trkpt>
      <trkpt lat="45.06305" lon="5.59488">
        <ele>1899</ele>
        <time>2021-03-28T13:10:26Z</time>
      </trkpt>
      <trkpt lat="45.06307" lon="5.5948">
        <ele>1897</ele>
        <time>2021-03-28T13:10:27Z</time>
      </trkpt>
      <trkpt lat="45.0631" lon="5.59473">
        <ele>1895</ele>
        <time>2021-03-28T13:10:28Z</time>
      </trkpt>
      <trkpt lat="45.06312" lon="5.59465">
        <ele>1893</ele>
        <time>2021-03-28T13:10:29Z</time>
      </trkpt>
      <trkpt lat="45.06313" lon="5.59455">
        <ele>1891</ele>
        <time>2021-03-28T13:10:30Z</time>
      </trkpt>
      <trkpt lat="45.06317" lon="5.59445">
        <ele>1890</ele>
        <time>2021-03-28T13:10:31Z</time>
      </trkpt>
      <trkpt lat="45.0632" lon="5.59433">
        <ele>1890</ele>
        <time>2021-03-28T13:10:32Z</time>
      </trkpt>
      <trkpt lat="45.06325" lon="5.59423">
        <ele>1890</ele>
        <time>2021-03-28T13:10:33Z</time>
      </trkpt>
      <trkpt lat="45.06335" lon="5.59402">
        <ele>1891</ele>
        <time>2021-03-28T13:10:35Z</time>
      </trkpt>
      <trkpt lat="45.06335" lon="5.5939">
        <ele>1892</ele>
        <time>2021-03-28T13:10:36Z</time>
      </trkpt>
      <trkpt lat="45.06338" lon="5.59378">
        <ele>1893</ele>
        <time>2021-03-28T13:10:37Z</time>
      </trkpt>
      <trkpt lat="45.06343" lon="5.59368">
        <ele>1895</ele>
        <time>2021-03-28T13:10:38Z</time>
      </trkpt>
      <trkpt lat="45.06347" lon="5.5936">
        <ele>1896</ele>
        <time>2021-03-28T13:10:39Z</time>
      </trkpt>
      <trkpt lat="45.06347" lon="5.59353">
        <ele>1899</ele>
        <time>2021-03-28T13:10:40Z</time>
      </trkpt>
      <trkpt lat="45.06348" lon="5.5935">
        <ele>1902</ele>
        <time>2021-03-28T13:10:41Z</time>
      </trkpt>
      <trkpt lat="45.06347" lon="5.59347">
        <ele>1901</ele>
        <time>2021-03-28T13:10:42Z</time>
      </trkpt>
      <trkpt lat="45.06347" lon="5.5934">
        <ele>1900</ele>
        <time>2021-03-28T13:10:43Z</time>
      </trkpt>
      <trkpt lat="45.06348" lon="5.59333">
        <ele>1900</ele>
        <time>2021-03-28T13:10:44Z</time>
      </trkpt>
      <trkpt lat="45.06348" lon="5.59327">
        <ele>1900</ele>
        <time>2021-03-28T13:10:45Z</time>
      </trkpt>
      <trkpt lat="45.06353" lon="5.59323">
        <ele>1899</ele>
        <time>2021-03-28T13:10:46Z</time>
      </trkpt>
      <trkpt lat="45.06358" lon="5.59322">
        <ele>1899</ele>
        <time>2021-03-28T13:10:47Z</time>
      </trkpt>
      <trkpt lat="45.06365" lon="5.59322">
        <ele>1898</ele>
        <time>2021-03-28T13:10:48Z</time>
      </trkpt>
      <trkpt lat="45.06373" lon="5.59327">
        <ele>1899</ele>
        <time>2021-03-28T13:10:49Z</time>
      </trkpt>
      <trkpt lat="45.0638" lon="5.59333">
        <ele>1899</ele>
        <time>2021-03-28T13:10:50Z</time>
      </trkpt>
      <trkpt lat="45.06385" lon="5.59343">
        <ele>1897</ele>
        <time>2021-03-28T13:10:51Z</time>
      </trkpt>
      <trkpt lat="45.0639" lon="5.59355">
        <ele>1896</ele>
        <time>2021-03-28T13:10:52Z</time>
      </trkpt>
      <trkpt lat="45.06393" lon="5.59367">
        <ele>1894</ele>
        <time>2021-03-28T13:10:53Z</time>
      </trkpt>
      <trkpt lat="45.06395" lon="5.5938">
        <ele>1892</ele>
        <time>2021-03-28T13:10:54Z</time>
      </trkpt>
      <trkpt lat="45.06392" lon="5.59397">
        <ele>1890</ele>
        <time>2021-03-28T13:10:55Z</time>
      </trkpt>
      <trkpt lat="45.06385" lon="5.59413">
        <ele>1891</ele>
        <time>2021-03-28T13:10:56Z</time>
      </trkpt>
      <trkpt lat="45.06378" lon="5.59427">
        <ele>1890</ele>
        <time>2021-03-28T13:10:57Z</time>
      </trkpt>
      <trkpt lat="45.06368" lon="5.59437">
        <ele>1889</ele>
        <time>2021-03-28T13:10:58Z</time>
      </trkpt>
      <trkpt lat="45.06358" lon="5.59445">
        <ele>1887</ele>
        <time>2021-03-28T13:10:59Z</time>
      </trkpt>
      <trkpt lat="45.06347" lon="5.59452">
        <ele>1886</ele>
        <time>2021-03-28T13:11:00Z</time>
      </trkpt>
      <trkpt lat="45.06333" lon="5.59457">
        <ele>1887</ele>
        <time>2021-03-28T13:11:01Z</time>
      </trkpt>
      <trkpt lat="45.06322" lon="5.59458">
        <ele>1887</ele>
        <time>2021-03-28T13:11:02Z</time>
      </trkpt>
      <trkpt lat="45.0631" lon="5.59457">
        <ele>1888</ele>
        <time>2021-03-28T13:11:03Z</time>
      </trkpt>
      <trkpt lat="45.063" lon="5.59455">
        <ele>1890</ele>
        <time>2021-03-28T13:11:04Z</time>
      </trkpt>
      <trkpt lat="45.0629" lon="5.59452">
        <ele>1891</ele>
        <time>2021-03-28T13:11:05Z</time>
      </trkpt>
      <trkpt lat="45.0628" lon="5.59448">
        <ele>1893</ele>
        <time>2021-03-28T13:11:06Z</time>
      </trkpt>
      <trkpt lat="45.06272" lon="5.59443">
        <ele>1895</ele>
        <time>2021-03-28T13:11:07Z</time>
      </trkpt>
      <trkpt lat="45.06268" lon="5.59437">
        <ele>1896</ele>
        <time>2021-03-28T13:11:08Z</time>
      </trkpt>
      <trkpt lat="45.06265" lon="5.59428">
        <ele>1897</ele>
        <time>2021-03-28T13:11:09Z</time>
      </trkpt>
      <trkpt lat="45.06263" lon="5.5942">
        <ele>1899</ele>
        <time>2021-03-28T13:11:10Z</time>
      </trkpt>
      <trkpt lat="45.06263" lon="5.59413">
        <ele>1900</ele>
        <time>2021-03-28T13:11:11Z</time>
      </trkpt>
      <trkpt lat="45.06263" lon="5.59405">
        <ele>1900</ele>
        <time>2021-03-28T13:11:12Z</time>
      </trkpt>
      <trkpt lat="45.06263" lon="5.59397">
        <ele>1901</ele>
        <time>2021-03-28T13:11:13Z</time>
      </trkpt>
      <trkpt lat="45.06263" lon="5.59388">
        <ele>1901</ele>
        <time>2021-03-28T13:11:14Z</time>
      </trkpt>
      <trkpt lat="45.06262" lon="5.5938">
        <ele>1901</ele>
        <time>2021-03-28T13:11:15Z</time>
      </trkpt>
      <trkpt lat="45.06263" lon="5.59373">
        <ele>1901</ele>
        <time>2021-03-28T13:11:16Z</time>
      </trkpt>
      <trkpt lat="45.06263" lon="5.59367">
        <ele>1901</ele>
        <time>2021-03-28T13:11:17Z</time>
      </trkpt>
      <trkpt lat="45.06265" lon="5.5936">
        <ele>1901</ele>
        <time>2021-03-28T13:11:18Z</time>
      </trkpt>
      <trkpt lat="45.06265" lon="5.59353">
        <ele>1900</ele>
        <time>2021-03-28T13:11:19Z</time>
      </trkpt>
      <trkpt lat="45.06265" lon="5.59347">
        <ele>1899</ele>
        <time>2021-03-28T13:11:20Z</time>
      </trkpt>
      <trkpt lat="45.06267" lon="5.5934">
        <ele>1898</ele>
        <time>2021-03-28T13:11:21Z</time>
      </trkpt>
      <trkpt lat="45.06268" lon="5.59333">
        <ele>1896</ele>
        <time>2021-03-28T13:11:22Z</time>
      </trkpt>
      <trkpt lat="45.06273" lon="5.5933">
        <ele>1895</ele>
        <time>2021-03-28T13:11:23Z</time>
      </trkpt>
      <trkpt lat="45.0628" lon="5.5933">
        <ele>1892</ele>
        <time>2021-03-28T13:11:24Z</time>
      </trkpt>
      <trkpt lat="45.06288" lon="5.59332">
        <ele>1891</ele>
        <time>2021-03-28T13:11:25Z</time>
      </trkpt>
      <trkpt lat="45.06298" lon="5.59338">
        <ele>1889</ele>
        <time>2021-03-28T13:11:26Z</time>
      </trkpt>
      <trkpt lat="45.06307" lon="5.59347">
        <ele>1887</ele>
        <time>2021-03-28T13:11:27Z</time>
      </trkpt>
      <trkpt lat="45.06313" lon="5.59358">
        <ele>1886</ele>
        <time>2021-03-28T13:11:28Z</time>
      </trkpt>
      <trkpt lat="45.06322" lon="5.59372">
        <ele>1885</ele>
        <time>2021-03-28T13:11:29Z</time>
      </trkpt>
      <trkpt lat="45.06327" lon="5.59385">
        <ele>1885</ele>
        <time>2021-03-28T13:11:30Z</time>
      </trkpt>
      <trkpt lat="45.0633" lon="5.59397">
        <ele>1885</ele>
        <time>2021-03-28T13:11:31Z</time>
      </trkpt>
      <trkpt lat="45.06317" lon="5.59422">
        <ele>1885</ele>
        <time>2021-03-28T13:11:32Z</time>
      </trkpt>
      <trkpt lat="45.0631" lon="5.59437">
        <ele>1886</ele>
        <time>2021-03-28T13:11:33Z</time>
      </trkpt>
      <trkpt lat="45.063" lon="5.59447">
        <ele>1886</ele>
        <time>2021-03-28T13:11:34Z</time>
      </trkpt>
      <trkpt lat="45.0629" lon="5.59452">
        <ele>1886</ele>
        <time>2021-03-28T13:11:35Z</time>
      </trkpt>
      <trkpt lat="45.06277" lon="5.59452">
        <ele>1886</ele>
        <time>2021-03-28T13:11:36Z</time>
      </trkpt>
      <trkpt lat="45.06267" lon="5.59448">
        <ele>1886</ele>
        <time>2021-03-28T13:11:37Z</time>
      </trkpt>
      <trkpt lat="45.06258" lon="5.59445">
        <ele>1886</ele>
        <time>2021-03-28T13:11:38Z</time>
      </trkpt>
      <trkpt lat="45.06252" lon="5.59437">
        <ele>1885</ele>
        <time>2021-03-28T13:11:39Z</time>
      </trkpt>
      <trkpt lat="45.06245" lon="5.5943">
        <ele>1885</ele>
        <time>2021-03-28T13:11:40Z</time>
      </trkpt>
      <trkpt lat="45.0624" lon="5.59422">
        <ele>1884</ele>
        <time>2021-03-28T13:11:41Z</time>
      </trkpt>
      <trkpt lat="45.06235" lon="5.59415">
        <ele>1883</ele>
        <time>2021-03-28T13:11:42Z</time>
      </trkpt>
      <trkpt lat="45.06232" lon="5.59405">
        <ele>1883</ele>
        <time>2021-03-28T13:11:43Z</time>
      </trkpt>
      <trkpt lat="45.0623" lon="5.59397">
        <ele>1882</ele>
        <time>2021-03-28T13:11:44Z</time>
      </trkpt>
      <trkpt lat="45.0623" lon="5.59387">
        <ele>1881</ele>
        <time>2021-03-28T13:11:45Z</time>
      </trkpt>
      <trkpt lat="45.06235" lon="5.59368">
        <ele>1880</ele>
        <time>2021-03-28T13:11:47Z</time>
      </trkpt>
      <trkpt lat="45.0624" lon="5.59358">
        <ele>1879</ele>
        <time>2021-03-28T13:11:48Z</time>
      </trkpt>
      <trkpt lat="45.06245" lon="5.59353">
        <ele>1879</ele>
        <time>2021-03-28T13:11:49Z</time>
      </trkpt>
      <trkpt lat="45.06252" lon="5.59348">
        <ele>1879</ele>
        <time>2021-03-28T13:11:50Z</time>
      </trkpt>
      <trkpt lat="45.06255" lon="5.59343">
        <ele>1877</ele>
        <time>2021-03-28T13:11:51Z</time>
      </trkpt>
      <trkpt lat="45.06258" lon="5.59337">
        <ele>1873</ele>
        <time>2021-03-28T13:11:52Z</time>
      </trkpt>
      <trkpt lat="45.06263" lon="5.5933">
        <ele>1871</ele>
        <time>2021-03-28T13:11:53Z</time>
      </trkpt>
      <trkpt lat="45.06267" lon="5.59325">
        <ele>1869</ele>
        <time>2021-03-28T13:11:54Z</time>
      </trkpt>
      <trkpt lat="45.06272" lon="5.59318">
        <ele>1867</ele>
        <time>2021-03-28T13:11:55Z</time>
      </trkpt>
      <trkpt lat="45.06275" lon="5.59312">
        <ele>1865</ele>
        <time>2021-03-28T13:11:56Z</time>
      </trkpt>
      <trkpt lat="45.06282" lon="5.59305">
        <ele>1863</ele>
        <time>2021-03-28T13:11:57Z</time>
      </trkpt>
      <trkpt lat="45.06287" lon="5.593">
        <ele>1860</ele>
        <time>2021-03-28T13:11:58Z</time>
      </trkpt>
      <trkpt lat="45.06295" lon="5.59297">
        <ele>1858</ele>
        <time>2021-03-28T13:11:59Z</time>
      </trkpt>
      <trkpt lat="45.06303" lon="5.59295">
        <ele>1856</ele>
        <time>2021-03-28T13:12:00Z</time>
      </trkpt>
      <trkpt lat="45.06313" lon="5.59298">
        <ele>1854</ele>
        <time>2021-03-28T13:12:01Z</time>
      </trkpt>
      <trkpt lat="45.06323" lon="5.59302">
        <ele>1851</ele>
        <time>2021-03-28T13:12:02Z</time>
      </trkpt>
      <trkpt lat="45.06332" lon="5.59303">
        <ele>1848</ele>
        <time>2021-03-28T13:12:03Z</time>
      </trkpt>
      <trkpt lat="45.06342" lon="5.59303">
        <ele>1847</ele>
        <time>2021-03-28T13:12:04Z</time>
      </trkpt>
      <trkpt lat="45.06352" lon="5.593">
        <ele>1846</ele>
        <time>2021-03-28T13:12:05Z</time>
      </trkpt>
      <trkpt lat="45.0636" lon="5.59292">
        <ele>1845</ele>
        <time>2021-03-28T13:12:06Z</time>
      </trkpt>
      <trkpt lat="45.06368" lon="5.59283">
        <ele>1844</ele>
        <time>2021-03-28T13:12:07Z</time>
      </trkpt>
      <trkpt lat="45.0637" lon="5.59275">
        <ele>1843</ele>
        <time>2021-03-28T13:12:08Z</time>
      </trkpt>
      <trkpt lat="45.06365" lon="5.59263">
        <ele>1843</ele>
        <time>2021-03-28T13:12:09Z</time>
      </trkpt>
      <trkpt lat="45.06362" lon="5.59255">
        <ele>1842</ele>
        <time>2021-03-28T13:12:10Z</time>
      </trkpt>
      <trkpt lat="45.06358" lon="5.59247">
        <ele>1841</ele>
        <time>2021-03-28T13:12:11Z</time>
      </trkpt>
      <trkpt lat="45.06353" lon="5.5924">
        <ele>1840</ele>
        <time>2021-03-28T13:12:12Z</time>
      </trkpt>
      <trkpt lat="45.06348" lon="5.59233">
        <ele>1838</ele>
        <time>2021-03-28T13:12:13Z</time>
      </trkpt>
      <trkpt lat="45.0634" lon="5.59232">
        <ele>1836</ele>
        <time>2021-03-28T13:12:14Z</time>
      </trkpt>
      <trkpt lat="45.06332" lon="5.5923">
        <ele>1834</ele>
        <time>2021-03-28T13:12:15Z</time>
      </trkpt>
      <trkpt lat="45.06318" lon="5.59233">
        <ele>1832</ele>
        <time>2021-03-28T13:12:16Z</time>
      </trkpt>
      <trkpt lat="45.06308" lon="5.5923">
        <ele>1831</ele>
        <time>2021-03-28T13:12:17Z</time>
      </trkpt>
      <trkpt lat="45.06298" lon="5.59227">
        <ele>1829</ele>
        <time>2021-03-28T13:12:18Z</time>
      </trkpt>
      <trkpt lat="45.06292" lon="5.59222">
        <ele>1828</ele>
        <time>2021-03-28T13:12:19Z</time>
      </trkpt>
      <trkpt lat="45.06285" lon="5.59213">
        <ele>1826</ele>
        <time>2021-03-28T13:12:20Z</time>
      </trkpt>
      <trkpt lat="45.0628" lon="5.59203">
        <ele>1824</ele>
        <time>2021-03-28T13:12:21Z</time>
      </trkpt>
      <trkpt lat="45.06278" lon="5.59195">
        <ele>1822</ele>
        <time>2021-03-28T13:12:22Z</time>
      </trkpt>
      <trkpt lat="45.06278" lon="5.59183">
        <ele>1822</ele>
        <time>2021-03-28T13:12:23Z</time>
      </trkpt>
      <trkpt lat="45.06285" lon="5.59168">
        <ele>1824</ele>
        <time>2021-03-28T13:12:24Z</time>
      </trkpt>
      <trkpt lat="45.06288" lon="5.59158">
        <ele>1824</ele>
        <time>2021-03-28T13:12:25Z</time>
      </trkpt>
      <trkpt lat="45.06292" lon="5.5915">
        <ele>1824</ele>
        <time>2021-03-28T13:12:26Z</time>
      </trkpt>
      <trkpt lat="45.06295" lon="5.59143">
        <ele>1823</ele>
        <time>2021-03-28T13:12:27Z</time>
      </trkpt>
      <trkpt lat="45.06298" lon="5.59135">
        <ele>1822</ele>
        <time>2021-03-28T13:12:28Z</time>
      </trkpt>
      <trkpt lat="45.06302" lon="5.59127">
        <ele>1821</ele>
        <time>2021-03-28T13:12:29Z</time>
      </trkpt>
      <trkpt lat="45.06307" lon="5.59118">
        <ele>1820</ele>
        <time>2021-03-28T13:12:30Z</time>
      </trkpt>
      <trkpt lat="45.06312" lon="5.5911">
        <ele>1820</ele>
        <time>2021-03-28T13:12:31Z</time>
      </trkpt>
      <trkpt lat="45.06318" lon="5.59102">
        <ele>1821</ele>
        <time>2021-03-28T13:12:32Z</time>
      </trkpt>
      <trkpt lat="45.06325" lon="5.59093">
        <ele>1823</ele>
        <time>2021-03-28T13:12:33Z</time>
      </trkpt>
      <trkpt lat="45.06332" lon="5.59087">
        <ele>1826</ele>
        <time>2021-03-28T13:12:34Z</time>
      </trkpt>
      <trkpt lat="45.06335" lon="5.59082">
        <ele>1830</ele>
        <time>2021-03-28T13:12:35Z</time>
      </trkpt>
      <trkpt lat="45.0634" lon="5.59077">
        <ele>1833</ele>
        <time>2021-03-28T13:12:36Z</time>
      </trkpt>
      <trkpt lat="45.06343" lon="5.59072">
        <ele>1834</ele>
        <time>2021-03-28T13:12:37Z</time>
      </trkpt>
      <trkpt lat="45.06348" lon="5.59067">
        <ele>1834</ele>
        <time>2021-03-28T13:12:38Z</time>
      </trkpt>
      <trkpt lat="45.06352" lon="5.5906">
        <ele>1835</ele>
        <time>2021-03-28T13:12:39Z</time>
      </trkpt>
      <trkpt lat="45.06355" lon="5.59052">
        <ele>1835</ele>
        <time>2021-03-28T13:12:40Z</time>
      </trkpt>
      <trkpt lat="45.06358" lon="5.59043">
        <ele>1836</ele>
        <time>2021-03-28T13:12:41Z</time>
      </trkpt>
      <trkpt lat="45.0636" lon="5.59033">
        <ele>1838</ele>
        <time>2021-03-28T13:12:42Z</time>
      </trkpt>
      <trkpt lat="45.06362" lon="5.59023">
        <ele>1840</ele>
        <time>2021-03-28T13:12:43Z</time>
      </trkpt>
      <trkpt lat="45.06365" lon="5.59015">
        <ele>1840</ele>
        <time>2021-03-28T13:12:44Z</time>
      </trkpt>
      <trkpt lat="45.06367" lon="5.59008">
        <ele>1840</ele>
        <time>2021-03-28T13:12:45Z</time>
      </trkpt>
      <trkpt lat="45.06368" lon="5.59">
        <ele>1839</ele>
        <time>2021-03-28T13:12:46Z</time>
      </trkpt>
      <trkpt lat="45.0637" lon="5.58992">
        <ele>1838</ele>
        <time>2021-03-28T13:12:47Z</time>
      </trkpt>
      <trkpt lat="45.06372" lon="5.5898">
        <ele>1837</ele>
        <time>2021-03-28T13:12:48Z</time>
      </trkpt>
      <trkpt lat="45.06378" lon="5.5897">
        <ele>1837</ele>
        <time>2021-03-28T13:12:49Z</time>
      </trkpt>
      <trkpt lat="45.06382" lon="5.5896">
        <ele>1836</ele>
        <time>2021-03-28T13:12:50Z</time>
      </trkpt>
      <trkpt lat="45.06387" lon="5.5895">
        <ele>1835</ele>
        <time>2021-03-28T13:12:51Z</time>
      </trkpt>
      <trkpt lat="45.06388" lon="5.58942">
        <ele>1835</ele>
        <time>2021-03-28T13:12:52Z</time>
      </trkpt>
      <trkpt lat="45.0639" lon="5.58932">
        <ele>1834</ele>
        <time>2021-03-28T13:12:53Z</time>
      </trkpt>
      <trkpt lat="45.06392" lon="5.58925">
        <ele>1832</ele>
        <time>2021-03-28T13:12:54Z</time>
      </trkpt>
      <trkpt lat="45.06395" lon="5.58918">
        <ele>1830</ele>
        <time>2021-03-28T13:12:55Z</time>
      </trkpt>
      <trkpt lat="45.064" lon="5.58912">
        <ele>1829</ele>
        <time>2021-03-28T13:12:56Z</time>
      </trkpt>
      <trkpt lat="45.06405" lon="5.58908">
        <ele>1828</ele>
        <time>2021-03-28T13:12:57Z</time>
      </trkpt>
      <trkpt lat="45.06412" lon="5.58905">
        <ele>1827</ele>
        <time>2021-03-28T13:12:58Z</time>
      </trkpt>
      <trkpt lat="45.0642" lon="5.58908">
        <ele>1825</ele>
        <time>2021-03-28T13:12:59Z</time>
      </trkpt>
      <trkpt lat="45.06428" lon="5.58913">
        <ele>1824</ele>
        <time>2021-03-28T13:13:00Z</time>
      </trkpt>
      <trkpt lat="45.06442" lon="5.58935">
        <ele>1823</ele>
        <time>2021-03-28T13:13:02Z</time>
      </trkpt>
      <trkpt lat="45.06443" lon="5.5895">
        <ele>1822</ele>
        <time>2021-03-28T13:13:03Z</time>
      </trkpt>
      <trkpt lat="45.06445" lon="5.58963">
        <ele>1819</ele>
        <time>2021-03-28T13:13:04Z</time>
      </trkpt>
      <trkpt lat="45.06435" lon="5.58982">
        <ele>1818</ele>
        <time>2021-03-28T13:13:05Z</time>
      </trkpt>
      <trkpt lat="45.0643" lon="5.58995">
        <ele>1814</ele>
        <time>2021-03-28T13:13:06Z</time>
      </trkpt>
      <trkpt lat="45.0642" lon="5.59007">
        <ele>1814</ele>
        <time>2021-03-28T13:13:07Z</time>
      </trkpt>
      <trkpt lat="45.0641" lon="5.59015">
        <ele>1811</ele>
        <time>2021-03-28T13:13:08Z</time>
      </trkpt>
      <trkpt lat="45.064" lon="5.59022">
        <ele>1809</ele>
        <time>2021-03-28T13:13:09Z</time>
      </trkpt>
      <trkpt lat="45.06392" lon="5.59025">
        <ele>1808</ele>
        <time>2021-03-28T13:13:10Z</time>
      </trkpt>
      <trkpt lat="45.0638" lon="5.59022">
        <ele>1807</ele>
        <time>2021-03-28T13:13:11Z</time>
      </trkpt>
      <trkpt lat="45.06372" lon="5.59017">
        <ele>1806</ele>
        <time>2021-03-28T13:13:12Z</time>
      </trkpt>
      <trkpt lat="45.06363" lon="5.59012">
        <ele>1805</ele>
        <time>2021-03-28T13:13:13Z</time>
      </trkpt>
      <trkpt lat="45.06357" lon="5.59005">
        <ele>1804</ele>
        <time>2021-03-28T13:13:14Z</time>
      </trkpt>
      <trkpt lat="45.06352" lon="5.58997">
        <ele>1802</ele>
        <time>2021-03-28T13:13:15Z</time>
      </trkpt>
      <trkpt lat="45.06348" lon="5.58985">
        <ele>1801</ele>
        <time>2021-03-28T13:13:16Z</time>
      </trkpt>
      <trkpt lat="45.0635" lon="5.58973">
        <ele>1800</ele>
        <time>2021-03-28T13:13:17Z</time>
      </trkpt>
      <trkpt lat="45.0635" lon="5.58967">
        <ele>1798</ele>
        <time>2021-03-28T13:13:18Z</time>
      </trkpt>
      <trkpt lat="45.06355" lon="5.58958">
        <ele>1796</ele>
        <time>2021-03-28T13:13:19Z</time>
      </trkpt>
      <trkpt lat="45.0636" lon="5.5895">
        <ele>1795</ele>
        <time>2021-03-28T13:13:20Z</time>
      </trkpt>
      <trkpt lat="45.06365" lon="5.58943">
        <ele>1794</ele>
        <time>2021-03-28T13:13:21Z</time>
      </trkpt>
      <trkpt lat="45.0637" lon="5.58937">
        <ele>1793</ele>
        <time>2021-03-28T13:13:22Z</time>
      </trkpt>
      <trkpt lat="45.06375" lon="5.58932">
        <ele>1792</ele>
        <time>2021-03-28T13:13:23Z</time>
      </trkpt>
      <trkpt lat="45.0638" lon="5.58927">
        <ele>1790</ele>
        <time>2021-03-28T13:13:24Z</time>
      </trkpt>
      <trkpt lat="45.06383" lon="5.5892">
        <ele>1788</ele>
        <time>2021-03-28T13:13:25Z</time>
      </trkpt>
      <trkpt lat="45.06387" lon="5.58913">
        <ele>1787</ele>
        <time>2021-03-28T13:13:26Z</time>
      </trkpt>
      <trkpt lat="45.0639" lon="5.58905">
        <ele>1785</ele>
        <time>2021-03-28T13:13:27Z</time>
      </trkpt>
      <trkpt lat="45.06393" lon="5.58898">
        <ele>1784</ele>
        <time>2021-03-28T13:13:28Z</time>
      </trkpt>
      <trkpt lat="45.06395" lon="5.5889">
        <ele>1782</ele>
        <time>2021-03-28T13:13:29Z</time>
      </trkpt>
      <trkpt lat="45.06398" lon="5.58882">
        <ele>1781</ele>
        <time>2021-03-28T13:13:30Z</time>
      </trkpt>
      <trkpt lat="45.06398" lon="5.58872">
        <ele>1779</ele>
        <time>2021-03-28T13:13:31Z</time>
      </trkpt>
      <trkpt lat="45.06397" lon="5.58862">
        <ele>1778</ele>
        <time>2021-03-28T13:13:32Z</time>
      </trkpt>
      <trkpt lat="45.06395" lon="5.58853">
        <ele>1776</ele>
        <time>2021-03-28T13:13:33Z</time>
      </trkpt>
      <trkpt lat="45.06388" lon="5.58843">
        <ele>1774</ele>
        <time>2021-03-28T13:13:34Z</time>
      </trkpt>
      <trkpt lat="45.06382" lon="5.58837">
        <ele>1772</ele>
        <time>2021-03-28T13:13:35Z</time>
      </trkpt>
      <trkpt lat="45.06373" lon="5.58833">
        <ele>1771</ele>
        <time>2021-03-28T13:13:36Z</time>
      </trkpt>
      <trkpt lat="45.06363" lon="5.58835">
        <ele>1770</ele>
        <time>2021-03-28T13:13:37Z</time>
      </trkpt>
      <trkpt lat="45.06353" lon="5.5884">
        <ele>1769</ele>
        <time>2021-03-28T13:13:38Z</time>
      </trkpt>
      <trkpt lat="45.06345" lon="5.58848">
        <ele>1767</ele>
        <time>2021-03-28T13:13:39Z</time>
      </trkpt>
      <trkpt lat="45.06337" lon="5.58858">
        <ele>1764</ele>
        <time>2021-03-28T13:13:40Z</time>
      </trkpt>
      <trkpt lat="45.06328" lon="5.58868">
        <ele>1762</ele>
        <time>2021-03-28T13:13:41Z</time>
      </trkpt>
      <trkpt lat="45.06322" lon="5.5888">
        <ele>1759</ele>
        <time>2021-03-28T13:13:42Z</time>
      </trkpt>
      <trkpt lat="45.06313" lon="5.58887">
        <ele>1756</ele>
        <time>2021-03-28T13:13:43Z</time>
      </trkpt>
      <trkpt lat="45.06303" lon="5.5889">
        <ele>1753</ele>
        <time>2021-03-28T13:13:44Z</time>
      </trkpt>
      <trkpt lat="45.06295" lon="5.5889">
        <ele>1750</ele>
        <time>2021-03-28T13:13:45Z</time>
      </trkpt>
      <trkpt lat="45.06287" lon="5.58887">
        <ele>1748</ele>
        <time>2021-03-28T13:13:46Z</time>
      </trkpt>
      <trkpt lat="45.0628" lon="5.58882">
        <ele>1746</ele>
        <time>2021-03-28T13:13:47Z</time>
      </trkpt>
      <trkpt lat="45.06273" lon="5.58877">
        <ele>1744</ele>
        <time>2021-03-28T13:13:48Z</time>
      </trkpt>
      <trkpt lat="45.0627" lon="5.5887">
        <ele>1742</ele>
        <time>2021-03-28T13:13:49Z</time>
      </trkpt>
      <trkpt lat="45.06267" lon="5.58862">
        <ele>1738</ele>
        <time>2021-03-28T13:13:50Z</time>
      </trkpt>
      <trkpt lat="45.06263" lon="5.58853">
        <ele>1736</ele>
        <time>2021-03-28T13:13:51Z</time>
      </trkpt>
      <trkpt lat="45.0626" lon="5.58843">
        <ele>1733</ele>
        <time>2021-03-28T13:13:52Z</time>
      </trkpt>
      <trkpt lat="45.06262" lon="5.58832">
        <ele>1731</ele>
        <time>2021-03-28T13:13:53Z</time>
      </trkpt>
      <trkpt lat="45.06263" lon="5.5882">
        <ele>1729</ele>
        <time>2021-03-28T13:13:54Z</time>
      </trkpt>
      <trkpt lat="45.06267" lon="5.5881">
        <ele>1727</ele>
        <time>2021-03-28T13:13:55Z</time>
      </trkpt>
      <trkpt lat="45.0627" lon="5.58802">
        <ele>1725</ele>
        <time>2021-03-28T13:13:56Z</time>
      </trkpt>
      <trkpt lat="45.06275" lon="5.58792">
        <ele>1723</ele>
        <time>2021-03-28T13:13:57Z</time>
      </trkpt>
      <trkpt lat="45.0628" lon="5.58783">
        <ele>1722</ele>
        <time>2021-03-28T13:13:58Z</time>
      </trkpt>
      <trkpt lat="45.06287" lon="5.58775">
        <ele>1721</ele>
        <time>2021-03-28T13:13:59Z</time>
      </trkpt>
      <trkpt lat="45.06292" lon="5.58767">
        <ele>1720</ele>
        <time>2021-03-28T13:14:00Z</time>
      </trkpt>
      <trkpt lat="45.06297" lon="5.5876">
        <ele>1718</ele>
        <time>2021-03-28T13:14:01Z</time>
      </trkpt>
      <trkpt lat="45.06302" lon="5.58753">
        <ele>1717</ele>
        <time>2021-03-28T13:14:02Z</time>
      </trkpt>
      <trkpt lat="45.06308" lon="5.58747">
        <ele>1715</ele>
        <time>2021-03-28T13:14:03Z</time>
      </trkpt>
      <trkpt lat="45.06313" lon="5.5874">
        <ele>1713</ele>
        <time>2021-03-28T13:14:04Z</time>
      </trkpt>
      <trkpt lat="45.0632" lon="5.58733">
        <ele>1712</ele>
        <time>2021-03-28T13:14:05Z</time>
      </trkpt>
      <trkpt lat="45.06327" lon="5.58728">
        <ele>1710</ele>
        <time>2021-03-28T13:14:06Z</time>
      </trkpt>
      <trkpt lat="45.06333" lon="5.58723">
        <ele>1709</ele>
        <time>2021-03-28T13:14:07Z</time>
      </trkpt>
      <trkpt lat="45.0634" lon="5.58718">
        <ele>1708</ele>
        <time>2021-03-28T13:14:08Z</time>
      </trkpt>
      <trkpt lat="45.06347" lon="5.58712">
        <ele>1707</ele>
        <time>2021-03-28T13:14:09Z</time>
      </trkpt>
      <trkpt lat="45.06352" lon="5.58705">
        <ele>1706</ele>
        <time>2021-03-28T13:14:10Z</time>
      </trkpt>
      <trkpt lat="45.06357" lon="5.58698">
        <ele>1706</ele>
        <time>2021-03-28T13:14:11Z</time>
      </trkpt>
      <trkpt lat="45.06362" lon="5.58692">
        <ele>1706</ele>
        <time>2021-03-28T13:14:12Z</time>
      </trkpt>
      <trkpt lat="45.06367" lon="5.58683">
        <ele>1705</ele>
        <time>2021-03-28T13:14:13Z</time>
      </trkpt>
      <trkpt lat="45.06375" lon="5.58672">
        <ele>1704</ele>
        <time>2021-03-28T13:14:15Z</time>
      </trkpt>
      <trkpt lat="45.06382" lon="5.58668">
        <ele>1704</ele>
        <time>2021-03-28T13:14:16Z</time>
      </trkpt>
      <trkpt lat="45.06388" lon="5.58667">
        <ele>1704</ele>
        <time>2021-03-28T13:14:17Z</time>
      </trkpt>
      <trkpt lat="45.06395" lon="5.58665">
        <ele>1704</ele>
        <time>2021-03-28T13:14:18Z</time>
      </trkpt>
      <trkpt lat="45.06402" lon="5.58665">
        <ele>1703</ele>
        <time>2021-03-28T13:14:19Z</time>
      </trkpt>
      <trkpt lat="45.06408" lon="5.58665">
        <ele>1702</ele>
        <time>2021-03-28T13:14:20Z</time>
      </trkpt>
      <trkpt lat="45.06415" lon="5.58665">
        <ele>1702</ele>
        <time>2021-03-28T13:14:21Z</time>
      </trkpt>
      <trkpt lat="45.06423" lon="5.58663">
        <ele>1701</ele>
        <time>2021-03-28T13:14:22Z</time>
      </trkpt>
      <trkpt lat="45.06432" lon="5.58662">
        <ele>1700</ele>
        <time>2021-03-28T13:14:23Z</time>
      </trkpt>
      <trkpt lat="45.0644" lon="5.58662">
        <ele>1698</ele>
        <time>2021-03-28T13:14:24Z</time>
      </trkpt>
      <trkpt lat="45.06448" lon="5.58662">
        <ele>1697</ele>
        <time>2021-03-28T13:14:25Z</time>
      </trkpt>
      <trkpt lat="45.06458" lon="5.58662">
        <ele>1697</ele>
        <time>2021-03-28T13:14:26Z</time>
      </trkpt>
      <trkpt lat="45.06467" lon="5.58665">
        <ele>1697</ele>
        <time>2021-03-28T13:14:27Z</time>
      </trkpt>
      <trkpt lat="45.06475" lon="5.58667">
        <ele>1697</ele>
        <time>2021-03-28T13:14:28Z</time>
      </trkpt>
      <trkpt lat="45.06483" lon="5.5867">
        <ele>1697</ele>
        <time>2021-03-28T13:14:29Z</time>
      </trkpt>
      <trkpt lat="45.06492" lon="5.58675">
        <ele>1696</ele>
        <time>2021-03-28T13:14:30Z</time>
      </trkpt>
      <trkpt lat="45.065" lon="5.5868">
        <ele>1697</ele>
        <time>2021-03-28T13:14:31Z</time>
      </trkpt>
      <trkpt lat="45.06508" lon="5.58683">
        <ele>1697</ele>
        <time>2021-03-28T13:14:32Z</time>
      </trkpt>
      <trkpt lat="45.06515" lon="5.58687">
        <ele>1698</ele>
        <time>2021-03-28T13:14:33Z</time>
      </trkpt>
      <trkpt lat="45.06523" lon="5.5869">
        <ele>1697</ele>
        <time>2021-03-28T13:14:34Z</time>
      </trkpt>
      <trkpt lat="45.0653" lon="5.58695">
        <ele>1698</ele>
        <time>2021-03-28T13:14:35Z</time>
      </trkpt>
      <trkpt lat="45.06538" lon="5.58698">
        <ele>1699</ele>
        <time>2021-03-28T13:14:36Z</time>
      </trkpt>
      <trkpt lat="45.06545" lon="5.58703">
        <ele>1700</ele>
        <time>2021-03-28T13:14:37Z</time>
      </trkpt>
      <trkpt lat="45.06553" lon="5.58705">
        <ele>1701</ele>
        <time>2021-03-28T13:14:38Z</time>
      </trkpt>
      <trkpt lat="45.06562" lon="5.58708">
        <ele>1702</ele>
        <time>2021-03-28T13:14:39Z</time>
      </trkpt>
      <trkpt lat="45.0657" lon="5.58712">
        <ele>1703</ele>
        <time>2021-03-28T13:14:40Z</time>
      </trkpt>
      <trkpt lat="45.06578" lon="5.58715">
        <ele>1703</ele>
        <time>2021-03-28T13:14:41Z</time>
      </trkpt>
      <trkpt lat="45.06585" lon="5.58717">
        <ele>1703</ele>
        <time>2021-03-28T13:14:42Z</time>
      </trkpt>
      <trkpt lat="45.06597" lon="5.5872">
        <ele>1701</ele>
        <time>2021-03-28T13:14:43Z</time>
      </trkpt>
      <trkpt lat="45.06605" lon="5.58725">
        <ele>1701</ele>
        <time>2021-03-28T13:14:44Z</time>
      </trkpt>
      <trkpt lat="45.06613" lon="5.5873">
        <ele>1701</ele>
        <time>2021-03-28T13:14:45Z</time>
      </trkpt>
      <trkpt lat="45.06622" lon="5.58733">
        <ele>1701</ele>
        <time>2021-03-28T13:14:46Z</time>
      </trkpt>
      <trkpt lat="45.0663" lon="5.58735">
        <ele>1701</ele>
        <time>2021-03-28T13:14:47Z</time>
      </trkpt>
      <trkpt lat="45.06637" lon="5.58733">
        <ele>1700</ele>
        <time>2021-03-28T13:14:48Z</time>
      </trkpt>
      <trkpt lat="45.06645" lon="5.5873">
        <ele>1699</ele>
        <time>2021-03-28T13:14:49Z</time>
      </trkpt>
      <trkpt lat="45.06653" lon="5.58723">
        <ele>1698</ele>
        <time>2021-03-28T13:14:50Z</time>
      </trkpt>
      <trkpt lat="45.06658" lon="5.58715">
        <ele>1698</ele>
        <time>2021-03-28T13:14:51Z</time>
      </trkpt>
      <trkpt lat="45.06662" lon="5.58705">
        <ele>1697</ele>
        <time>2021-03-28T13:14:52Z</time>
      </trkpt>
      <trkpt lat="45.0666" lon="5.58692">
        <ele>1695</ele>
        <time>2021-03-28T13:14:53Z</time>
      </trkpt>
      <trkpt lat="45.06657" lon="5.5868">
        <ele>1694</ele>
        <time>2021-03-28T13:14:54Z</time>
      </trkpt>
      <trkpt lat="45.06653" lon="5.58668">
        <ele>1693</ele>
        <time>2021-03-28T13:14:55Z</time>
      </trkpt>
      <trkpt lat="45.06645" lon="5.58657">
        <ele>1692</ele>
        <time>2021-03-28T13:14:56Z</time>
      </trkpt>
      <trkpt lat="45.06638" lon="5.5865">
        <ele>1691</ele>
        <time>2021-03-28T13:14:57Z</time>
      </trkpt>
      <trkpt lat="45.0663" lon="5.58645">
        <ele>1690</ele>
        <time>2021-03-28T13:14:58Z</time>
      </trkpt>
      <trkpt lat="45.0662" lon="5.58643">
        <ele>1689</ele>
        <time>2021-03-28T13:14:59Z</time>
      </trkpt>
      <trkpt lat="45.0661" lon="5.58645">
        <ele>1688</ele>
        <time>2021-03-28T13:15:00Z</time>
      </trkpt>
      <trkpt lat="45.06598" lon="5.58648">
        <ele>1686</ele>
        <time>2021-03-28T13:15:01Z</time>
      </trkpt>
      <trkpt lat="45.06587" lon="5.5865">
        <ele>1685</ele>
        <time>2021-03-28T13:15:02Z</time>
      </trkpt>
      <trkpt lat="45.06577" lon="5.58652">
        <ele>1684</ele>
        <time>2021-03-28T13:15:03Z</time>
      </trkpt>
      <trkpt lat="45.06567" lon="5.58653">
        <ele>1684</ele>
        <time>2021-03-28T13:15:04Z</time>
      </trkpt>
      <trkpt lat="45.06555" lon="5.58653">
        <ele>1683</ele>
        <time>2021-03-28T13:15:05Z</time>
      </trkpt>
      <trkpt lat="45.06545" lon="5.58652">
        <ele>1682</ele>
        <time>2021-03-28T13:15:06Z</time>
      </trkpt>
      <trkpt lat="45.06535" lon="5.5865">
        <ele>1681</ele>
        <time>2021-03-28T13:15:07Z</time>
      </trkpt>
      <trkpt lat="45.06525" lon="5.58645">
        <ele>1680</ele>
        <time>2021-03-28T13:15:08Z</time>
      </trkpt>
      <trkpt lat="45.06515" lon="5.58638">
        <ele>1679</ele>
        <time>2021-03-28T13:15:09Z</time>
      </trkpt>
      <trkpt lat="45.06507" lon="5.58632">
        <ele>1678</ele>
        <time>2021-03-28T13:15:10Z</time>
      </trkpt>
      <trkpt lat="45.06502" lon="5.5862">
        <ele>1677</ele>
        <time>2021-03-28T13:15:11Z</time>
      </trkpt>
      <trkpt lat="45.06495" lon="5.58598">
        <ele>1676</ele>
        <time>2021-03-28T13:15:13Z</time>
      </trkpt>
      <trkpt lat="45.06492" lon="5.58587">
        <ele>1675</ele>
        <time>2021-03-28T13:15:14Z</time>
      </trkpt>
      <trkpt lat="45.06488" lon="5.58577">
        <ele>1675</ele>
        <time>2021-03-28T13:15:15Z</time>
      </trkpt>
      <trkpt lat="45.06488" lon="5.58567">
        <ele>1674</ele>
        <time>2021-03-28T13:15:16Z</time>
      </trkpt>
      <trkpt lat="45.06487" lon="5.58558">
        <ele>1673</ele>
        <time>2021-03-28T13:15:17Z</time>
      </trkpt>
      <trkpt lat="45.06488" lon="5.5855">
        <ele>1673</ele>
        <time>2021-03-28T13:15:18Z</time>
      </trkpt>
      <trkpt lat="45.0649" lon="5.58542">
        <ele>1672</ele>
        <time>2021-03-28T13:15:19Z</time>
      </trkpt>
      <trkpt lat="45.06495" lon="5.58537">
        <ele>1670</ele>
        <time>2021-03-28T13:15:20Z</time>
      </trkpt>
      <trkpt lat="45.065" lon="5.58532">
        <ele>1669</ele>
        <time>2021-03-28T13:15:21Z</time>
      </trkpt>
      <trkpt lat="45.06507" lon="5.5853">
        <ele>1668</ele>
        <time>2021-03-28T13:15:22Z</time>
      </trkpt>
      <trkpt lat="45.06518" lon="5.58528">
        <ele>1667</ele>
        <time>2021-03-28T13:15:23Z</time>
      </trkpt>
      <trkpt lat="45.06525" lon="5.5853">
        <ele>1666</ele>
        <time>2021-03-28T13:15:24Z</time>
      </trkpt>
      <trkpt lat="45.06535" lon="5.58532">
        <ele>1666</ele>
        <time>2021-03-28T13:15:25Z</time>
      </trkpt>
      <trkpt lat="45.06543" lon="5.58533">
        <ele>1665</ele>
        <time>2021-03-28T13:15:26Z</time>
      </trkpt>
      <trkpt lat="45.06552" lon="5.58538">
        <ele>1664</ele>
        <time>2021-03-28T13:15:27Z</time>
      </trkpt>
      <trkpt lat="45.0656" lon="5.58543">
        <ele>1663</ele>
        <time>2021-03-28T13:15:28Z</time>
      </trkpt>
      <trkpt lat="45.0657" lon="5.5855">
        <ele>1662</ele>
        <time>2021-03-28T13:15:29Z</time>
      </trkpt>
      <trkpt lat="45.06577" lon="5.58555">
        <ele>1661</ele>
        <time>2021-03-28T13:15:30Z</time>
      </trkpt>
      <trkpt lat="45.06585" lon="5.58562">
        <ele>1660</ele>
        <time>2021-03-28T13:15:31Z</time>
      </trkpt>
      <trkpt lat="45.06592" lon="5.58568">
        <ele>1659</ele>
        <time>2021-03-28T13:15:32Z</time>
      </trkpt>
      <trkpt lat="45.066" lon="5.58575">
        <ele>1658</ele>
        <time>2021-03-28T13:15:33Z</time>
      </trkpt>
      <trkpt lat="45.06607" lon="5.58583">
        <ele>1656</ele>
        <time>2021-03-28T13:15:34Z</time>
      </trkpt>
      <trkpt lat="45.06615" lon="5.58592">
        <ele>1655</ele>
        <time>2021-03-28T13:15:35Z</time>
      </trkpt>
      <trkpt lat="45.06623" lon="5.586">
        <ele>1654</ele>
        <time>2021-03-28T13:15:36Z</time>
      </trkpt>
      <trkpt lat="45.0663" lon="5.58608">
        <ele>1653</ele>
        <time>2021-03-28T13:15:37Z</time>
      </trkpt>
      <trkpt lat="45.06637" lon="5.58617">
        <ele>1651</ele>
        <time>2021-03-28T13:15:38Z</time>
      </trkpt>
      <trkpt lat="45.06645" lon="5.58627">
        <ele>1650</ele>
        <time>2021-03-28T13:15:39Z</time>
      </trkpt>
      <trkpt lat="45.06653" lon="5.58635">
        <ele>1648</ele>
        <time>2021-03-28T13:15:40Z</time>
      </trkpt>
      <trkpt lat="45.0666" lon="5.58645">
        <ele>1647</ele>
        <time>2021-03-28T13:15:41Z</time>
      </trkpt>
      <trkpt lat="45.0667" lon="5.58655">
        <ele>1647</ele>
        <time>2021-03-28T13:15:42Z</time>
      </trkpt>
      <trkpt lat="45.0668" lon="5.58665">
        <ele>1647</ele>
        <time>2021-03-28T13:15:43Z</time>
      </trkpt>
      <trkpt lat="45.0669" lon="5.58673">
        <ele>1647</ele>
        <time>2021-03-28T13:15:44Z</time>
      </trkpt>
      <trkpt lat="45.06698" lon="5.58678">
        <ele>1644</ele>
        <time>2021-03-28T13:15:45Z</time>
      </trkpt>
      <trkpt lat="45.06707" lon="5.58687">
        <ele>1642</ele>
        <time>2021-03-28T13:15:46Z</time>
      </trkpt>
      <trkpt lat="45.06717" lon="5.58697">
        <ele>1641</ele>
        <time>2021-03-28T13:15:47Z</time>
      </trkpt>
      <trkpt lat="45.06727" lon="5.58705">
        <ele>1641</ele>
        <time>2021-03-28T13:15:48Z</time>
      </trkpt>
      <trkpt lat="45.06735" lon="5.58713">
        <ele>1641</ele>
        <time>2021-03-28T13:15:49Z</time>
      </trkpt>
      <trkpt lat="45.06745" lon="5.5872">
        <ele>1639</ele>
        <time>2021-03-28T13:15:50Z</time>
      </trkpt>
      <trkpt lat="45.06755" lon="5.58727">
        <ele>1637</ele>
        <time>2021-03-28T13:15:51Z</time>
      </trkpt>
      <trkpt lat="45.06765" lon="5.58733">
        <ele>1635</ele>
        <time>2021-03-28T13:15:52Z</time>
      </trkpt>
      <trkpt lat="45.06777" lon="5.58737">
        <ele>1634</ele>
        <time>2021-03-28T13:15:53Z</time>
      </trkpt>
      <trkpt lat="45.06787" lon="5.58738">
        <ele>1632</ele>
        <time>2021-03-28T13:15:54Z</time>
      </trkpt>
      <trkpt lat="45.06797" lon="5.58738">
        <ele>1631</ele>
        <time>2021-03-28T13:15:55Z</time>
      </trkpt>
      <trkpt lat="45.06805" lon="5.58735">
        <ele>1630</ele>
        <time>2021-03-28T13:15:56Z</time>
      </trkpt>
      <trkpt lat="45.06813" lon="5.58732">
        <ele>1629</ele>
        <time>2021-03-28T13:15:57Z</time>
      </trkpt>
      <trkpt lat="45.06822" lon="5.58727">
        <ele>1627</ele>
        <time>2021-03-28T13:15:58Z</time>
      </trkpt>
      <trkpt lat="45.06828" lon="5.5872">
        <ele>1626</ele>
        <time>2021-03-28T13:15:59Z</time>
      </trkpt>
      <trkpt lat="45.06837" lon="5.58712">
        <ele>1625</ele>
        <time>2021-03-28T13:16:00Z</time>
      </trkpt>
      <trkpt lat="45.0684" lon="5.58703">
        <ele>1624</ele>
        <time>2021-03-28T13:16:01Z</time>
      </trkpt>
      <trkpt lat="45.06838" lon="5.58693">
        <ele>1620</ele>
        <time>2021-03-28T13:16:02Z</time>
      </trkpt>
      <trkpt lat="45.06837" lon="5.58683">
        <ele>1618</ele>
        <time>2021-03-28T13:16:03Z</time>
      </trkpt>
      <trkpt lat="45.06835" lon="5.58673">
        <ele>1616</ele>
        <time>2021-03-28T13:16:04Z</time>
      </trkpt>
      <trkpt lat="45.06835" lon="5.58663">
        <ele>1615</ele>
        <time>2021-03-28T13:16:05Z</time>
      </trkpt>
      <trkpt lat="45.06833" lon="5.58652">
        <ele>1613</ele>
        <time>2021-03-28T13:16:06Z</time>
      </trkpt>
      <trkpt lat="45.06832" lon="5.58638">
        <ele>1611</ele>
        <time>2021-03-28T13:16:07Z</time>
      </trkpt>
      <trkpt lat="45.06828" lon="5.58627">
        <ele>1609</ele>
        <time>2021-03-28T13:16:08Z</time>
      </trkpt>
      <trkpt lat="45.06828" lon="5.58615">
        <ele>1607</ele>
        <time>2021-03-28T13:16:09Z</time>
      </trkpt>
      <trkpt lat="45.06828" lon="5.58603">
        <ele>1606</ele>
        <time>2021-03-28T13:16:10Z</time>
      </trkpt>
      <trkpt lat="45.06827" lon="5.58592">
        <ele>1604</ele>
        <time>2021-03-28T13:16:11Z</time>
      </trkpt>
      <trkpt lat="45.06827" lon="5.58578">
        <ele>1603</ele>
        <time>2021-03-28T13:16:12Z</time>
      </trkpt>
      <trkpt lat="45.06827" lon="5.58565">
        <ele>1602</ele>
        <time>2021-03-28T13:16:13Z</time>
      </trkpt>
      <trkpt lat="45.06827" lon="5.58553">
        <ele>1601</ele>
        <time>2021-03-28T13:16:14Z</time>
      </trkpt>
      <trkpt lat="45.06827" lon="5.58542">
        <ele>1600</ele>
        <time>2021-03-28T13:16:15Z</time>
      </trkpt>
      <trkpt lat="45.06827" lon="5.5853">
        <ele>1598</ele>
        <time>2021-03-28T13:16:16Z</time>
      </trkpt>
      <trkpt lat="45.06827" lon="5.58517">
        <ele>1597</ele>
        <time>2021-03-28T13:16:17Z</time>
      </trkpt>
      <trkpt lat="45.06827" lon="5.58503">
        <ele>1596</ele>
        <time>2021-03-28T13:16:18Z</time>
      </trkpt>
      <trkpt lat="45.06828" lon="5.5849">
        <ele>1595</ele>
        <time>2021-03-28T13:16:19Z</time>
      </trkpt>
      <trkpt lat="45.0683" lon="5.58478">
        <ele>1594</ele>
        <time>2021-03-28T13:16:20Z</time>
      </trkpt>
      <trkpt lat="45.0683" lon="5.58465">
        <ele>1593</ele>
        <time>2021-03-28T13:16:21Z</time>
      </trkpt>
      <trkpt lat="45.0683" lon="5.58455">
        <ele>1592</ele>
        <time>2021-03-28T13:16:22Z</time>
      </trkpt>
      <trkpt lat="45.0683" lon="5.58445">
        <ele>1592</ele>
        <time>2021-03-28T13:16:23Z</time>
      </trkpt>
      <trkpt lat="45.06832" lon="5.58435">
        <ele>1591</ele>
        <time>2021-03-28T13:16:24Z</time>
      </trkpt>
      <trkpt lat="45.06832" lon="5.58425">
        <ele>1590</ele>
        <time>2021-03-28T13:16:25Z</time>
      </trkpt>
      <trkpt lat="45.06833" lon="5.58413">
        <ele>1590</ele>
        <time>2021-03-28T13:16:26Z</time>
      </trkpt>
      <trkpt lat="45.06837" lon="5.58403">
        <ele>1589</ele>
        <time>2021-03-28T13:16:27Z</time>
      </trkpt>
      <trkpt lat="45.06838" lon="5.58393">
        <ele>1589</ele>
        <time>2021-03-28T13:16:28Z</time>
      </trkpt>
      <trkpt lat="45.06845" lon="5.58373">
        <ele>1588</ele>
        <time>2021-03-28T13:16:30Z</time>
      </trkpt>
      <trkpt lat="45.06848" lon="5.58365">
        <ele>1588</ele>
        <time>2021-03-28T13:16:31Z</time>
      </trkpt>
      <trkpt lat="45.06852" lon="5.58357">
        <ele>1587</ele>
        <time>2021-03-28T13:16:32Z</time>
      </trkpt>
      <trkpt lat="45.06853" lon="5.58347">
        <ele>1586</ele>
        <time>2021-03-28T13:16:33Z</time>
      </trkpt>
      <trkpt lat="45.06857" lon="5.58337">
        <ele>1585</ele>
        <time>2021-03-28T13:16:34Z</time>
      </trkpt>
      <trkpt lat="45.0686" lon="5.58328">
        <ele>1583</ele>
        <time>2021-03-28T13:16:35Z</time>
      </trkpt>
      <trkpt lat="45.06865" lon="5.5832">
        <ele>1582</ele>
        <time>2021-03-28T13:16:36Z</time>
      </trkpt>
      <trkpt lat="45.06872" lon="5.58315">
        <ele>1582</ele>
        <time>2021-03-28T13:16:37Z</time>
      </trkpt>
      <trkpt lat="45.06878" lon="5.58308">
        <ele>1580</ele>
        <time>2021-03-28T13:16:38Z</time>
      </trkpt>
      <trkpt lat="45.06887" lon="5.58303">
        <ele>1578</ele>
        <time>2021-03-28T13:16:39Z</time>
      </trkpt>
      <trkpt lat="45.06895" lon="5.58298">
        <ele>1577</ele>
        <time>2021-03-28T13:16:40Z</time>
      </trkpt>
      <trkpt lat="45.06903" lon="5.58293">
        <ele>1575</ele>
        <time>2021-03-28T13:16:41Z</time>
      </trkpt>
      <trkpt lat="45.06912" lon="5.58288">
        <ele>1573</ele>
        <time>2021-03-28T13:16:42Z</time>
      </trkpt>
      <trkpt lat="45.0692" lon="5.58283">
        <ele>1572</ele>
        <time>2021-03-28T13:16:43Z</time>
      </trkpt>
      <trkpt lat="45.0693" lon="5.5828">
        <ele>1569</ele>
        <time>2021-03-28T13:16:44Z</time>
      </trkpt>
      <trkpt lat="45.06938" lon="5.58278">
        <ele>1566</ele>
        <time>2021-03-28T13:16:45Z</time>
      </trkpt>
      <trkpt lat="45.06947" lon="5.58278">
        <ele>1564</ele>
        <time>2021-03-28T13:16:46Z</time>
      </trkpt>
      <trkpt lat="45.06955" lon="5.58277">
        <ele>1562</ele>
        <time>2021-03-28T13:16:47Z</time>
      </trkpt>
      <trkpt lat="45.06963" lon="5.58275">
        <ele>1560</ele>
        <time>2021-03-28T13:16:48Z</time>
      </trkpt>
      <trkpt lat="45.06972" lon="5.58272">
        <ele>1558</ele>
        <time>2021-03-28T13:16:49Z</time>
      </trkpt>
      <trkpt lat="45.06982" lon="5.5827">
        <ele>1556</ele>
        <time>2021-03-28T13:16:50Z</time>
      </trkpt>
      <trkpt lat="45.0699" lon="5.58267">
        <ele>1554</ele>
        <time>2021-03-28T13:16:51Z</time>
      </trkpt>
      <trkpt lat="45.07" lon="5.58262">
        <ele>1552</ele>
        <time>2021-03-28T13:16:52Z</time>
      </trkpt>
      <trkpt lat="45.07008" lon="5.58257">
        <ele>1550</ele>
        <time>2021-03-28T13:16:53Z</time>
      </trkpt>
      <trkpt lat="45.07015" lon="5.58252">
        <ele>1547</ele>
        <time>2021-03-28T13:16:54Z</time>
      </trkpt>
      <trkpt lat="45.07023" lon="5.58245">
        <ele>1545</ele>
        <time>2021-03-28T13:16:55Z</time>
      </trkpt>
      <trkpt lat="45.07032" lon="5.58238">
        <ele>1543</ele>
        <time>2021-03-28T13:16:56Z</time>
      </trkpt>
      <trkpt lat="45.07038" lon="5.5823">
        <ele>1542</ele>
        <time>2021-03-28T13:16:57Z</time>
      </trkpt>
      <trkpt lat="45.07047" lon="5.58222">
        <ele>1540</ele>
        <time>2021-03-28T13:16:58Z</time>
      </trkpt>
      <trkpt lat="45.07053" lon="5.58213">
        <ele>1539</ele>
        <time>2021-03-28T13:16:59Z</time>
      </trkpt>
      <trkpt lat="45.07062" lon="5.58205">
        <ele>1537</ele>
        <time>2021-03-28T13:17:00Z</time>
      </trkpt>
      <trkpt lat="45.07068" lon="5.58198">
        <ele>1536</ele>
        <time>2021-03-28T13:17:01Z</time>
      </trkpt>
      <trkpt lat="45.07078" lon="5.58193">
        <ele>1535</ele>
        <time>2021-03-28T13:17:02Z</time>
      </trkpt>
      <trkpt lat="45.07087" lon="5.58188">
        <ele>1534</ele>
        <time>2021-03-28T13:17:03Z</time>
      </trkpt>
      <trkpt lat="45.07097" lon="5.58185">
        <ele>1533</ele>
        <time>2021-03-28T13:17:04Z</time>
      </trkpt>
      <trkpt lat="45.07105" lon="5.58182">
        <ele>1532</ele>
        <time>2021-03-28T13:17:05Z</time>
      </trkpt>
      <trkpt lat="45.07115" lon="5.5818">
        <ele>1530</ele>
        <time>2021-03-28T13:17:06Z</time>
      </trkpt>
      <trkpt lat="45.07125" lon="5.58178">
        <ele>1529</ele>
        <time>2021-03-28T13:17:07Z</time>
      </trkpt>
      <trkpt lat="45.07135" lon="5.58177">
        <ele>1527</ele>
        <time>2021-03-28T13:17:08Z</time>
      </trkpt>
      <trkpt lat="45.07147" lon="5.58177">
        <ele>1525</ele>
        <time>2021-03-28T13:17:09Z</time>
      </trkpt>
      <trkpt lat="45.07157" lon="5.58175">
        <ele>1523</ele>
        <time>2021-03-28T13:17:10Z</time>
      </trkpt>
      <trkpt lat="45.07168" lon="5.58175">
        <ele>1521</ele>
        <time>2021-03-28T13:17:11Z</time>
      </trkpt>
      <trkpt lat="45.07178" lon="5.58175">
        <ele>1520</ele>
        <time>2021-03-28T13:17:12Z</time>
      </trkpt>
      <trkpt lat="45.07188" lon="5.58177">
        <ele>1518</ele>
        <time>2021-03-28T13:17:13Z</time>
      </trkpt>
      <trkpt lat="45.07198" lon="5.5818">
        <ele>1517</ele>
        <time>2021-03-28T13:17:14Z</time>
      </trkpt>
      <trkpt lat="45.07208" lon="5.58182">
        <ele>1515</ele>
        <time>2021-03-28T13:17:15Z</time>
      </trkpt>
      <trkpt lat="45.07218" lon="5.58183">
        <ele>1513</ele>
        <time>2021-03-28T13:17:16Z</time>
      </trkpt>
      <trkpt lat="45.07228" lon="5.58185">
        <ele>1511</ele>
        <time>2021-03-28T13:17:17Z</time>
      </trkpt>
      <trkpt lat="45.07238" lon="5.58185">
        <ele>1509</ele>
        <time>2021-03-28T13:17:18Z</time>
      </trkpt>
      <trkpt lat="45.07248" lon="5.58185">
        <ele>1507</ele>
        <time>2021-03-28T13:17:19Z</time>
      </trkpt>
      <trkpt lat="45.07258" lon="5.58185">
        <ele>1505</ele>
        <time>2021-03-28T13:17:20Z</time>
      </trkpt>
      <trkpt lat="45.07267" lon="5.58183">
        <ele>1502</ele>
        <time>2021-03-28T13:17:21Z</time>
      </trkpt>
      <trkpt lat="45.07277" lon="5.58182">
        <ele>1500</ele>
        <time>2021-03-28T13:17:22Z</time>
      </trkpt>
      <trkpt lat="45.07287" lon="5.5818">
        <ele>1498</ele>
        <time>2021-03-28T13:17:23Z</time>
      </trkpt>
      <trkpt lat="45.07295" lon="5.58178">
        <ele>1495</ele>
        <time>2021-03-28T13:17:24Z</time>
      </trkpt>
      <trkpt lat="45.07305" lon="5.58173">
        <ele>1494</ele>
        <time>2021-03-28T13:17:25Z</time>
      </trkpt>
      <trkpt lat="45.07315" lon="5.5817">
        <ele>1492</ele>
        <time>2021-03-28T13:17:26Z</time>
      </trkpt>
      <trkpt lat="45.07323" lon="5.58165">
        <ele>1490</ele>
        <time>2021-03-28T13:17:27Z</time>
      </trkpt>
      <trkpt lat="45.07335" lon="5.58162">
        <ele>1494</ele>
        <time>2021-03-28T13:17:28Z</time>
      </trkpt>
      <trkpt lat="45.07343" lon="5.58157">
        <ele>1492</ele>
        <time>2021-03-28T13:17:29Z</time>
      </trkpt>
      <trkpt lat="45.07352" lon="5.5815">
        <ele>1490</ele>
        <time>2021-03-28T13:17:30Z</time>
      </trkpt>
      <trkpt lat="45.0736" lon="5.58142">
        <ele>1489</ele>
        <time>2021-03-28T13:17:31Z</time>
      </trkpt>
      <trkpt lat="45.07367" lon="5.58132">
        <ele>1488</ele>
        <time>2021-03-28T13:17:32Z</time>
      </trkpt>
      <trkpt lat="45.07372" lon="5.58123">
        <ele>1487</ele>
        <time>2021-03-28T13:17:33Z</time>
      </trkpt>
      <trkpt lat="45.0738" lon="5.58115">
        <ele>1486</ele>
        <time>2021-03-28T13:17:34Z</time>
      </trkpt>
      <trkpt lat="45.07387" lon="5.58108">
        <ele>1484</ele>
        <time>2021-03-28T13:17:35Z</time>
      </trkpt>
      <trkpt lat="45.07395" lon="5.58102">
        <ele>1483</ele>
        <time>2021-03-28T13:17:36Z</time>
      </trkpt>
      <trkpt lat="45.07403" lon="5.58095">
        <ele>1481</ele>
        <time>2021-03-28T13:17:37Z</time>
      </trkpt>
      <trkpt lat="45.07412" lon="5.58088">
        <ele>1480</ele>
        <time>2021-03-28T13:17:38Z</time>
      </trkpt>
      <trkpt lat="45.0742" lon="5.58083">
        <ele>1479</ele>
        <time>2021-03-28T13:17:39Z</time>
      </trkpt>
      <trkpt lat="45.07428" lon="5.58078">
        <ele>1478</ele>
        <time>2021-03-28T13:17:40Z</time>
      </trkpt>
      <trkpt lat="45.07437" lon="5.58075">
        <ele>1476</ele>
        <time>2021-03-28T13:17:41Z</time>
      </trkpt>
      <trkpt lat="45.07445" lon="5.58075">
        <ele>1475</ele>
        <time>2021-03-28T13:17:42Z</time>
      </trkpt>
      <trkpt lat="45.07455" lon="5.5808">
        <ele>1472</ele>
        <time>2021-03-28T13:17:43Z</time>
      </trkpt>
      <trkpt lat="45.07463" lon="5.58087">
        <ele>1471</ele>
        <time>2021-03-28T13:17:44Z</time>
      </trkpt>
      <trkpt lat="45.07472" lon="5.58097">
        <ele>1469</ele>
        <time>2021-03-28T13:17:45Z</time>
      </trkpt>
      <trkpt lat="45.07478" lon="5.58107">
        <ele>1467</ele>
        <time>2021-03-28T13:17:46Z</time>
      </trkpt>
      <trkpt lat="45.07483" lon="5.5812">
        <ele>1466</ele>
        <time>2021-03-28T13:17:47Z</time>
      </trkpt>
      <trkpt lat="45.07488" lon="5.58133">
        <ele>1464</ele>
        <time>2021-03-28T13:17:48Z</time>
      </trkpt>
      <trkpt lat="45.07492" lon="5.58148">
        <ele>1462</ele>
        <time>2021-03-28T13:17:49Z</time>
      </trkpt>
      <trkpt lat="45.07497" lon="5.58162">
        <ele>1461</ele>
        <time>2021-03-28T13:17:50Z</time>
      </trkpt>
      <trkpt lat="45.07502" lon="5.58193">
        <ele>1459</ele>
        <time>2021-03-28T13:17:52Z</time>
      </trkpt>
      <trkpt lat="45.07507" lon="5.58207">
        <ele>1457</ele>
        <time>2021-03-28T13:17:53Z</time>
      </trkpt>
      <trkpt lat="45.07513" lon="5.58218">
        <ele>1455</ele>
        <time>2021-03-28T13:17:54Z</time>
      </trkpt>
      <trkpt lat="45.0752" lon="5.58228">
        <ele>1452</ele>
        <time>2021-03-28T13:17:55Z</time>
      </trkpt>
      <trkpt lat="45.07528" lon="5.58237">
        <ele>1450</ele>
        <time>2021-03-28T13:17:56Z</time>
      </trkpt>
      <trkpt lat="45.0754" lon="5.58237">
        <ele>1448</ele>
        <time>2021-03-28T13:17:57Z</time>
      </trkpt>
      <trkpt lat="45.07552" lon="5.58237">
        <ele>1447</ele>
        <time>2021-03-28T13:17:58Z</time>
      </trkpt>
      <trkpt lat="45.07562" lon="5.58232">
        <ele>1446</ele>
        <time>2021-03-28T13:17:59Z</time>
      </trkpt>
      <trkpt lat="45.0757" lon="5.58225">
        <ele>1444</ele>
        <time>2021-03-28T13:18:00Z</time>
      </trkpt>
      <trkpt lat="45.07575" lon="5.58218">
        <ele>1443</ele>
        <time>2021-03-28T13:18:01Z</time>
      </trkpt>
      <trkpt lat="45.07577" lon="5.58208">
        <ele>1442</ele>
        <time>2021-03-28T13:18:02Z</time>
      </trkpt>
      <trkpt lat="45.07577" lon="5.582">
        <ele>1442</ele>
        <time>2021-03-28T13:18:03Z</time>
      </trkpt>
      <trkpt lat="45.07578" lon="5.58192">
        <ele>1441</ele>
        <time>2021-03-28T13:18:04Z</time>
      </trkpt>
      <trkpt lat="45.07577" lon="5.58183">
        <ele>1440</ele>
        <time>2021-03-28T13:18:05Z</time>
      </trkpt>
      <trkpt lat="45.07573" lon="5.58183">
        <ele>1438</ele>
        <time>2021-03-28T13:18:06Z</time>
      </trkpt>
      <trkpt lat="45.07562" lon="5.58193">
        <ele>1436</ele>
        <time>2021-03-28T13:18:07Z</time>
      </trkpt>
      <trkpt lat="45.07548" lon="5.58208">
        <ele>1434</ele>
        <time>2021-03-28T13:18:08Z</time>
      </trkpt>
      <trkpt lat="45.07543" lon="5.58225">
        <ele>1432</ele>
        <time>2021-03-28T13:18:09Z</time>
      </trkpt>
      <trkpt lat="45.0754" lon="5.58242">
        <ele>1431</ele>
        <time>2021-03-28T13:18:10Z</time>
      </trkpt>
      <trkpt lat="45.07535" lon="5.58257">
        <ele>1429</ele>
        <time>2021-03-28T13:18:11Z</time>
      </trkpt>
      <trkpt lat="45.0753" lon="5.58272">
        <ele>1427</ele>
        <time>2021-03-28T13:18:12Z</time>
      </trkpt>
      <trkpt lat="45.07527" lon="5.58287">
        <ele>1425</ele>
        <time>2021-03-28T13:18:13Z</time>
      </trkpt>
      <trkpt lat="45.07518" lon="5.58302">
        <ele>1424</ele>
        <time>2021-03-28T13:18:14Z</time>
      </trkpt>
      <trkpt lat="45.07513" lon="5.58315">
        <ele>1423</ele>
        <time>2021-03-28T13:18:15Z</time>
      </trkpt>
      <trkpt lat="45.07508" lon="5.58328">
        <ele>1422</ele>
        <time>2021-03-28T13:18:16Z</time>
      </trkpt>
      <trkpt lat="45.075" lon="5.58338">
        <ele>1420</ele>
        <time>2021-03-28T13:18:17Z</time>
      </trkpt>
      <trkpt lat="45.07493" lon="5.58348">
        <ele>1419</ele>
        <time>2021-03-28T13:18:18Z</time>
      </trkpt>
      <trkpt lat="45.07487" lon="5.58357">
        <ele>1417</ele>
        <time>2021-03-28T13:18:19Z</time>
      </trkpt>
      <trkpt lat="45.07477" lon="5.58362">
        <ele>1416</ele>
        <time>2021-03-28T13:18:20Z</time>
      </trkpt>
      <trkpt lat="45.0747" lon="5.58367">
        <ele>1414</ele>
        <time>2021-03-28T13:18:21Z</time>
      </trkpt>
      <trkpt lat="45.0746" lon="5.58372">
        <ele>1412</ele>
        <time>2021-03-28T13:18:22Z</time>
      </trkpt>
      <trkpt lat="45.0745" lon="5.58377">
        <ele>1411</ele>
        <time>2021-03-28T13:18:23Z</time>
      </trkpt>
      <trkpt lat="45.0744" lon="5.58382">
        <ele>1411</ele>
        <time>2021-03-28T13:18:24Z</time>
      </trkpt>
      <trkpt lat="45.07432" lon="5.58385">
        <ele>1410</ele>
        <time>2021-03-28T13:18:25Z</time>
      </trkpt>
      <trkpt lat="45.07422" lon="5.58388">
        <ele>1410</ele>
        <time>2021-03-28T13:18:26Z</time>
      </trkpt>
      <trkpt lat="45.07413" lon="5.58393">
        <ele>1409</ele>
        <time>2021-03-28T13:18:27Z</time>
      </trkpt>
      <trkpt lat="45.07405" lon="5.58398">
        <ele>1408</ele>
        <time>2021-03-28T13:18:28Z</time>
      </trkpt>
      <trkpt lat="45.07397" lon="5.58403">
        <ele>1407</ele>
        <time>2021-03-28T13:18:29Z</time>
      </trkpt>
      <trkpt lat="45.07388" lon="5.5841">
        <ele>1406</ele>
        <time>2021-03-28T13:18:30Z</time>
      </trkpt>
      <trkpt lat="45.0738" lon="5.58417">
        <ele>1405</ele>
        <time>2021-03-28T13:18:31Z</time>
      </trkpt>
      <trkpt lat="45.07373" lon="5.58427">
        <ele>1403</ele>
        <time>2021-03-28T13:18:32Z</time>
      </trkpt>
      <trkpt lat="45.07367" lon="5.58437">
        <ele>1402</ele>
        <time>2021-03-28T13:18:33Z</time>
      </trkpt>
      <trkpt lat="45.07362" lon="5.5845">
        <ele>1401</ele>
        <time>2021-03-28T13:18:34Z</time>
      </trkpt>
      <trkpt lat="45.07357" lon="5.58465">
        <ele>1400</ele>
        <time>2021-03-28T13:18:35Z</time>
      </trkpt>
      <trkpt lat="45.07355" lon="5.5848">
        <ele>1400</ele>
        <time>2021-03-28T13:18:36Z</time>
      </trkpt>
      <trkpt lat="45.07355" lon="5.58495">
        <ele>1399</ele>
        <time>2021-03-28T13:18:37Z</time>
      </trkpt>
      <trkpt lat="45.07355" lon="5.5851">
        <ele>1397</ele>
        <time>2021-03-28T13:18:38Z</time>
      </trkpt>
      <trkpt lat="45.07358" lon="5.58523">
        <ele>1394</ele>
        <time>2021-03-28T13:18:39Z</time>
      </trkpt>
      <trkpt lat="45.07362" lon="5.58538">
        <ele>1392</ele>
        <time>2021-03-28T13:18:40Z</time>
      </trkpt>
      <trkpt lat="45.07368" lon="5.5855">
        <ele>1391</ele>
        <time>2021-03-28T13:18:41Z</time>
      </trkpt>
      <trkpt lat="45.07378" lon="5.58558">
        <ele>1389</ele>
        <time>2021-03-28T13:18:42Z</time>
      </trkpt>
      <trkpt lat="45.07388" lon="5.58562">
        <ele>1388</ele>
        <time>2021-03-28T13:18:43Z</time>
      </trkpt>
      <trkpt lat="45.07397" lon="5.58558">
        <ele>1386</ele>
        <time>2021-03-28T13:18:44Z</time>
      </trkpt>
      <trkpt lat="45.07405" lon="5.58552">
        <ele>1385</ele>
        <time>2021-03-28T13:18:45Z</time>
      </trkpt>
      <trkpt lat="45.07413" lon="5.58547">
        <ele>1384</ele>
        <time>2021-03-28T13:18:46Z</time>
      </trkpt>
      <trkpt lat="45.0742" lon="5.5854">
        <ele>1382</ele>
        <time>2021-03-28T13:18:47Z</time>
      </trkpt>
      <trkpt lat="45.07423" lon="5.5853">
        <ele>1381</ele>
        <time>2021-03-28T13:18:48Z</time>
      </trkpt>
      <trkpt lat="45.07427" lon="5.58522">
        <ele>1379</ele>
        <time>2021-03-28T13:18:49Z</time>
      </trkpt>
      <trkpt lat="45.07428" lon="5.5851">
        <ele>1377</ele>
        <time>2021-03-28T13:18:50Z</time>
      </trkpt>
      <trkpt lat="45.07425" lon="5.58497">
        <ele>1375</ele>
        <time>2021-03-28T13:18:51Z</time>
      </trkpt>
      <trkpt lat="45.07422" lon="5.58485">
        <ele>1377</ele>
        <time>2021-03-28T13:18:52Z</time>
      </trkpt>
      <trkpt lat="45.07417" lon="5.58475">
        <ele>1376</ele>
        <time>2021-03-28T13:18:53Z</time>
      </trkpt>
      <trkpt lat="45.07407" lon="5.5847">
        <ele>1374</ele>
        <time>2021-03-28T13:18:54Z</time>
      </trkpt>
      <trkpt lat="45.07398" lon="5.58465">
        <ele>1373</ele>
        <time>2021-03-28T13:18:55Z</time>
      </trkpt>
      <trkpt lat="45.0739" lon="5.58465">
        <ele>1373</ele>
        <time>2021-03-28T13:18:56Z</time>
      </trkpt>
      <trkpt lat="45.07382" lon="5.58463">
        <ele>1373</ele>
        <time>2021-03-28T13:18:57Z</time>
      </trkpt>
      <trkpt lat="45.07377" lon="5.58463">
        <ele>1371</ele>
        <time>2021-03-28T13:18:58Z</time>
      </trkpt>
      <trkpt lat="45.07368" lon="5.58463">
        <ele>1369</ele>
        <time>2021-03-28T13:18:59Z</time>
      </trkpt>
      <trkpt lat="45.07362" lon="5.58465">
        <ele>1368</ele>
        <time>2021-03-28T13:19:00Z</time>
      </trkpt>
      <trkpt lat="45.07352" lon="5.58468">
        <ele>1366</ele>
        <time>2021-03-28T13:19:01Z</time>
      </trkpt>
      <trkpt lat="45.07343" lon="5.58472">
        <ele>1365</ele>
        <time>2021-03-28T13:19:02Z</time>
      </trkpt>
      <trkpt lat="45.07335" lon="5.58473">
        <ele>1363</ele>
        <time>2021-03-28T13:19:03Z</time>
      </trkpt>
      <trkpt lat="45.07327" lon="5.58475">
        <ele>1362</ele>
        <time>2021-03-28T13:19:04Z</time>
      </trkpt>
      <trkpt lat="45.07317" lon="5.58475">
        <ele>1361</ele>
        <time>2021-03-28T13:19:05Z</time>
      </trkpt>
      <trkpt lat="45.07308" lon="5.58475">
        <ele>1359</ele>
        <time>2021-03-28T13:19:06Z</time>
      </trkpt>
      <trkpt lat="45.073" lon="5.58475">
        <ele>1357</ele>
        <time>2021-03-28T13:19:07Z</time>
      </trkpt>
      <trkpt lat="45.07292" lon="5.58473">
        <ele>1355</ele>
        <time>2021-03-28T13:19:08Z</time>
      </trkpt>
      <trkpt lat="45.07283" lon="5.5847">
        <ele>1353</ele>
        <time>2021-03-28T13:19:09Z</time>
      </trkpt>
      <trkpt lat="45.07275" lon="5.58465">
        <ele>1352</ele>
        <time>2021-03-28T13:19:10Z</time>
      </trkpt>
      <trkpt lat="45.07268" lon="5.5846">
        <ele>1352</ele>
        <time>2021-03-28T13:19:11Z</time>
      </trkpt>
      <trkpt lat="45.07268" lon="5.58447">
        <ele>1350</ele>
        <time>2021-03-28T13:19:12Z</time>
      </trkpt>
      <trkpt lat="45.07273" lon="5.58437">
        <ele>1349</ele>
        <time>2021-03-28T13:19:13Z</time>
      </trkpt>
      <trkpt lat="45.07275" lon="5.58428">
        <ele>1347</ele>
        <time>2021-03-28T13:19:14Z</time>
      </trkpt>
      <trkpt lat="45.07277" lon="5.58422">
        <ele>1346</ele>
        <time>2021-03-28T13:19:15Z</time>
      </trkpt>
      <trkpt lat="45.07282" lon="5.58417">
        <ele>1344</ele>
        <time>2021-03-28T13:19:17Z</time>
      </trkpt>
      <trkpt lat="45.07292" lon="5.58418">
        <ele>1342</ele>
        <time>2021-03-28T13:19:18Z</time>
      </trkpt>
      <trkpt lat="45.07303" lon="5.58422">
        <ele>1340</ele>
        <time>2021-03-28T13:19:19Z</time>
      </trkpt>
      <trkpt lat="45.07313" lon="5.58425">
        <ele>1338</ele>
        <time>2021-03-28T13:19:20Z</time>
      </trkpt>
      <trkpt lat="45.07328" lon="5.58425">
        <ele>1335</ele>
        <time>2021-03-28T13:19:21Z</time>
      </trkpt>
      <trkpt lat="45.0734" lon="5.58423">
        <ele>1334</ele>
        <time>2021-03-28T13:19:22Z</time>
      </trkpt>
      <trkpt lat="45.07355" lon="5.58418">
        <ele>1334</ele>
        <time>2021-03-28T13:19:23Z</time>
      </trkpt>
      <trkpt lat="45.07365" lon="5.58413">
        <ele>1331</ele>
        <time>2021-03-28T13:19:24Z</time>
      </trkpt>
      <trkpt lat="45.07375" lon="5.58405">
        <ele>1330</ele>
        <time>2021-03-28T13:19:25Z</time>
      </trkpt>
      <trkpt lat="45.07383" lon="5.58398">
        <ele>1329</ele>
        <time>2021-03-28T13:19:26Z</time>
      </trkpt>
      <trkpt lat="45.07392" lon="5.58392">
        <ele>1329</ele>
        <time>2021-03-28T13:19:27Z</time>
      </trkpt>
      <trkpt lat="45.074" lon="5.58385">
        <ele>1327</ele>
        <time>2021-03-28T13:19:28Z</time>
      </trkpt>
      <trkpt lat="45.07408" lon="5.5838">
        <ele>1326</ele>
        <time>2021-03-28T13:19:29Z</time>
      </trkpt>
      <trkpt lat="45.07417" lon="5.58373">
        <ele>1325</ele>
        <time>2021-03-28T13:19:30Z</time>
      </trkpt>
      <trkpt lat="45.07425" lon="5.58365">
        <ele>1321</ele>
        <time>2021-03-28T13:19:31Z</time>
      </trkpt>
      <trkpt lat="45.0743" lon="5.58357">
        <ele>1318</ele>
        <time>2021-03-28T13:19:32Z</time>
      </trkpt>
      <trkpt lat="45.07437" lon="5.58348">
        <ele>1317</ele>
        <time>2021-03-28T13:19:33Z</time>
      </trkpt>
      <trkpt lat="45.07443" lon="5.58338">
        <ele>1319</ele>
        <time>2021-03-28T13:19:34Z</time>
      </trkpt>
      <trkpt lat="45.07443" lon="5.58328">
        <ele>1316</ele>
        <time>2021-03-28T13:19:35Z</time>
      </trkpt>
      <trkpt lat="45.07443" lon="5.58318">
        <ele>1314</ele>
        <time>2021-03-28T13:19:36Z</time>
      </trkpt>
      <trkpt lat="45.0744" lon="5.58307">
        <ele>1311</ele>
        <time>2021-03-28T13:19:37Z</time>
      </trkpt>
      <trkpt lat="45.07438" lon="5.58297">
        <ele>1310</ele>
        <time>2021-03-28T13:19:38Z</time>
      </trkpt>
      <trkpt lat="45.07435" lon="5.58287">
        <ele>1308</ele>
        <time>2021-03-28T13:19:39Z</time>
      </trkpt>
      <trkpt lat="45.07433" lon="5.58277">
        <ele>1306</ele>
        <time>2021-03-28T13:19:40Z</time>
      </trkpt>
      <trkpt lat="45.0743" lon="5.58267">
        <ele>1305</ele>
        <time>2021-03-28T13:19:41Z</time>
      </trkpt>
      <trkpt lat="45.07427" lon="5.58257">
        <ele>1304</ele>
        <time>2021-03-28T13:19:42Z</time>
      </trkpt>
      <trkpt lat="45.07423" lon="5.58248">
        <ele>1301</ele>
        <time>2021-03-28T13:19:43Z</time>
      </trkpt>
      <trkpt lat="45.07418" lon="5.58242">
        <ele>1299</ele>
        <time>2021-03-28T13:19:44Z</time>
      </trkpt>
      <trkpt lat="45.07413" lon="5.58233">
        <ele>1297</ele>
        <time>2021-03-28T13:19:45Z</time>
      </trkpt>
      <trkpt lat="45.07407" lon="5.58228">
        <ele>1295</ele>
        <time>2021-03-28T13:19:46Z</time>
      </trkpt>
      <trkpt lat="45.074" lon="5.58223">
        <ele>1293</ele>
        <time>2021-03-28T13:19:47Z</time>
      </trkpt>
      <trkpt lat="45.07393" lon="5.58222">
        <ele>1296</ele>
        <time>2021-03-28T13:19:48Z</time>
      </trkpt>
      <trkpt lat="45.07388" lon="5.58225">
        <ele>1294</ele>
        <time>2021-03-28T13:19:49Z</time>
      </trkpt>
      <trkpt lat="45.07383" lon="5.58235">
        <ele>1292</ele>
        <time>2021-03-28T13:19:50Z</time>
      </trkpt>
      <trkpt lat="45.07377" lon="5.58247">
        <ele>1293</ele>
        <time>2021-03-28T13:19:51Z</time>
      </trkpt>
      <trkpt lat="45.07373" lon="5.58263">
        <ele>1291</ele>
        <time>2021-03-28T13:19:52Z</time>
      </trkpt>
      <trkpt lat="45.07372" lon="5.58282">
        <ele>1289</ele>
        <time>2021-03-28T13:19:53Z</time>
      </trkpt>
      <trkpt lat="45.07372" lon="5.58298">
        <ele>1287</ele>
        <time>2021-03-28T13:19:54Z</time>
      </trkpt>
      <trkpt lat="45.07372" lon="5.58317">
        <ele>1285</ele>
        <time>2021-03-28T13:19:55Z</time>
      </trkpt>
      <trkpt lat="45.07378" lon="5.5833">
        <ele>1283</ele>
        <time>2021-03-28T13:19:56Z</time>
      </trkpt>
      <trkpt lat="45.07393" lon="5.58343">
        <ele>1281</ele>
        <time>2021-03-28T13:19:57Z</time>
      </trkpt>
      <trkpt lat="45.07403" lon="5.58353">
        <ele>1279</ele>
        <time>2021-03-28T13:19:58Z</time>
      </trkpt>
      <trkpt lat="45.07415" lon="5.5836">
        <ele>1276</ele>
        <time>2021-03-28T13:19:59Z</time>
      </trkpt>
      <trkpt lat="45.07427" lon="5.58363">
        <ele>1273</ele>
        <time>2021-03-28T13:20:00Z</time>
      </trkpt>
      <trkpt lat="45.07437" lon="5.58363">
        <ele>1270</ele>
        <time>2021-03-28T13:20:01Z</time>
      </trkpt>
      <trkpt lat="45.07445" lon="5.58358">
        <ele>1268</ele>
        <time>2021-03-28T13:20:02Z</time>
      </trkpt>
      <trkpt lat="45.07452" lon="5.5835">
        <ele>1266</ele>
        <time>2021-03-28T13:20:03Z</time>
      </trkpt>
      <trkpt lat="45.07457" lon="5.5834">
        <ele>1263</ele>
        <time>2021-03-28T13:20:04Z</time>
      </trkpt>
      <trkpt lat="45.07458" lon="5.58328">
        <ele>1261</ele>
        <time>2021-03-28T13:20:05Z</time>
      </trkpt>
      <trkpt lat="45.07453" lon="5.58318">
        <ele>1258</ele>
        <time>2021-03-28T13:20:06Z</time>
      </trkpt>
      <trkpt lat="45.0745" lon="5.58308">
        <ele>1256</ele>
        <time>2021-03-28T13:20:07Z</time>
      </trkpt>
      <trkpt lat="45.07445" lon="5.58302">
        <ele>1253</ele>
        <time>2021-03-28T13:20:08Z</time>
      </trkpt>
      <trkpt lat="45.07442" lon="5.58297">
        <ele>1251</ele>
        <time>2021-03-28T13:20:09Z</time>
      </trkpt>
      <trkpt lat="45.07438" lon="5.58297">
        <ele>1252</ele>
        <time>2021-03-28T13:20:10Z</time>
      </trkpt>
      <trkpt lat="45.07435" lon="5.58298">
        <ele>1251</ele>
        <time>2021-03-28T13:20:11Z</time>
      </trkpt>
      <trkpt lat="45.07428" lon="5.58302">
        <ele>1249</ele>
        <time>2021-03-28T13:20:12Z</time>
      </trkpt>
      <trkpt lat="45.07422" lon="5.58308">
        <ele>1248</ele>
        <time>2021-03-28T13:20:13Z</time>
      </trkpt>
      <trkpt lat="45.07415" lon="5.58315">
        <ele>1246</ele>
        <time>2021-03-28T13:20:14Z</time>
      </trkpt>
      <trkpt lat="45.07407" lon="5.58325">
        <ele>1244</ele>
        <time>2021-03-28T13:20:15Z</time>
      </trkpt>
      <trkpt lat="45.07398" lon="5.58338">
        <ele>1243</ele>
        <time>2021-03-28T13:20:16Z</time>
      </trkpt>
      <trkpt lat="45.07392" lon="5.58345">
        <ele>1241</ele>
        <time>2021-03-28T13:20:17Z</time>
      </trkpt>
      <trkpt lat="45.07385" lon="5.5835">
        <ele>1239</ele>
        <time>2021-03-28T13:20:18Z</time>
      </trkpt>
      <trkpt lat="45.07378" lon="5.58352">
        <ele>1235</ele>
        <time>2021-03-28T13:20:19Z</time>
      </trkpt>
      <trkpt lat="45.07378" lon="5.5835">
        <ele>1233</ele>
        <time>2021-03-28T13:20:20Z</time>
      </trkpt>
      <trkpt lat="45.0738" lon="5.58348">
        <ele>1232</ele>
        <time>2021-03-28T13:20:22Z</time>
      </trkpt>
      <trkpt lat="45.0738" lon="5.58348">
        <ele>1231</ele>
        <time>2021-03-28T13:20:23Z</time>
      </trkpt>
      <trkpt lat="45.07378" lon="5.5835">
        <ele>1230</ele>
        <time>2021-03-28T13:20:24Z</time>
      </trkpt>
      <trkpt lat="45.07378" lon="5.58348">
        <ele>1229</ele>
        <time>2021-03-28T13:20:25Z</time>
      </trkpt>
      <trkpt lat="45.07378" lon="5.58348">
        <ele>1229</ele>
        <time>2021-03-28T13:20:26Z</time>
      </trkpt>
      <trkpt lat="45.07378" lon="5.58348">
        <ele>1229</ele>
        <time>2021-03-28T13:20:27Z</time>
      </trkpt>
      <trkpt lat="45.07378" lon="5.58348">
        <ele>1229</ele>
        <time>2021-03-28T13:20:28Z</time>
      </trkpt>
      <trkpt lat="45.07378" lon="5.58348">
        <ele>1229</ele>
        <time>2021-03-28T13:20:29Z</time>
      </trkpt>
      <trkpt lat="45.07378" lon="5.58348">
        <ele>1229</ele>
        <time>2021-03-28T13:20:30Z</time>
      </trkpt>
      <trkpt lat="45.07378" lon="5.58348">
        <ele>1229</ele>
        <time>2021-03-28T13:20:31Z</time>
      </trkpt>
      <trkpt lat="45.07378" lon="5.58348">
        <ele>1227</ele>
        <time>2021-03-28T13:20:32Z</time>
      </trkpt>
      <trkpt lat="45.07378" lon="5.58347">
        <ele>1227</ele>
        <time>2021-03-28T13:20:33Z</time>
      </trkpt>
      <trkpt lat="45.07378" lon="5.58347">
        <ele>1227</ele>
        <time>2021-03-28T13:20:34Z</time>
      </trkpt>
      <trkpt lat="45.07378" lon="5.58345">
        <ele>1227</ele>
        <time>2021-03-28T13:20:35Z</time>
      </trkpt>
      <trkpt lat="45.07378" lon="5.58345">
        <ele>1227</ele>
        <time>2021-03-28T13:20:36Z</time>
      </trkpt>
      <trkpt lat="45.07377" lon="5.58343">
        <ele>1227</ele>
        <time>2021-03-28T13:20:37Z</time>
      </trkpt>
      <trkpt lat="45.07377" lon="5.58343">
        <ele>1227</ele>
        <time>2021-03-28T13:20:38Z</time>
      </trkpt>
      <trkpt lat="45.07377" lon="5.58342">
        <ele>1227</ele>
        <time>2021-03-28T13:20:39Z</time>
      </trkpt>
      <trkpt lat="45.07377" lon="5.58342">
        <ele>1227</ele>
        <time>2021-03-28T13:20:40Z</time>
      </trkpt>
      <trkpt lat="45.07377" lon="5.58342">
        <ele>1227</ele>
        <time>2021-03-28T13:20:41Z</time>
      </trkpt>
      <trkpt lat="45.07377" lon="5.58342">
        <ele>1227</ele>
        <time>2021-03-28T13:20:42Z</time>
      </trkpt>
      <trkpt lat="45.07377" lon="5.5834">
        <ele>1227</ele>
        <time>2021-03-28T13:20:43Z</time>
      </trkpt>
      <trkpt lat="45.07377" lon="5.5834">
        <ele>1227</ele>
        <time>2021-03-28T13:20:44Z</time>
      </trkpt>
      <trkpt lat="45.07377" lon="5.5834">
        <ele>1227</ele>
        <time>2021-03-28T13:20:45Z</time>
      </trkpt>
      <trkpt lat="45.07378" lon="5.58338">
        <ele>1227</ele>
        <time>2021-03-28T13:20:46Z</time>
      </trkpt>
      <trkpt lat="45.07378" lon="5.58338">
        <ele>1227</ele>
        <time>2021-03-28T13:20:47Z</time>
      </trkpt>
      <trkpt lat="45.07378" lon="5.58337">
        <ele>1227</ele>
        <time>2021-03-28T13:20:48Z</time>
      </trkpt>
      <trkpt lat="45.07378" lon="5.58337">
        <ele>1227</ele>
        <time>2021-03-28T13:20:49Z</time>
      </trkpt>
      <trkpt lat="45.0738" lon="5.58335">
        <ele>1226</ele>
        <time>2021-03-28T13:20:50Z</time>
      </trkpt>
      <trkpt lat="45.07382" lon="5.58338">
        <ele>1226</ele>
        <time>2021-03-28T13:20:51Z</time>
      </trkpt>
      <trkpt lat="45.07383" lon="5.5834">
        <ele>1226</ele>
        <time>2021-03-28T13:20:52Z</time>
      </trkpt>
      <trkpt lat="45.07387" lon="5.5834">
        <ele>1226</ele>
        <time>2021-03-28T13:20:53Z</time>
      </trkpt>
      <trkpt lat="45.0739" lon="5.58342">
        <ele>1226</ele>
        <time>2021-03-28T13:20:54Z</time>
      </trkpt>
      <trkpt lat="45.07392" lon="5.58342">
        <ele>1225</ele>
        <time>2021-03-28T13:20:55Z</time>
      </trkpt>
      <trkpt lat="45.07392" lon="5.58343">
        <ele>1225</ele>
        <time>2021-03-28T13:20:56Z</time>
      </trkpt>
      <trkpt lat="45.07393" lon="5.58347">
        <ele>1225</ele>
        <time>2021-03-28T13:20:57Z</time>
      </trkpt>
      <trkpt lat="45.07395" lon="5.58348">
        <ele>1225</ele>
        <time>2021-03-28T13:20:58Z</time>
      </trkpt>
      <trkpt lat="45.07397" lon="5.5835">
        <ele>1224</ele>
        <time>2021-03-28T13:20:59Z</time>
      </trkpt>
      <trkpt lat="45.07397" lon="5.58352">
        <ele>1224</ele>
        <time>2021-03-28T13:21:00Z</time>
      </trkpt>
      <trkpt lat="45.07398" lon="5.58353">
        <ele>1224</ele>
        <time>2021-03-28T13:21:01Z</time>
      </trkpt>
      <trkpt lat="45.07397" lon="5.58357">
        <ele>1224</ele>
        <time>2021-03-28T13:21:02Z</time>
      </trkpt>
      <trkpt lat="45.07393" lon="5.5836">
        <ele>1224</ele>
        <time>2021-03-28T13:21:03Z</time>
      </trkpt>
      <trkpt lat="45.07393" lon="5.5836">
        <ele>1224</ele>
        <time>2021-03-28T13:21:04Z</time>
      </trkpt>
      <trkpt lat="45.07392" lon="5.58362">
        <ele>1224</ele>
        <time>2021-03-28T13:21:05Z</time>
      </trkpt>
      <trkpt lat="45.07392" lon="5.58363">
        <ele>1224</ele>
        <time>2021-03-28T13:21:06Z</time>
      </trkpt>
      <trkpt lat="45.07392" lon="5.58365">
        <ele>1224</ele>
        <time>2021-03-28T13:21:07Z</time>
      </trkpt>
      <trkpt lat="45.07392" lon="5.58365">
        <ele>1224</ele>
        <time>2021-03-28T13:21:08Z</time>
      </trkpt>
      <trkpt lat="45.0739" lon="5.58365">
        <ele>1224</ele>
        <time>2021-03-28T13:21:09Z</time>
      </trkpt>
      <trkpt lat="45.0739" lon="5.58367">
        <ele>1224</ele>
        <time>2021-03-28T13:21:10Z</time>
      </trkpt>
      <trkpt lat="45.0739" lon="5.58368">
        <ele>1224</ele>
        <time>2021-03-28T13:21:11Z</time>
      </trkpt>
      <trkpt lat="45.0739" lon="5.58368">
        <ele>1224</ele>
        <time>2021-03-28T13:21:12Z</time>
      </trkpt>
      <trkpt lat="45.0739" lon="5.5837">
        <ele>1223</ele>
        <time>2021-03-28T13:21:13Z</time>
      </trkpt>
      <trkpt lat="45.0739" lon="5.5837">
        <ele>1223</ele>
        <time>2021-03-28T13:21:14Z</time>
      </trkpt>
      <trkpt lat="45.0739" lon="5.5837">
        <ele>1223</ele>
        <time>2021-03-28T13:21:15Z</time>
      </trkpt>
      <trkpt lat="45.0739" lon="5.5837">
        <ele>1223</ele>
        <time>2021-03-28T13:21:16Z</time>
      </trkpt>
      <trkpt lat="45.0739" lon="5.58372">
        <ele>1223</ele>
        <time>2021-03-28T13:21:17Z</time>
      </trkpt>
      <trkpt lat="45.0739" lon="5.58372">
        <ele>1223</ele>
        <time>2021-03-28T13:21:18Z</time>
      </trkpt>
      <trkpt lat="45.07388" lon="5.58372">
        <ele>1223</ele>
        <time>2021-03-28T13:21:19Z</time>
      </trkpt>
      <trkpt lat="45.07388" lon="5.58372">
        <ele>1223</ele>
        <time>2021-03-28T13:21:20Z</time>
      </trkpt>
      <trkpt lat="45.07388" lon="5.58373">
        <ele>1223</ele>
        <time>2021-03-28T13:21:21Z</time>
      </trkpt>
      <trkpt lat="45.07387" lon="5.58375">
        <ele>1223</ele>
        <time>2021-03-28T13:21:22Z</time>
      </trkpt>
      <trkpt lat="45.07387" lon="5.58378">
        <ele>1223</ele>
        <time>2021-03-28T13:21:23Z</time>
      </trkpt>
      <trkpt lat="45.07387" lon="5.58378">
        <ele>1223</ele>
        <time>2021-03-28T13:21:24Z</time>
      </trkpt>
      <trkpt lat="45.0738" lon="5.58373">
        <ele>1222</ele>
        <time>2021-03-28T13:21:25Z</time>
      </trkpt>
      <trkpt lat="45.07378" lon="5.58373">
        <ele>1221</ele>
        <time>2021-03-28T13:21:26Z</time>
      </trkpt>
      <trkpt lat="45.07378" lon="5.58375">
        <ele>1221</ele>
        <time>2021-03-28T13:21:27Z</time>
      </trkpt>
      <trkpt lat="45.0738" lon="5.58375">
        <ele>1221</ele>
        <time>2021-03-28T13:21:28Z</time>
      </trkpt>
      <trkpt lat="45.0738" lon="5.58375">
        <ele>1221</ele>
        <time>2021-03-28T13:21:29Z</time>
      </trkpt>
      <trkpt lat="45.07382" lon="5.58375">
        <ele>1221</ele>
        <time>2021-03-28T13:21:30Z</time>
      </trkpt>
      <trkpt lat="45.0738" lon="5.58375">
        <ele>1221</ele>
        <time>2021-03-28T13:21:31Z</time>
      </trkpt>
      <trkpt lat="45.07382" lon="5.58375">
        <ele>1221</ele>
        <time>2021-03-28T13:21:32Z</time>
      </trkpt>
      <trkpt lat="45.07382" lon="5.58375">
        <ele>1221</ele>
        <time>2021-03-28T13:21:33Z</time>
      </trkpt>
      <trkpt lat="45.07383" lon="5.58373">
        <ele>1221</ele>
        <time>2021-03-28T13:21:34Z</time>
      </trkpt>
      <trkpt lat="45.07383" lon="5.58375">
        <ele>1221</ele>
        <time>2021-03-28T13:21:35Z</time>
      </trkpt>
      <trkpt lat="45.07383" lon="5.58373">
        <ele>1221</ele>
        <time>2021-03-28T13:21:36Z</time>
      </trkpt>
      <trkpt lat="45.07383" lon="5.58373">
        <ele>1220</ele>
        <time>2021-03-28T13:21:37Z</time>
      </trkpt>
      <trkpt lat="45.07383" lon="5.58373">
        <ele>1220</ele>
        <time>2021-03-28T13:21:38Z</time>
      </trkpt>
      <trkpt lat="45.07383" lon="5.58372">
        <ele>1220</ele>
        <time>2021-03-28T13:21:39Z</time>
      </trkpt>
      <trkpt lat="45.07382" lon="5.58372">
        <ele>1220</ele>
        <time>2021-03-28T13:21:40Z</time>
      </trkpt>
      <trkpt lat="45.07382" lon="5.58372">
        <ele>1220</ele>
        <time>2021-03-28T13:21:41Z</time>
      </trkpt>
      <trkpt lat="45.07382" lon="5.58372">
        <ele>1220</ele>
        <time>2021-03-28T13:21:42Z</time>
      </trkpt>
      <trkpt lat="45.07382" lon="5.58372">
        <ele>1220</ele>
        <time>2021-03-28T13:21:43Z</time>
      </trkpt>
      <trkpt lat="45.07382" lon="5.58372">
        <ele>1220</ele>
        <time>2021-03-28T13:21:44Z</time>
      </trkpt>
      <trkpt lat="45.07382" lon="5.58372">
        <ele>1220</ele>
        <time>2021-03-28T13:21:46Z</time>
      </trkpt>
      <trkpt lat="45.07382" lon="5.58372">
        <ele>1220</ele>
        <time>2021-03-28T13:21:47Z</time>
      </trkpt>
      <trkpt lat="45.07382" lon="5.58372">
        <ele>1220</ele>
        <time>2021-03-28T13:21:48Z</time>
      </trkpt>
      <trkpt lat="45.07382" lon="5.58372">
        <ele>1220</ele>
        <time>2021-03-28T13:21:49Z</time>
      </trkpt>
      <trkpt lat="45.07382" lon="5.58372">
        <ele>1220</ele>
        <time>2021-03-28T13:21:50Z</time>
      </trkpt>
      <trkpt lat="45.07382" lon="5.58372">
        <ele>1220</ele>
        <time>2021-03-28T13:21:51Z</time>
      </trkpt>
      <trkpt lat="45.07382" lon="5.58372">
        <ele>1220</ele>
        <time>2021-03-28T13:21:52Z</time>
      </trkpt>
      <trkpt lat="45.07382" lon="5.58372">
        <ele>1220</ele>
        <time>2021-03-28T13:21:53Z</time>
      </trkpt>
      <trkpt lat="45.07382" lon="5.58372">
        <ele>1220</ele>
        <time>2021-03-28T13:21:54Z</time>
      </trkpt>
      <trkpt lat="45.07382" lon="5.58372">
        <ele>1220</ele>
        <time>2021-03-28T13:21:55Z</time>
      </trkpt>
      <trkpt lat="45.07382" lon="5.58372">
        <ele>1220</ele>
        <time>2021-03-28T13:21:56Z</time>
      </trkpt>
      <trkpt lat="45.07382" lon="5.58372">
        <ele>1220</ele>
        <time>2021-03-28T13:21:57Z</time>
      </trkpt>
      <trkpt lat="45.07382" lon="5.58372">
        <ele>1220</ele>
        <time>2021-03-28T13:21:58Z</time>
      </trkpt>
      <trkpt lat="45.07382" lon="5.58372">
        <ele>1220</ele>
        <time>2021-03-28T13:21:59Z</time>
      </trkpt>
      <trkpt lat="45.07382" lon="5.58372">
        <ele>1220</ele>
        <time>2021-03-28T13:22:00Z</time>
      </trkpt>
      <trkpt lat="45.07383" lon="5.58377">
        <ele>1220</ele>
        <time>2021-03-28T13:22:01Z</time>
      </trkpt>
      <trkpt lat="45.07383" lon="5.58378">
        <ele>1220</ele>
        <time>2021-03-28T13:22:02Z</time>
      </trkpt>
      <trkpt lat="45.07385" lon="5.58378">
        <ele>1220</ele>
        <time>2021-03-28T13:22:03Z</time>
      </trkpt>
      <trkpt lat="45.07385" lon="5.5838">
        <ele>1219</ele>
        <time>2021-03-28T13:22:04Z</time>
      </trkpt>
      <trkpt lat="45.07387" lon="5.5838">
        <ele>1219</ele>
        <time>2021-03-28T13:22:05Z</time>
      </trkpt>
      <trkpt lat="45.07387" lon="5.58382">
        <ele>1219</ele>
        <time>2021-03-28T13:22:06Z</time>
      </trkpt>
      <trkpt lat="45.07388" lon="5.58383">
        <ele>1219</ele>
        <time>2021-03-28T13:22:07Z</time>
      </trkpt>
      <trkpt lat="45.07388" lon="5.58387">
        <ele>1219</ele>
        <time>2021-03-28T13:22:08Z</time>
      </trkpt>
      <trkpt lat="45.0739" lon="5.58388">
        <ele>1219</ele>
        <time>2021-03-28T13:22:09Z</time>
      </trkpt>
      <trkpt lat="45.0739" lon="5.5839">
        <ele>1219</ele>
        <time>2021-03-28T13:22:10Z</time>
      </trkpt>
      <trkpt lat="45.0739" lon="5.58392">
        <ele>1219</ele>
        <time>2021-03-28T13:22:11Z</time>
      </trkpt>
      <trkpt lat="45.0739" lon="5.58395">
        <ele>1218</ele>
        <time>2021-03-28T13:22:12Z</time>
      </trkpt>
      <trkpt lat="45.0739" lon="5.58397">
        <ele>1218</ele>
        <time>2021-03-28T13:22:13Z</time>
      </trkpt>
      <trkpt lat="45.0739" lon="5.58397">
        <ele>1218</ele>
        <time>2021-03-28T13:22:14Z</time>
      </trkpt>
      <trkpt lat="45.0739" lon="5.58398">
        <ele>1218</ele>
        <time>2021-03-28T13:22:15Z</time>
      </trkpt>
      <trkpt lat="45.0739" lon="5.584">
        <ele>1218</ele>
        <time>2021-03-28T13:22:16Z</time>
      </trkpt>
      <trkpt lat="45.0739" lon="5.58402">
        <ele>1218</ele>
        <time>2021-03-28T13:22:17Z</time>
      </trkpt>
      <trkpt lat="45.0739" lon="5.58402">
        <ele>1218</ele>
        <time>2021-03-28T13:22:18Z</time>
      </trkpt>
      <trkpt lat="45.0739" lon="5.58402">
        <ele>1218</ele>
        <time>2021-03-28T13:22:19Z</time>
      </trkpt>
      <trkpt lat="45.0739" lon="5.58402">
        <ele>1218</ele>
        <time>2021-03-28T13:22:20Z</time>
      </trkpt>
      <trkpt lat="45.0739" lon="5.58402">
        <ele>1218</ele>
        <time>2021-03-28T13:22:21Z</time>
      </trkpt>
      <trkpt lat="45.0739" lon="5.58402">
        <ele>1218</ele>
        <time>2021-03-28T13:22:22Z</time>
      </trkpt>
      <trkpt lat="45.0739" lon="5.58402">
        <ele>1218</ele>
        <time>2021-03-28T13:22:23Z</time>
      </trkpt>
      <trkpt lat="45.0739" lon="5.58402">
        <ele>1218</ele>
        <time>2021-03-28T13:22:24Z</time>
      </trkpt>
      <trkpt lat="45.0739" lon="5.58402">
        <ele>1218</ele>
        <time>2021-03-28T13:22:25Z</time>
      </trkpt>
      <trkpt lat="45.0739" lon="5.58402">
        <ele>1218</ele>
        <time>2021-03-28T13:22:26Z</time>
      </trkpt>
      <trkpt lat="45.07388" lon="5.58402">
        <ele>1218</ele>
        <time>2021-03-28T13:22:27Z</time>
      </trkpt>
      <trkpt lat="45.07388" lon="5.584">
        <ele>1218</ele>
        <time>2021-03-28T13:22:28Z</time>
      </trkpt>
      <trkpt lat="45.07388" lon="5.584">
        <ele>1218</ele>
        <time>2021-03-28T13:22:29Z</time>
      </trkpt>
      <trkpt lat="45.07388" lon="5.584">
        <ele>1218</ele>
        <time>2021-03-28T13:22:30Z</time>
      </trkpt>
      <trkpt lat="45.07388" lon="5.584">
        <ele>1218</ele>
        <time>2021-03-28T13:22:31Z</time>
      </trkpt>
      <trkpt lat="45.07388" lon="5.58398">
        <ele>1218</ele>
        <time>2021-03-28T13:22:32Z</time>
      </trkpt>
      <trkpt lat="45.0739" lon="5.58398">
        <ele>1219</ele>
        <time>2021-03-28T13:22:33Z</time>
      </trkpt>
      <trkpt lat="45.0739" lon="5.58398">
        <ele>1219</ele>
        <time>2021-03-28T13:22:34Z</time>
      </trkpt>
      <trkpt lat="45.0739" lon="5.58398">
        <ele>1219</ele>
        <time>2021-03-28T13:22:35Z</time>
      </trkpt>
      <trkpt lat="45.07388" lon="5.58397">
        <ele>1219</ele>
        <time>2021-03-28T13:22:36Z</time>
      </trkpt>
      <trkpt lat="45.07388" lon="5.58397">
        <ele>1219</ele>
        <time>2021-03-28T13:22:37Z</time>
      </trkpt>
      <trkpt lat="45.07388" lon="5.58397">
        <ele>1219</ele>
        <time>2021-03-28T13:22:38Z</time>
      </trkpt>
      <trkpt lat="45.07388" lon="5.58397">
        <ele>1219</ele>
        <time>2021-03-28T13:22:39Z</time>
      </trkpt>
      <trkpt lat="45.07388" lon="5.58397">
        <ele>1219</ele>
        <time>2021-03-28T13:22:40Z</time>
      </trkpt>
      <trkpt lat="45.07388" lon="5.58397">
        <ele>1219</ele>
        <time>2021-03-28T13:22:41Z</time>
      </trkpt>
      <trkpt lat="45.07388" lon="5.58397">
        <ele>1219</ele>
        <time>2021-03-28T13:22:42Z</time>
      </trkpt>
      <trkpt lat="45.07388" lon="5.58397">
        <ele>1219</ele>
        <time>2021-03-28T13:22:43Z</time>
      </trkpt>
      <trkpt lat="45.07388" lon="5.58397">
        <ele>1219</ele>
        <time>2021-03-28T13:22:44Z</time>
      </trkpt>
      <trkpt lat="45.07388" lon="5.58397">
        <ele>1218</ele>
        <time>2021-03-28T13:22:45Z</time>
      </trkpt>
      <trkpt lat="45.07388" lon="5.58397">
        <ele>1218</ele>
        <time>2021-03-28T13:22:46Z</time>
      </trkpt>
      <trkpt lat="45.07388" lon="5.58397">
        <ele>1218</ele>
        <time>2021-03-28T13:22:47Z</time>
      </trkpt>
      <trkpt lat="45.07388" lon="5.58395">
        <ele>1218</ele>
        <time>2021-03-28T13:22:48Z</time>
      </trkpt>
      <trkpt lat="45.07388" lon="5.58393">
        <ele>1218</ele>
        <time>2021-03-28T13:22:49Z</time>
      </trkpt>
      <trkpt lat="45.07388" lon="5.58392">
        <ele>1218</ele>
        <time>2021-03-28T13:22:50Z</time>
      </trkpt>
      <trkpt lat="45.07388" lon="5.58392">
        <ele>1218</ele>
        <time>2021-03-28T13:22:51Z</time>
      </trkpt>
      <trkpt lat="45.07388" lon="5.5839">
        <ele>1218</ele>
        <time>2021-03-28T13:22:52Z</time>
      </trkpt>
      <trkpt lat="45.07388" lon="5.5839">
        <ele>1219</ele>
        <time>2021-03-28T13:22:53Z</time>
      </trkpt>
      <trkpt lat="45.07388" lon="5.5839">
        <ele>1219</ele>
        <time>2021-03-28T13:22:54Z</time>
      </trkpt>
      <trkpt lat="45.07388" lon="5.5839">
        <ele>1219</ele>
        <time>2021-03-28T13:22:55Z</time>
      </trkpt>
      <trkpt lat="45.07388" lon="5.5839">
        <ele>1219</ele>
        <time>2021-03-28T13:22:56Z</time>
      </trkpt>
      <trkpt lat="45.07388" lon="5.5839">
        <ele>1219</ele>
        <time>2021-03-28T13:22:57Z</time>
      </trkpt>
      <trkpt lat="45.07388" lon="5.5839">
        <ele>1219</ele>
        <time>2021-03-28T13:22:58Z</time>
      </trkpt>
      <trkpt lat="45.07388" lon="5.5839">
        <ele>1219</ele>
        <time>2021-03-28T13:22:59Z</time>
      </trkpt>
      <trkpt lat="45.07388" lon="5.5839">
        <ele>1219</ele>
        <time>2021-03-28T13:23:00Z</time>
      </trkpt>
      <trkpt lat="45.07388" lon="5.5839">
        <ele>1219</ele>
        <time>2021-03-28T13:23:02Z</time>
      </trkpt>
      <trkpt lat="45.07388" lon="5.5839">
        <ele>1219</ele>
        <time>2021-03-28T13:23:03Z</time>
      </trkpt>
      <trkpt lat="45.07388" lon="5.5839">
        <ele>1219</ele>
        <time>2021-03-28T13:23:04Z</time>
      </trkpt>
      <trkpt lat="45.07388" lon="5.5839">
        <ele>1219</ele>
        <time>2021-03-28T13:23:05Z</time>
      </trkpt>
      <trkpt lat="45.07388" lon="5.5839">
        <ele>1219</ele>
        <time>2021-03-28T13:23:06Z</time>
      </trkpt>
      <trkpt lat="45.07388" lon="5.5839">
        <ele>1219</ele>
        <time>2021-03-28T13:23:07Z</time>
      </trkpt>
      <trkpt lat="45.07388" lon="5.5839">
        <ele>1219</ele>
        <time>2021-03-28T13:23:08Z</time>
      </trkpt>
      <trkpt lat="45.07388" lon="5.5839">
        <ele>1219</ele>
        <time>2021-03-28T13:23:09Z</time>
      </trkpt>
      <trkpt lat="45.07388" lon="5.5839">
        <ele>1219</ele>
        <time>2021-03-28T13:23:10Z</time>
      </trkpt>
      <trkpt lat="45.07388" lon="5.5839">
        <ele>1219</ele>
        <time>2021-03-28T13:23:11Z</time>
      </trkpt>
      <trkpt lat="45.07388" lon="5.5839">
        <ele>1219</ele>
        <time>2021-03-28T13:23:12Z</time>
      </trkpt>
      <trkpt lat="45.07388" lon="5.5839">
        <ele>1219</ele>
        <time>2021-03-28T13:23:13Z</time>
      </trkpt>
      <trkpt lat="45.07388" lon="5.5839">
        <ele>1219</ele>
        <time>2021-03-28T13:23:14Z</time>
      </trkpt>
      <trkpt lat="45.07388" lon="5.58392">
        <ele>1218</ele>
        <time>2021-03-28T13:23:15Z</time>
      </trkpt>
      <trkpt lat="45.0739" lon="5.5839">
        <ele>1218</ele>
        <time>2021-03-28T13:23:16Z</time>
      </trkpt>
      <trkpt lat="45.0739" lon="5.5839">
        <ele>1218</ele>
        <time>2021-03-28T13:23:17Z</time>
      </trkpt>
      <trkpt lat="45.0739" lon="5.58388">
        <ele>1218</ele>
        <time>2021-03-28T13:23:18Z</time>
      </trkpt>
      <trkpt lat="45.0739" lon="5.58387">
        <ele>1218</ele>
        <time>2021-03-28T13:23:19Z</time>
      </trkpt>
      <trkpt lat="45.0739" lon="5.58387">
        <ele>1218</ele>
        <time>2021-03-28T13:23:20Z</time>
      </trkpt>
      <trkpt lat="45.0739" lon="5.58385">
        <ele>1218</ele>
        <time>2021-03-28T13:23:21Z</time>
      </trkpt>
      <trkpt lat="45.07392" lon="5.58385">
        <ele>1219</ele>
        <time>2021-03-28T13:23:22Z</time>
      </trkpt>
      <trkpt lat="45.07392" lon="5.58383">
        <ele>1219</ele>
        <time>2021-03-28T13:23:23Z</time>
      </trkpt>
      <trkpt lat="45.07392" lon="5.58383">
        <ele>1219</ele>
        <time>2021-03-28T13:23:24Z</time>
      </trkpt>
      <trkpt lat="45.07393" lon="5.58382">
        <ele>1219</ele>
        <time>2021-03-28T13:23:25Z</time>
      </trkpt>
      <trkpt lat="45.07393" lon="5.5838">
        <ele>1219</ele>
        <time>2021-03-28T13:23:26Z</time>
      </trkpt>
      <trkpt lat="45.07393" lon="5.58378">
        <ele>1219</ele>
        <time>2021-03-28T13:23:27Z</time>
      </trkpt>
      <trkpt lat="45.07395" lon="5.58377">
        <ele>1219</ele>
        <time>2021-03-28T13:23:28Z</time>
      </trkpt>
      <trkpt lat="45.07395" lon="5.58375">
        <ele>1219</ele>
        <time>2021-03-28T13:23:29Z</time>
      </trkpt>
      <trkpt lat="45.07395" lon="5.58373">
        <ele>1219</ele>
        <time>2021-03-28T13:23:30Z</time>
      </trkpt>
      <trkpt lat="45.07395" lon="5.58372">
        <ele>1219</ele>
        <time>2021-03-28T13:23:31Z</time>
      </trkpt>
      <trkpt lat="45.07395" lon="5.5837">
        <ele>1219</ele>
        <time>2021-03-28T13:23:32Z</time>
      </trkpt>
      <trkpt lat="45.07395" lon="5.58368">
        <ele>1219</ele>
        <time>2021-03-28T13:23:33Z</time>
      </trkpt>
      <trkpt lat="45.07395" lon="5.58367">
        <ele>1220</ele>
        <time>2021-03-28T13:23:34Z</time>
      </trkpt>
      <trkpt lat="45.07395" lon="5.58365">
        <ele>1220</ele>
        <time>2021-03-28T13:23:35Z</time>
      </trkpt>
      <trkpt lat="45.07395" lon="5.58363">
        <ele>1220</ele>
        <time>2021-03-28T13:23:36Z</time>
      </trkpt>
      <trkpt lat="45.07395" lon="5.58362">
        <ele>1220</ele>
        <time>2021-03-28T13:23:37Z</time>
      </trkpt>
      <trkpt lat="45.07397" lon="5.5836">
        <ele>1220</ele>
        <time>2021-03-28T13:23:38Z</time>
      </trkpt>
      <trkpt lat="45.07397" lon="5.58358">
        <ele>1220</ele>
        <time>2021-03-28T13:23:39Z</time>
      </trkpt>
      <trkpt lat="45.07397" lon="5.58357">
        <ele>1220</ele>
        <time>2021-03-28T13:23:40Z</time>
      </trkpt>
      <trkpt lat="45.07395" lon="5.58355">
        <ele>1220</ele>
        <time>2021-03-28T13:23:41Z</time>
      </trkpt>
      <trkpt lat="45.07393" lon="5.58353">
        <ele>1220</ele>
        <time>2021-03-28T13:23:42Z</time>
      </trkpt>
      <trkpt lat="45.07392" lon="5.58352">
        <ele>1220</ele>
        <time>2021-03-28T13:23:43Z</time>
      </trkpt>
      <trkpt lat="45.07392" lon="5.5835">
        <ele>1220</ele>
        <time>2021-03-28T13:23:44Z</time>
      </trkpt>
      <trkpt lat="45.07392" lon="5.5835">
        <ele>1220</ele>
        <time>2021-03-28T13:23:45Z</time>
      </trkpt>
      <trkpt lat="45.07392" lon="5.58348">
        <ele>1220</ele>
        <time>2021-03-28T13:23:46Z</time>
      </trkpt>
      <trkpt lat="45.07393" lon="5.58347">
        <ele>1221</ele>
        <time>2021-03-28T13:23:47Z</time>
      </trkpt>
      <trkpt lat="45.07393" lon="5.58347">
        <ele>1221</ele>
        <time>2021-03-28T13:23:48Z</time>
      </trkpt>
      <trkpt lat="45.07393" lon="5.58345">
        <ele>1221</ele>
        <time>2021-03-28T13:23:49Z</time>
      </trkpt>
      <trkpt lat="45.07395" lon="5.58345">
        <ele>1221</ele>
        <time>2021-03-28T13:23:50Z</time>
      </trkpt>
      <trkpt lat="45.07395" lon="5.58343">
        <ele>1221</ele>
        <time>2021-03-28T13:23:51Z</time>
      </trkpt>
      <trkpt lat="45.07395" lon="5.58343">
        <ele>1221</ele>
        <time>2021-03-28T13:23:52Z</time>
      </trkpt>
      <trkpt lat="45.07395" lon="5.58342">
        <ele>1221</ele>
        <time>2021-03-28T13:23:53Z</time>
      </trkpt>
      <trkpt lat="45.07395" lon="5.5834">
        <ele>1222</ele>
        <time>2021-03-28T13:23:54Z</time>
      </trkpt>
      <trkpt lat="45.07395" lon="5.5834">
        <ele>1222</ele>
        <time>2021-03-28T13:23:55Z</time>
      </trkpt>
      <trkpt lat="45.07395" lon="5.58337">
        <ele>1222</ele>
        <time>2021-03-28T13:23:56Z</time>
      </trkpt>
      <trkpt lat="45.07395" lon="5.58335">
        <ele>1222</ele>
        <time>2021-03-28T13:23:57Z</time>
      </trkpt>
      <trkpt lat="45.07395" lon="5.58333">
        <ele>1222</ele>
        <time>2021-03-28T13:23:58Z</time>
      </trkpt>
      <trkpt lat="45.07395" lon="5.58332">
        <ele>1222</ele>
        <time>2021-03-28T13:23:59Z</time>
      </trkpt>
      <trkpt lat="45.07395" lon="5.5833">
        <ele>1222</ele>
        <time>2021-03-28T13:24:00Z</time>
      </trkpt>
      <trkpt lat="45.07397" lon="5.58328">
        <ele>1222</ele>
        <time>2021-03-28T13:24:01Z</time>
      </trkpt>
      <trkpt lat="45.07397" lon="5.58327">
        <ele>1222</ele>
        <time>2021-03-28T13:24:02Z</time>
      </trkpt>
      <trkpt lat="45.07397" lon="5.58327">
        <ele>1222</ele>
        <time>2021-03-28T13:24:03Z</time>
      </trkpt>
      <trkpt lat="45.07397" lon="5.58325">
        <ele>1222</ele>
        <time>2021-03-28T13:24:04Z</time>
      </trkpt>
      <trkpt lat="45.07398" lon="5.58323">
        <ele>1222</ele>
        <time>2021-03-28T13:24:05Z</time>
      </trkpt>
      <trkpt lat="45.07398" lon="5.58323">
        <ele>1222</ele>
        <time>2021-03-28T13:24:06Z</time>
      </trkpt>
      <trkpt lat="45.074" lon="5.58323">
        <ele>1222</ele>
        <time>2021-03-28T13:24:07Z</time>
      </trkpt>
      <trkpt lat="45.074" lon="5.58322">
        <ele>1222</ele>
        <time>2021-03-28T13:24:08Z</time>
      </trkpt>
      <trkpt lat="45.074" lon="5.58323">
        <ele>1222</ele>
        <time>2021-03-28T13:24:09Z</time>
      </trkpt>
      <trkpt lat="45.074" lon="5.58323">
        <ele>1222</ele>
        <time>2021-03-28T13:24:10Z</time>
      </trkpt>
      <trkpt lat="45.074" lon="5.58323">
        <ele>1222</ele>
        <time>2021-03-28T13:24:11Z</time>
      </trkpt>
      <trkpt lat="45.074" lon="5.58322">
        <ele>1222</ele>
        <time>2021-03-28T13:24:12Z</time>
      </trkpt>
      <trkpt lat="45.074" lon="5.5832">
        <ele>1222</ele>
        <time>2021-03-28T13:24:13Z</time>
      </trkpt>
      <trkpt lat="45.07402" lon="5.58317">
        <ele>1222</ele>
        <time>2021-03-28T13:24:14Z</time>
      </trkpt>
      <trkpt lat="45.07402" lon="5.58315">
        <ele>1222</ele>
        <time>2021-03-28T13:24:15Z</time>
      </trkpt>
      <trkpt lat="45.07403" lon="5.58313">
        <ele>1222</ele>
        <time>2021-03-28T13:24:16Z</time>
      </trkpt>
      <trkpt lat="45.07403" lon="5.58313">
        <ele>1222</ele>
        <time>2021-03-28T13:24:17Z</time>
      </trkpt>
      <trkpt lat="45.07403" lon="5.58312">
        <ele>1222</ele>
        <time>2021-03-28T13:24:18Z</time>
      </trkpt>
      <trkpt lat="45.07403" lon="5.5831">
        <ele>1223</ele>
        <time>2021-03-28T13:24:19Z</time>
      </trkpt>
      <trkpt lat="45.07403" lon="5.58307">
        <ele>1223</ele>
        <time>2021-03-28T13:24:21Z</time>
      </trkpt>
      <trkpt lat="45.07403" lon="5.58307">
        <ele>1223</ele>
        <time>2021-03-28T13:24:22Z</time>
      </trkpt>
      <trkpt lat="45.07403" lon="5.58305">
        <ele>1223</ele>
        <time>2021-03-28T13:24:23Z</time>
      </trkpt>
      <trkpt lat="45.07402" lon="5.58305">
        <ele>1223</ele>
        <time>2021-03-28T13:24:24Z</time>
      </trkpt>
      <trkpt lat="45.07402" lon="5.58303">
        <ele>1223</ele>
        <time>2021-03-28T13:24:25Z</time>
      </trkpt>
      <trkpt lat="45.074" lon="5.58302">
        <ele>1224</ele>
        <time>2021-03-28T13:24:26Z</time>
      </trkpt>
      <trkpt lat="45.07398" lon="5.583">
        <ele>1224</ele>
        <time>2021-03-28T13:24:27Z</time>
      </trkpt>
      <trkpt lat="45.07398" lon="5.583">
        <ele>1224</ele>
        <time>2021-03-28T13:24:28Z</time>
      </trkpt>
      <trkpt lat="45.07398" lon="5.58298">
        <ele>1224</ele>
        <time>2021-03-28T13:24:29Z</time>
      </trkpt>
      <trkpt lat="45.074" lon="5.58298">
        <ele>1225</ele>
        <time>2021-03-28T13:24:30Z</time>
      </trkpt>
      <trkpt lat="45.074" lon="5.583">
        <ele>1225</ele>
        <time>2021-03-28T13:24:31Z</time>
      </trkpt>
      <trkpt lat="45.074" lon="5.58302">
        <ele>1225</ele>
        <time>2021-03-28T13:24:32Z</time>
      </trkpt>
      <trkpt lat="45.074" lon="5.58302">
        <ele>1225</ele>
        <time>2021-03-28T13:24:33Z</time>
      </trkpt>
      <trkpt lat="45.074" lon="5.58302">
        <ele>1225</ele>
        <time>2021-03-28T13:24:34Z</time>
      </trkpt>
      <trkpt lat="45.074" lon="5.58302">
        <ele>1225</ele>
        <time>2021-03-28T13:24:35Z</time>
      </trkpt>
      <trkpt lat="45.074" lon="5.58302">
        <ele>1225</ele>
        <time>2021-03-28T13:24:36Z</time>
      </trkpt>
      <trkpt lat="45.074" lon="5.58302">
        <ele>1225</ele>
        <time>2021-03-28T13:24:37Z</time>
      </trkpt>
      <trkpt lat="45.074" lon="5.58302">
        <ele>1225</ele>
        <time>2021-03-28T13:24:38Z</time>
      </trkpt>
      <trkpt lat="45.074" lon="5.58303">
        <ele>1224</ele>
        <time>2021-03-28T13:24:39Z</time>
      </trkpt>
      <trkpt lat="45.074" lon="5.58303">
        <ele>1224</ele>
        <time>2021-03-28T13:24:40Z</time>
      </trkpt>
      <trkpt lat="45.074" lon="5.58303">
        <ele>1224</ele>
        <time>2021-03-28T13:24:41Z</time>
      </trkpt>
      <trkpt lat="45.074" lon="5.58303">
        <ele>1224</ele>
        <time>2021-03-28T13:24:42Z</time>
      </trkpt>
      <trkpt lat="45.074" lon="5.58303">
        <ele>1224</ele>
        <time>2021-03-28T13:24:43Z</time>
      </trkpt>
      <trkpt lat="45.074" lon="5.58303">
        <ele>1224</ele>
        <time>2021-03-28T13:24:44Z</time>
      </trkpt>
      <trkpt lat="45.074" lon="5.58303">
        <ele>1224</ele>
        <time>2021-03-28T13:24:45Z</time>
      </trkpt>
      <trkpt lat="45.074" lon="5.58303">
        <ele>1224</ele>
        <time>2021-03-28T13:24:46Z</time>
      </trkpt>
      <trkpt lat="45.074" lon="5.58303">
        <ele>1224</ele>
        <time>2021-03-28T13:24:47Z</time>
      </trkpt>
      <trkpt lat="45.074" lon="5.58303">
        <ele>1224</ele>
        <time>2021-03-28T13:24:48Z</time>
      </trkpt>
      <trkpt lat="45.074" lon="5.58303">
        <ele>1224</ele>
        <time>2021-03-28T13:24:49Z</time>
      </trkpt>
      <trkpt lat="45.074" lon="5.58303">
        <ele>1224</ele>
        <time>2021-03-28T13:24:50Z</time>
      </trkpt>
      <trkpt lat="45.07402" lon="5.58307">
        <ele>1223</ele>
        <time>2021-03-28T13:24:51Z</time>
      </trkpt>
      <trkpt lat="45.07402" lon="5.58307">
        <ele>1223</ele>
        <time>2021-03-28T13:24:52Z</time>
      </trkpt>
      <trkpt lat="45.074" lon="5.58308">
        <ele>1223</ele>
        <time>2021-03-28T13:24:53Z</time>
      </trkpt>
      <trkpt lat="45.074" lon="5.58308">
        <ele>1223</ele>
        <time>2021-03-28T13:24:54Z</time>
      </trkpt>
      <trkpt lat="45.07398" lon="5.58308">
        <ele>1223</ele>
        <time>2021-03-28T13:24:55Z</time>
      </trkpt>
      <trkpt lat="45.07398" lon="5.58308">
        <ele>1223</ele>
        <time>2021-03-28T13:24:56Z</time>
      </trkpt>
      <trkpt lat="45.07398" lon="5.58308">
        <ele>1223</ele>
        <time>2021-03-28T13:24:57Z</time>
      </trkpt>
      <trkpt lat="45.07398" lon="5.5831">
        <ele>1223</ele>
        <time>2021-03-28T13:24:58Z</time>
      </trkpt>
      <trkpt lat="45.07398" lon="5.5831">
        <ele>1223</ele>
        <time>2021-03-28T13:24:59Z</time>
      </trkpt>
      <trkpt lat="45.07398" lon="5.5831">
        <ele>1223</ele>
        <time>2021-03-28T13:25:00Z</time>
      </trkpt>
      <trkpt lat="45.07398" lon="5.5831">
        <ele>1224</ele>
        <time>2021-03-28T13:25:01Z</time>
      </trkpt>
      <trkpt lat="45.074" lon="5.58312">
        <ele>1223</ele>
        <time>2021-03-28T13:25:02Z</time>
      </trkpt>
      <trkpt lat="45.0741" lon="5.58307">
        <ele>1224</ele>
        <time>2021-03-28T13:25:03Z</time>
      </trkpt>
      <trkpt lat="45.0741" lon="5.58307">
        <ele>1224</ele>
        <time>2021-03-28T13:25:04Z</time>
      </trkpt>
      <trkpt lat="45.07408" lon="5.58307">
        <ele>1224</ele>
        <time>2021-03-28T13:25:05Z</time>
      </trkpt>
      <trkpt lat="45.07408" lon="5.58307">
        <ele>1224</ele>
        <time>2021-03-28T13:25:06Z</time>
      </trkpt>
      <trkpt lat="45.07408" lon="5.58307">
        <ele>1224</ele>
        <time>2021-03-28T13:25:07Z</time>
      </trkpt>
      <trkpt lat="45.07408" lon="5.58307">
        <ele>1224</ele>
        <time>2021-03-28T13:25:08Z</time>
      </trkpt>
      <trkpt lat="45.07408" lon="5.58307">
        <ele>1224</ele>
        <time>2021-03-28T13:25:09Z</time>
      </trkpt>
      <trkpt lat="45.07408" lon="5.58307">
        <ele>1224</ele>
        <time>2021-03-28T13:25:10Z</time>
      </trkpt>
      <trkpt lat="45.07408" lon="5.58307">
        <ele>1224</ele>
        <time>2021-03-28T13:25:11Z</time>
      </trkpt>
      <trkpt lat="45.07422" lon="5.58295">
        <ele>1224</ele>
        <time>2021-03-28T13:25:12Z</time>
      </trkpt>
      <trkpt lat="45.07422" lon="5.58295">
        <ele>1224</ele>
        <time>2021-03-28T13:25:13Z</time>
      </trkpt>
      <trkpt lat="45.07422" lon="5.58295">
        <ele>1224</ele>
        <time>2021-03-28T13:25:14Z</time>
      </trkpt>
      <trkpt lat="45.07423" lon="5.58293">
        <ele>1224</ele>
        <time>2021-03-28T13:25:15Z</time>
      </trkpt>
      <trkpt lat="45.07423" lon="5.58293">
        <ele>1224</ele>
        <time>2021-03-28T13:25:16Z</time>
      </trkpt>
      <trkpt lat="45.07423" lon="5.58293">
        <ele>1224</ele>
        <time>2021-03-28T13:25:17Z</time>
      </trkpt>
      <trkpt lat="45.07423" lon="5.58293">
        <ele>1224</ele>
        <time>2021-03-28T13:25:18Z</time>
      </trkpt>
      <trkpt lat="45.07423" lon="5.58293">
        <ele>1224</ele>
        <time>2021-03-28T13:25:19Z</time>
      </trkpt>
      <trkpt lat="45.07423" lon="5.58293">
        <ele>1224</ele>
        <time>2021-03-28T13:25:20Z</time>
      </trkpt>
      <trkpt lat="45.07423" lon="5.58292">
        <ele>1224</ele>
        <time>2021-03-28T13:25:21Z</time>
      </trkpt>
      <trkpt lat="45.07423" lon="5.58292">
        <ele>1224</ele>
        <time>2021-03-28T13:25:22Z</time>
      </trkpt>
      <trkpt lat="45.07423" lon="5.58292">
        <ele>1224</ele>
        <time>2021-03-28T13:25:23Z</time>
      </trkpt>
      <trkpt lat="45.07423" lon="5.5829">
        <ele>1224</ele>
        <time>2021-03-28T13:25:24Z</time>
      </trkpt>
      <trkpt lat="45.07422" lon="5.58292">
        <ele>1224</ele>
        <time>2021-03-28T13:25:25Z</time>
      </trkpt>
      <trkpt lat="45.0742" lon="5.58292">
        <ele>1224</ele>
        <time>2021-03-28T13:25:26Z</time>
      </trkpt>
      <trkpt lat="45.0742" lon="5.58292">
        <ele>1224</ele>
        <time>2021-03-28T13:25:27Z</time>
      </trkpt>
      <trkpt lat="45.07418" lon="5.58292">
        <ele>1224</ele>
        <time>2021-03-28T13:25:28Z</time>
      </trkpt>
      <trkpt lat="45.07417" lon="5.58292">
        <ele>1224</ele>
        <time>2021-03-28T13:25:29Z</time>
      </trkpt>
      <trkpt lat="45.07417" lon="5.58292">
        <ele>1224</ele>
        <time>2021-03-28T13:25:30Z</time>
      </trkpt>
      <trkpt lat="45.07417" lon="5.58292">
        <ele>1224</ele>
        <time>2021-03-28T13:25:31Z</time>
      </trkpt>
      <trkpt lat="45.07417" lon="5.58292">
        <ele>1224</ele>
        <time>2021-03-28T13:25:32Z</time>
      </trkpt>
      <trkpt lat="45.07415" lon="5.58293">
        <ele>1224</ele>
        <time>2021-03-28T13:25:34Z</time>
      </trkpt>
      <trkpt lat="45.07415" lon="5.58295">
        <ele>1224</ele>
        <time>2021-03-28T13:25:35Z</time>
      </trkpt>
      <trkpt lat="45.07413" lon="5.58297">
        <ele>1224</ele>
        <time>2021-03-28T13:25:36Z</time>
      </trkpt>
      <trkpt lat="45.07413" lon="5.58295">
        <ele>1224</ele>
        <time>2021-03-28T13:25:37Z</time>
      </trkpt>
      <trkpt lat="45.07413" lon="5.58297">
        <ele>1224</ele>
        <time>2021-03-28T13:25:38Z</time>
      </trkpt>
      <trkpt lat="45.07413" lon="5.58297">
        <ele>1224</ele>
        <time>2021-03-28T13:25:39Z</time>
      </trkpt>
      <trkpt lat="45.07413" lon="5.58297">
        <ele>1224</ele>
        <time>2021-03-28T13:25:40Z</time>
      </trkpt>
      <trkpt lat="45.07413" lon="5.58297">
        <ele>1224</ele>
        <time>2021-03-28T13:25:41Z</time>
      </trkpt>
      <trkpt lat="45.07413" lon="5.58297">
        <ele>1224</ele>
        <time>2021-03-28T13:25:42Z</time>
      </trkpt>
      <trkpt lat="45.07413" lon="5.58297">
        <ele>1224</ele>
        <time>2021-03-28T13:25:43Z</time>
      </trkpt>
      <trkpt lat="45.07413" lon="5.58297">
        <ele>1225</ele>
        <time>2021-03-28T13:25:44Z</time>
      </trkpt>
      <trkpt lat="45.07412" lon="5.58298">
        <ele>1225</ele>
        <time>2021-03-28T13:25:45Z</time>
      </trkpt>
      <trkpt lat="45.0741" lon="5.583">
        <ele>1225</ele>
        <time>2021-03-28T13:25:46Z</time>
      </trkpt>
      <trkpt lat="45.07408" lon="5.583">
        <ele>1225</ele>
        <time>2021-03-28T13:25:47Z</time>
      </trkpt>
      <trkpt lat="45.07407" lon="5.583">
        <ele>1225</ele>
        <time>2021-03-28T13:25:48Z</time>
      </trkpt>
      <trkpt lat="45.07405" lon="5.58302">
        <ele>1225</ele>
        <time>2021-03-28T13:25:49Z</time>
      </trkpt>
      <trkpt lat="45.07403" lon="5.58302">
        <ele>1225</ele>
        <time>2021-03-28T13:25:50Z</time>
      </trkpt>
      <trkpt lat="45.07402" lon="5.58302">
        <ele>1225</ele>
        <time>2021-03-28T13:25:51Z</time>
      </trkpt>
      <trkpt lat="45.07402" lon="5.58303">
        <ele>1225</ele>
        <time>2021-03-28T13:25:52Z</time>
      </trkpt>
      <trkpt lat="45.07402" lon="5.58303">
        <ele>1225</ele>
        <time>2021-03-28T13:25:53Z</time>
      </trkpt>
      <trkpt lat="45.07402" lon="5.58305">
        <ele>1225</ele>
        <time>2021-03-28T13:25:54Z</time>
      </trkpt>
      <trkpt lat="45.07403" lon="5.58305">
        <ele>1225</ele>
        <time>2021-03-28T13:25:55Z</time>
      </trkpt>
      <trkpt lat="45.07403" lon="5.58307">
        <ele>1225</ele>
        <time>2021-03-28T13:25:56Z</time>
      </trkpt>
      <trkpt lat="45.07402" lon="5.58307">
        <ele>1225</ele>
        <time>2021-03-28T13:25:57Z</time>
      </trkpt>
      <trkpt lat="45.07402" lon="5.58307">
        <ele>1225</ele>
        <time>2021-03-28T13:25:58Z</time>
      </trkpt>
      <trkpt lat="45.07402" lon="5.58307">
        <ele>1225</ele>
        <time>2021-03-28T13:25:59Z</time>
      </trkpt>
      <trkpt lat="45.07402" lon="5.58308">
        <ele>1225</ele>
        <time>2021-03-28T13:26:00Z</time>
      </trkpt>
      <trkpt lat="45.07402" lon="5.58308">
        <ele>1225</ele>
        <time>2021-03-28T13:26:01Z</time>
      </trkpt>
      <trkpt lat="45.07402" lon="5.5831">
        <ele>1226</ele>
        <time>2021-03-28T13:26:02Z</time>
      </trkpt>
      <trkpt lat="45.074" lon="5.58312">
        <ele>1226</ele>
        <time>2021-03-28T13:26:03Z</time>
      </trkpt>
      <trkpt lat="45.074" lon="5.58312">
        <ele>1226</ele>
        <time>2021-03-28T13:26:04Z</time>
      </trkpt>
      <trkpt lat="45.074" lon="5.58313">
        <ele>1226</ele>
        <time>2021-03-28T13:26:05Z</time>
      </trkpt>
      <trkpt lat="45.074" lon="5.58313">
        <ele>1226</ele>
        <time>2021-03-28T13:26:06Z</time>
      </trkpt>
      <trkpt lat="45.07402" lon="5.58313">
        <ele>1226</ele>
        <time>2021-03-28T13:26:07Z</time>
      </trkpt>
      <trkpt lat="45.07402" lon="5.58315">
        <ele>1226</ele>
        <time>2021-03-28T13:26:08Z</time>
      </trkpt>
      <trkpt lat="45.07402" lon="5.58315">
        <ele>1226</ele>
        <time>2021-03-28T13:26:09Z</time>
      </trkpt>
      <trkpt lat="45.07402" lon="5.58315">
        <ele>1226</ele>
        <time>2021-03-28T13:26:10Z</time>
      </trkpt>
      <trkpt lat="45.07402" lon="5.58317">
        <ele>1226</ele>
        <time>2021-03-28T13:26:11Z</time>
      </trkpt>
      <trkpt lat="45.07402" lon="5.58317">
        <ele>1226</ele>
        <time>2021-03-28T13:26:12Z</time>
      </trkpt>
      <trkpt lat="45.07402" lon="5.58318">
        <ele>1226</ele>
        <time>2021-03-28T13:26:13Z</time>
      </trkpt>
      <trkpt lat="45.07402" lon="5.5832">
        <ele>1226</ele>
        <time>2021-03-28T13:26:14Z</time>
      </trkpt>
      <trkpt lat="45.07402" lon="5.5832">
        <ele>1226</ele>
        <time>2021-03-28T13:26:15Z</time>
      </trkpt>
      <trkpt lat="45.07402" lon="5.5832">
        <ele>1226</ele>
        <time>2021-03-28T13:26:16Z</time>
      </trkpt>
      <trkpt lat="45.07403" lon="5.5832">
        <ele>1226</ele>
        <time>2021-03-28T13:26:17Z</time>
      </trkpt>
      <trkpt lat="45.07403" lon="5.5832">
        <ele>1226</ele>
        <time>2021-03-28T13:26:18Z</time>
      </trkpt>
      <trkpt lat="45.07402" lon="5.58322">
        <ele>1226</ele>
        <time>2021-03-28T13:26:19Z</time>
      </trkpt>
      <trkpt lat="45.07402" lon="5.58322">
        <ele>1226</ele>
        <time>2021-03-28T13:26:20Z</time>
      </trkpt>
      <trkpt lat="45.074" lon="5.58322">
        <ele>1226</ele>
        <time>2021-03-28T13:26:21Z</time>
      </trkpt>
      <trkpt lat="45.074" lon="5.58322">
        <ele>1226</ele>
        <time>2021-03-28T13:26:22Z</time>
      </trkpt>
      <trkpt lat="45.07398" lon="5.58322">
        <ele>1227</ele>
        <time>2021-03-28T13:26:23Z</time>
      </trkpt>
      <trkpt lat="45.07398" lon="5.58322">
        <ele>1227</ele>
        <time>2021-03-28T13:26:24Z</time>
      </trkpt>
      <trkpt lat="45.07398" lon="5.58322">
        <ele>1227</ele>
        <time>2021-03-28T13:26:25Z</time>
      </trkpt>
      <trkpt lat="45.07398" lon="5.5832">
        <ele>1227</ele>
        <time>2021-03-28T13:26:26Z</time>
      </trkpt>
      <trkpt lat="45.07398" lon="5.58318">
        <ele>1227</ele>
        <time>2021-03-28T13:26:27Z</time>
      </trkpt>
      <trkpt lat="45.074" lon="5.58318">
        <ele>1227</ele>
        <time>2021-03-28T13:26:28Z</time>
      </trkpt>
      <trkpt lat="45.074" lon="5.58317">
        <ele>1227</ele>
        <time>2021-03-28T13:26:29Z</time>
      </trkpt>
      <trkpt lat="45.074" lon="5.58318">
        <ele>1227</ele>
        <time>2021-03-28T13:26:30Z</time>
      </trkpt>
      <trkpt lat="45.074" lon="5.5832">
        <ele>1228</ele>
        <time>2021-03-28T13:26:31Z</time>
      </trkpt>
      <trkpt lat="45.07398" lon="5.58322">
        <ele>1228</ele>
        <time>2021-03-28T13:26:32Z</time>
      </trkpt>
      <trkpt lat="45.07398" lon="5.58322">
        <ele>1228</ele>
        <time>2021-03-28T13:26:33Z</time>
      </trkpt>
      <trkpt lat="45.07398" lon="5.58323">
        <ele>1228</ele>
        <time>2021-03-28T13:26:34Z</time>
      </trkpt>
      <trkpt lat="45.07398" lon="5.58325">
        <ele>1228</ele>
        <time>2021-03-28T13:26:35Z</time>
      </trkpt>
      <trkpt lat="45.07398" lon="5.58327">
        <ele>1228</ele>
        <time>2021-03-28T13:26:36Z</time>
      </trkpt>
      <trkpt lat="45.07397" lon="5.58328">
        <ele>1229</ele>
        <time>2021-03-28T13:26:37Z</time>
      </trkpt>
      <trkpt lat="45.07397" lon="5.58328">
        <ele>1229</ele>
        <time>2021-03-28T13:26:38Z</time>
      </trkpt>
      <trkpt lat="45.07395" lon="5.58328">
        <ele>1229</ele>
        <time>2021-03-28T13:26:39Z</time>
      </trkpt>
      <trkpt lat="45.07395" lon="5.58327">
        <ele>1229</ele>
        <time>2021-03-28T13:26:40Z</time>
      </trkpt>
      <trkpt lat="45.07393" lon="5.58325">
        <ele>1229</ele>
        <time>2021-03-28T13:26:41Z</time>
      </trkpt>
      <trkpt lat="45.07393" lon="5.58323">
        <ele>1229</ele>
        <time>2021-03-28T13:26:42Z</time>
      </trkpt>
      <trkpt lat="45.07393" lon="5.58322">
        <ele>1229</ele>
        <time>2021-03-28T13:26:43Z</time>
      </trkpt>
      <trkpt lat="45.07395" lon="5.58322">
        <ele>1229</ele>
        <time>2021-03-28T13:26:44Z</time>
      </trkpt>
      <trkpt lat="45.07395" lon="5.5832">
        <ele>1229</ele>
        <time>2021-03-28T13:26:45Z</time>
      </trkpt>
      <trkpt lat="45.07395" lon="5.5832">
        <ele>1230</ele>
        <time>2021-03-28T13:26:46Z</time>
      </trkpt>
      <trkpt lat="45.07395" lon="5.5832">
        <ele>1230</ele>
        <time>2021-03-28T13:26:47Z</time>
      </trkpt>
      <trkpt lat="45.07395" lon="5.58322">
        <ele>1230</ele>
        <time>2021-03-28T13:26:48Z</time>
      </trkpt>
      <trkpt lat="45.07395" lon="5.58323">
        <ele>1231</ele>
        <time>2021-03-28T13:26:49Z</time>
      </trkpt>
      <trkpt lat="45.07395" lon="5.58325">
        <ele>1231</ele>
        <time>2021-03-28T13:26:50Z</time>
      </trkpt>
      <trkpt lat="45.07397" lon="5.58323">
        <ele>1231</ele>
        <time>2021-03-28T13:26:51Z</time>
      </trkpt>
      <trkpt lat="45.07398" lon="5.58323">
        <ele>1231</ele>
        <time>2021-03-28T13:26:52Z</time>
      </trkpt>
      <trkpt lat="45.074" lon="5.58322">
        <ele>1231</ele>
        <time>2021-03-28T13:26:53Z</time>
      </trkpt>
      <trkpt lat="45.074" lon="5.58327">
        <ele>1231</ele>
        <time>2021-03-28T13:26:54Z</time>
      </trkpt>
      <trkpt lat="45.07397" lon="5.58337">
        <ele>1231</ele>
        <time>2021-03-28T13:26:56Z</time>
      </trkpt>
      <trkpt lat="45.07397" lon="5.58337">
        <ele>1231</ele>
        <time>2021-03-28T13:26:57Z</time>
      </trkpt>
      <trkpt lat="45.07397" lon="5.58342">
        <ele>1231</ele>
        <time>2021-03-28T13:26:58Z</time>
      </trkpt>
      <trkpt lat="45.07272" lon="5.5802">
        <ele>1198.22</ele>
        <time>2021-03-29T08:18:47Z</time>
      </trkpt>
      <trkpt lat="45.07272" lon="5.58023">
        <ele>1197.21</ele>
        <time>2021-03-29T08:19:01Z</time>
      </trkpt>
      <trkpt lat="45.07276" lon="5.58033">
        <ele>1194.75</ele>
        <time>2021-03-29T08:19:11Z</time>
      </trkpt>
      <trkpt lat="45.07278" lon="5.58045">
        <ele>1192.74</ele>
        <time>2021-03-29T08:19:21Z</time>
      </trkpt>
      <trkpt lat="45.07272" lon="5.58061">
        <ele>1190.37</ele>
        <time>2021-03-29T08:19:31Z</time>
      </trkpt>
      <trkpt lat="45.0727" lon="5.58078">
        <ele>1188.2</ele>
        <time>2021-03-29T08:19:41Z</time>
      </trkpt>
      <trkpt lat="45.07275" lon="5.5809">
        <ele>1188.77</ele>
        <time>2021-03-29T08:19:51Z</time>
      </trkpt>
      <trkpt lat="45.07284" lon="5.58099">
        <ele>1189.26</ele>
        <time>2021-03-29T08:20:01Z</time>
      </trkpt>
      <trkpt lat="45.07291" lon="5.58107">
        <ele>1190.47</ele>
        <time>2021-03-29T08:20:11Z</time>
      </trkpt>
      <trkpt lat="45.07298" lon="5.58117">
        <ele>1190.88</ele>
        <time>2021-03-29T08:20:21Z</time>
      </trkpt>
      <trkpt lat="45.07302" lon="5.58127">
        <ele>1190.9</ele>
        <time>2021-03-29T08:20:31Z</time>
      </trkpt>
      <trkpt lat="45.07307" lon="5.58138">
        <ele>1192.75</ele>
        <time>2021-03-29T08:20:41Z</time>
      </trkpt>
      <trkpt lat="45.07312" lon="5.58148">
        <ele>1192.7</ele>
        <time>2021-03-29T08:20:51Z</time>
      </trkpt>
      <trkpt lat="45.07317" lon="5.58158">
        <ele>1194.43</ele>
        <time>2021-03-29T08:21:01Z</time>
      </trkpt>
      <trkpt lat="45.07322" lon="5.58168">
        <ele>1195.98</ele>
        <time>2021-03-29T08:21:11Z</time>
      </trkpt>
      <trkpt lat="45.07326" lon="5.58178">
        <ele>1197.98</ele>
        <time>2021-03-29T08:21:21Z</time>
      </trkpt>
      <trkpt lat="45.0733" lon="5.58189">
        <ele>1199.02</ele>
        <time>2021-03-29T08:21:31Z</time>
      </trkpt>
      <trkpt lat="45.07336" lon="5.582">
        <ele>1202.05</ele>
        <time>2021-03-29T08:21:41Z</time>
      </trkpt>
      <trkpt lat="45.07341" lon="5.58211">
        <ele>1203.67</ele>
        <time>2021-03-29T08:21:51Z</time>
      </trkpt>
      <trkpt lat="45.07345" lon="5.5822">
        <ele>1203.89</ele>
        <time>2021-03-29T08:22:01Z</time>
      </trkpt>
      <trkpt lat="45.07349" lon="5.5823">
        <ele>1205.67</ele>
        <time>2021-03-29T08:22:11Z</time>
      </trkpt>
      <trkpt lat="45.07351" lon="5.58238">
        <ele>1206.06</ele>
        <time>2021-03-29T08:22:21Z</time>
      </trkpt>
      <trkpt lat="45.07352" lon="5.5824">
        <ele>1206.27</ele>
        <time>2021-03-29T08:22:32Z</time>
      </trkpt>
      <trkpt lat="45.07358" lon="5.58251">
        <ele>1207.47</ele>
        <time>2021-03-29T08:22:42Z</time>
      </trkpt>
      <trkpt lat="45.07362" lon="5.58261">
        <ele>1209.22</ele>
        <time>2021-03-29T08:22:52Z</time>
      </trkpt>
      <trkpt lat="45.07368" lon="5.58272">
        <ele>1211.28</ele>
        <time>2021-03-29T08:23:02Z</time>
      </trkpt>
      <trkpt lat="45.07375" lon="5.58283">
        <ele>1213.36</ele>
        <time>2021-03-29T08:23:12Z</time>
      </trkpt>
      <trkpt lat="45.07376" lon="5.58296">
        <ele>1214.6</ele>
        <time>2021-03-29T08:23:22Z</time>
      </trkpt>
      <trkpt lat="45.07369" lon="5.58308">
        <ele>1216.48</ele>
        <time>2021-03-29T08:23:32Z</time>
      </trkpt>
      <trkpt lat="45.07363" lon="5.58318">
        <ele>1217.72</ele>
        <time>2021-03-29T08:23:42Z</time>
      </trkpt>
      <trkpt lat="45.07357" lon="5.58329">
        <ele>1219.59</ele>
        <time>2021-03-29T08:23:52Z</time>
      </trkpt>
      <trkpt lat="45.0735" lon="5.5834">
        <ele>1222.85</ele>
        <time>2021-03-29T08:24:02Z</time>
      </trkpt>
      <trkpt lat="45.07345" lon="5.5835">
        <ele>1227.43</ele>
        <time>2021-03-29T08:24:12Z</time>
      </trkpt>
      <trkpt lat="45.07339" lon="5.5836">
        <ele>1229.48</ele>
        <time>2021-03-29T08:24:22Z</time>
      </trkpt>
      <trkpt lat="45.07334" lon="5.58369">
        <ele>1230.5</ele>
        <time>2021-03-29T08:24:32Z</time>
      </trkpt>
      <trkpt lat="45.07328" lon="5.58379">
        <ele>1231.97</ele>
        <time>2021-03-29T08:24:42Z</time>
      </trkpt>
      <trkpt lat="45.07323" lon="5.58389">
        <ele>1232.68</ele>
        <time>2021-03-29T08:24:52Z</time>
      </trkpt>
      <trkpt lat="45.07319" lon="5.58397">
        <ele>1231.89</ele>
        <time>2021-03-29T08:25:02Z</time>
      </trkpt>
      <trkpt lat="45.07313" lon="5.58405">
        <ele>1233.4</ele>
        <time>2021-03-29T08:25:12Z</time>
      </trkpt>
      <trkpt lat="45.07306" lon="5.58412">
        <ele>1233.72</ele>
        <time>2021-03-29T08:25:22Z</time>
      </trkpt>
      <trkpt lat="45.07299" lon="5.58418">
        <ele>1234.1</ele>
        <time>2021-03-29T08:25:32Z</time>
      </trkpt>
      <trkpt lat="45.07291" lon="5.58422">
        <ele>1234.13</ele>
        <time>2021-03-29T08:25:42Z</time>
      </trkpt>
      <trkpt lat="45.07283" lon="5.58422">
        <ele>1233.79</ele>
        <time>2021-03-29T08:25:52Z</time>
      </trkpt>
      <trkpt lat="45.07275" lon="5.58421">
        <ele>1235.47</ele>
        <time>2021-03-29T08:26:02Z</time>
      </trkpt>
      <trkpt lat="45.07267" lon="5.5842">
        <ele>1237.71</ele>
        <time>2021-03-29T08:26:12Z</time>
      </trkpt>
      <trkpt lat="45.07259" lon="5.5842">
        <ele>1240.41</ele>
        <time>2021-03-29T08:26:22Z</time>
      </trkpt>
      <trkpt lat="45.07253" lon="5.58424">
        <ele>1244.41</ele>
        <time>2021-03-29T08:26:32Z</time>
      </trkpt>
      <trkpt lat="45.07247" lon="5.58429">
        <ele>1246.25</ele>
        <time>2021-03-29T08:26:42Z</time>
      </trkpt>
      <trkpt lat="45.07241" lon="5.58434">
        <ele>1247.23</ele>
        <time>2021-03-29T08:26:52Z</time>
      </trkpt>
      <trkpt lat="45.07235" lon="5.58437">
        <ele>1250.05</ele>
        <time>2021-03-29T08:27:02Z</time>
      </trkpt>
      <trkpt lat="45.0723" lon="5.58442">
        <ele>1251.96</ele>
        <time>2021-03-29T08:27:12Z</time>
      </trkpt>
      <trkpt lat="45.07233" lon="5.58444">
        <ele>1251.53</ele>
        <time>2021-03-29T08:27:22Z</time>
      </trkpt>
      <trkpt lat="45.07231" lon="5.58443">
        <ele>1251.53</ele>
        <time>2021-03-29T08:29:19Z</time>
      </trkpt>
      <trkpt lat="45.0723" lon="5.58443">
        <ele>1251.11</ele>
        <time>2021-03-29T08:30:32Z</time>
      </trkpt>
      <trkpt lat="45.07227" lon="5.58444">
        <ele>1251.75</ele>
        <time>2021-03-29T08:30:42Z</time>
      </trkpt>
      <trkpt lat="45.07226" lon="5.58445">
        <ele>1251.75</ele>
        <time>2021-03-29T08:30:52Z</time>
      </trkpt>
      <trkpt lat="45.07225" lon="5.58445">
        <ele>1252.37</ele>
        <time>2021-03-29T08:31:12Z</time>
      </trkpt>
      <trkpt lat="45.07222" lon="5.58448">
        <ele>1252.63</ele>
        <time>2021-03-29T08:31:22Z</time>
      </trkpt>
      <trkpt lat="45.07221" lon="5.58449">
        <ele>1252.63</ele>
        <time>2021-03-29T08:31:32Z</time>
      </trkpt>
      <trkpt lat="45.07219" lon="5.58449">
        <ele>1252.85</ele>
        <time>2021-03-29T08:31:45Z</time>
      </trkpt>
      <trkpt lat="45.07203" lon="5.58452">
        <ele>1253.89</ele>
        <time>2021-03-29T08:31:55Z</time>
      </trkpt>
      <trkpt lat="45.07194" lon="5.58453">
        <ele>1255.27</ele>
        <time>2021-03-29T08:32:05Z</time>
      </trkpt>
      <trkpt lat="45.07192" lon="5.58453">
        <ele>1255.27</ele>
        <time>2021-03-29T08:32:15Z</time>
      </trkpt>
      <trkpt lat="45.07188" lon="5.58452">
        <ele>1258.1</ele>
        <time>2021-03-29T08:32:25Z</time>
      </trkpt>
      <trkpt lat="45.07183" lon="5.58451">
        <ele>1258.12</ele>
        <time>2021-03-29T08:32:35Z</time>
      </trkpt>
      <trkpt lat="45.07177" lon="5.58451">
        <ele>1259.07</ele>
        <time>2021-03-29T08:32:45Z</time>
      </trkpt>
      <trkpt lat="45.0717" lon="5.58451">
        <ele>1260.71</ele>
        <time>2021-03-29T08:32:55Z</time>
      </trkpt>
      <trkpt lat="45.07167" lon="5.58452">
        <ele>1260.71</ele>
        <time>2021-03-29T08:33:05Z</time>
      </trkpt>
      <trkpt lat="45.07166" lon="5.58452">
        <ele>1261.11</ele>
        <time>2021-03-29T08:34:20Z</time>
      </trkpt>
      <trkpt lat="45.07155" lon="5.58453">
        <ele>1263.81</ele>
        <time>2021-03-29T08:34:30Z</time>
      </trkpt>
      <trkpt lat="45.07143" lon="5.58455">
        <ele>1267.72</ele>
        <time>2021-03-29T08:34:40Z</time>
      </trkpt>
      <trkpt lat="45.07129" lon="5.58457">
        <ele>1268.36</ele>
        <time>2021-03-29T08:34:50Z</time>
      </trkpt>
      <trkpt lat="45.07121" lon="5.58461">
        <ele>1270.18</ele>
        <time>2021-03-29T08:35:00Z</time>
      </trkpt>
      <trkpt lat="45.0712" lon="5.58462">
        <ele>1270.18</ele>
        <time>2021-03-29T08:35:10Z</time>
      </trkpt>
      <trkpt lat="45.07119" lon="5.58463">
        <ele>1273.64</ele>
        <time>2021-03-29T08:36:29Z</time>
      </trkpt>
      <trkpt lat="45.07108" lon="5.58482">
        <ele>1275.38</ele>
        <time>2021-03-29T08:36:39Z</time>
      </trkpt>
      <trkpt lat="45.07106" lon="5.58487">
        <ele>1275.38</ele>
        <time>2021-03-29T08:36:49Z</time>
      </trkpt>
      <trkpt lat="45.07103" lon="5.58491">
        <ele>1277.95</ele>
        <time>2021-03-29T08:36:59Z</time>
      </trkpt>
      <trkpt lat="45.07096" lon="5.58499">
        <ele>1277.97</ele>
        <time>2021-03-29T08:37:09Z</time>
      </trkpt>
      <trkpt lat="45.07089" lon="5.58508">
        <ele>1281.55</ele>
        <time>2021-03-29T08:37:19Z</time>
      </trkpt>
      <trkpt lat="45.07087" lon="5.58511">
        <ele>1281.55</ele>
        <time>2021-03-29T08:37:29Z</time>
      </trkpt>
      <trkpt lat="45.07086" lon="5.58512">
        <ele>1282.39</ele>
        <time>2021-03-29T08:37:47Z</time>
      </trkpt>
      <trkpt lat="45.07081" lon="5.58524">
        <ele>1285.66</ele>
        <time>2021-03-29T08:37:57Z</time>
      </trkpt>
      <trkpt lat="45.0708" lon="5.58527">
        <ele>1285.66</ele>
        <time>2021-03-29T08:38:07Z</time>
      </trkpt>
      <trkpt lat="45.07079" lon="5.58529">
        <ele>1286.26</ele>
        <time>2021-03-29T08:38:24Z</time>
      </trkpt>
      <trkpt lat="45.07072" lon="5.58541">
        <ele>1289.27</ele>
        <time>2021-03-29T08:38:34Z</time>
      </trkpt>
      <trkpt lat="45.07069" lon="5.58545">
        <ele>1289.27</ele>
        <time>2021-03-29T08:38:44Z</time>
      </trkpt>
      <trkpt lat="45.07069" lon="5.58546">
        <ele>1289.53</ele>
        <time>2021-03-29T08:39:00Z</time>
      </trkpt>
      <trkpt lat="45.07063" lon="5.58557">
        <ele>1291.28</ele>
        <time>2021-03-29T08:39:10Z</time>
      </trkpt>
      <trkpt lat="45.07061" lon="5.5856">
        <ele>1291.28</ele>
        <time>2021-03-29T08:39:20Z</time>
      </trkpt>
      <trkpt lat="45.0706" lon="5.58561">
        <ele>1294.72</ele>
        <time>2021-03-29T08:40:06Z</time>
      </trkpt>
      <trkpt lat="45.07045" lon="5.58594">
        <ele>1296.89</ele>
        <time>2021-03-29T08:40:16Z</time>
      </trkpt>
      <trkpt lat="45.07042" lon="5.58601">
        <ele>1296.89</ele>
        <time>2021-03-29T08:40:26Z</time>
      </trkpt>
      <trkpt lat="45.07041" lon="5.58602">
        <ele>1296.89</ele>
        <time>2021-03-29T08:40:36Z</time>
      </trkpt>
      <trkpt lat="45.07041" lon="5.58604">
        <ele>1301.13</ele>
        <time>2021-03-29T08:41:11Z</time>
      </trkpt>
      <trkpt lat="45.07038" lon="5.58617">
        <ele>1304.62</ele>
        <time>2021-03-29T08:41:21Z</time>
      </trkpt>
      <trkpt lat="45.07036" lon="5.58626">
        <ele>1311.84</ele>
        <time>2021-03-29T08:41:31Z</time>
      </trkpt>
      <trkpt lat="45.07031" lon="5.58643">
        <ele>1316.55</ele>
        <time>2021-03-29T08:41:41Z</time>
      </trkpt>
      <trkpt lat="45.0703" lon="5.58647">
        <ele>1316.55</ele>
        <time>2021-03-29T08:41:51Z</time>
      </trkpt>
      <trkpt lat="45.0703" lon="5.58649">
        <ele>1317.19</ele>
        <time>2021-03-29T08:42:33Z</time>
      </trkpt>
      <trkpt lat="45.07029" lon="5.58665">
        <ele>1324.28</ele>
        <time>2021-03-29T08:42:43Z</time>
      </trkpt>
      <trkpt lat="45.07029" lon="5.58681">
        <ele>1327.36</ele>
        <time>2021-03-29T08:42:53Z</time>
      </trkpt>
      <trkpt lat="45.07029" lon="5.58693">
        <ele>1329.26</ele>
        <time>2021-03-29T08:43:03Z</time>
      </trkpt>
      <trkpt lat="45.07029" lon="5.58695">
        <ele>1329.26</ele>
        <time>2021-03-29T08:43:13Z</time>
      </trkpt>
      <trkpt lat="45.0703" lon="5.58697">
        <ele>1331.19</ele>
        <time>2021-03-29T08:43:55Z</time>
      </trkpt>
      <trkpt lat="45.07033" lon="5.5871">
        <ele>1337.41</ele>
        <time>2021-03-29T08:44:05Z</time>
      </trkpt>
      <trkpt lat="45.07044" lon="5.58729">
        <ele>1349.71</ele>
        <time>2021-03-29T08:44:15Z</time>
      </trkpt>
      <trkpt lat="45.07049" lon="5.58736">
        <ele>1349.76</ele>
        <time>2021-03-29T08:44:25Z</time>
      </trkpt>
      <trkpt lat="45.07053" lon="5.58742">
        <ele>1352.83</ele>
        <time>2021-03-29T08:44:35Z</time>
      </trkpt>
      <trkpt lat="45.07059" lon="5.58753">
        <ele>1364.05</ele>
        <time>2021-03-29T08:44:45Z</time>
      </trkpt>
      <trkpt lat="45.07062" lon="5.58757">
        <ele>1365.89</ele>
        <time>2021-03-29T08:44:55Z</time>
      </trkpt>
      <trkpt lat="45.07068" lon="5.58766">
        <ele>1370.87</ele>
        <time>2021-03-29T08:45:05Z</time>
      </trkpt>
      <trkpt lat="45.07072" lon="5.58772">
        <ele>1370.92</ele>
        <time>2021-03-29T08:45:15Z</time>
      </trkpt>
      <trkpt lat="45.07073" lon="5.58773">
        <ele>1370.92</ele>
        <time>2021-03-29T08:45:25Z</time>
      </trkpt>
      <trkpt lat="45.07079" lon="5.58781">
        <ele>1374.02</ele>
        <time>2021-03-29T08:45:35Z</time>
      </trkpt>
      <trkpt lat="45.07084" lon="5.58788">
        <ele>1374.02</ele>
        <time>2021-03-29T08:45:45Z</time>
      </trkpt>
      <trkpt lat="45.07089" lon="5.58796">
        <ele>1378.45</ele>
        <time>2021-03-29T08:45:55Z</time>
      </trkpt>
      <trkpt lat="45.07096" lon="5.58806">
        <ele>1382.61</ele>
        <time>2021-03-29T08:46:05Z</time>
      </trkpt>
      <trkpt lat="45.07101" lon="5.58812">
        <ele>1385.23</ele>
        <time>2021-03-29T08:46:15Z</time>
      </trkpt>
      <trkpt lat="45.0711" lon="5.58822">
        <ele>1389.46</ele>
        <time>2021-03-29T08:46:25Z</time>
      </trkpt>
      <trkpt lat="45.07112" lon="5.58823">
        <ele>1390.2</ele>
        <time>2021-03-29T08:46:35Z</time>
      </trkpt>
      <trkpt lat="45.07113" lon="5.58824">
        <ele>1390.2</ele>
        <time>2021-03-29T08:46:48Z</time>
      </trkpt>
      <trkpt lat="45.07118" lon="5.5883">
        <ele>1390.42</ele>
        <time>2021-03-29T08:46:58Z</time>
      </trkpt>
      <trkpt lat="45.0712" lon="5.58833">
        <ele>1390.42</ele>
        <time>2021-03-29T08:47:08Z</time>
      </trkpt>
      <trkpt lat="45.07123" lon="5.58837">
        <ele>1392.24</ele>
        <time>2021-03-29T08:47:18Z</time>
      </trkpt>
      <trkpt lat="45.07131" lon="5.58846">
        <ele>1393.42</ele>
        <time>2021-03-29T08:47:28Z</time>
      </trkpt>
      <trkpt lat="45.07136" lon="5.58852">
        <ele>1395.23</ele>
        <time>2021-03-29T08:47:38Z</time>
      </trkpt>
      <trkpt lat="45.07137" lon="5.58853">
        <ele>1395.25</ele>
        <time>2021-03-29T08:47:48Z</time>
      </trkpt>
      <trkpt lat="45.07139" lon="5.58854">
        <ele>1395.69</ele>
        <time>2021-03-29T08:48:02Z</time>
      </trkpt>
      <trkpt lat="45.07143" lon="5.5886">
        <ele>1397.46</ele>
        <time>2021-03-29T08:48:12Z</time>
      </trkpt>
      <trkpt lat="45.07146" lon="5.58862">
        <ele>1397.47</ele>
        <time>2021-03-29T08:48:22Z</time>
      </trkpt>
      <trkpt lat="45.07147" lon="5.58864">
        <ele>1398.18</ele>
        <time>2021-03-29T08:48:32Z</time>
      </trkpt>
      <trkpt lat="45.07158" lon="5.58877">
        <ele>1398.08</ele>
        <time>2021-03-29T08:48:42Z</time>
      </trkpt>
      <trkpt lat="45.07162" lon="5.58881">
        <ele>1398.08</ele>
        <time>2021-03-29T08:48:52Z</time>
      </trkpt>
      <trkpt lat="45.07163" lon="5.58882">
        <ele>1398.08</ele>
        <time>2021-03-29T08:49:02Z</time>
      </trkpt>
      <trkpt lat="45.07163" lon="5.58883">
        <ele>1398.56</ele>
        <time>2021-03-29T08:49:31Z</time>
      </trkpt>
      <trkpt lat="45.0717" lon="5.58904">
        <ele>1399.14</ele>
        <time>2021-03-29T08:49:41Z</time>
      </trkpt>
      <trkpt lat="45.07177" lon="5.5893">
        <ele>1401.88</ele>
        <time>2021-03-29T08:49:51Z</time>
      </trkpt>
      <trkpt lat="45.07182" lon="5.58944">
        <ele>1404.68</ele>
        <time>2021-03-29T08:50:01Z</time>
      </trkpt>
      <trkpt lat="45.07184" lon="5.58954">
        <ele>1407.46</ele>
        <time>2021-03-29T08:50:11Z</time>
      </trkpt>
      <trkpt lat="45.07185" lon="5.58958">
        <ele>1408.01</ele>
        <time>2021-03-29T08:50:21Z</time>
      </trkpt>
      <trkpt lat="45.07184" lon="5.58962">
        <ele>1408.03</ele>
        <time>2021-03-29T08:50:31Z</time>
      </trkpt>
      <trkpt lat="45.07184" lon="5.58963">
        <ele>1408.88</ele>
        <time>2021-03-29T08:50:49Z</time>
      </trkpt>
      <trkpt lat="45.07183" lon="5.5898">
        <ele>1410.99</ele>
        <time>2021-03-29T08:50:59Z</time>
      </trkpt>
      <trkpt lat="45.07183" lon="5.58986">
        <ele>1411.34</ele>
        <time>2021-03-29T08:51:09Z</time>
      </trkpt>
      <trkpt lat="45.07183" lon="5.59006">
        <ele>1416.32</ele>
        <time>2021-03-29T08:51:19Z</time>
      </trkpt>
      <trkpt lat="45.07184" lon="5.59015">
        <ele>1417.57</ele>
        <time>2021-03-29T08:51:29Z</time>
      </trkpt>
      <trkpt lat="45.07185" lon="5.59021">
        <ele>1417.61</ele>
        <time>2021-03-29T08:51:39Z</time>
      </trkpt>
      <trkpt lat="45.07185" lon="5.59022">
        <ele>1417.61</ele>
        <time>2021-03-29T08:51:49Z</time>
      </trkpt>
      <trkpt lat="45.07186" lon="5.59024">
        <ele>1417.44</ele>
        <time>2021-03-29T08:52:06Z</time>
      </trkpt>
      <trkpt lat="45.07187" lon="5.59059">
        <ele>1420.39</ele>
        <time>2021-03-29T08:52:16Z</time>
      </trkpt>
      <trkpt lat="45.07188" lon="5.5907">
        <ele>1423.38</ele>
        <time>2021-03-29T08:52:26Z</time>
      </trkpt>
      <trkpt lat="45.07188" lon="5.59082">
        <ele>1425.88</ele>
        <time>2021-03-29T08:52:36Z</time>
      </trkpt>
      <trkpt lat="45.07189" lon="5.59094">
        <ele>1427.43</ele>
        <time>2021-03-29T08:52:46Z</time>
      </trkpt>
      <trkpt lat="45.07189" lon="5.59099">
        <ele>1427.44</ele>
        <time>2021-03-29T08:52:56Z</time>
      </trkpt>
      <trkpt lat="45.07189" lon="5.59101">
        <ele>1427.63</ele>
        <time>2021-03-29T08:53:06Z</time>
      </trkpt>
      <trkpt lat="45.07187" lon="5.59116">
        <ele>1427.48</ele>
        <time>2021-03-29T08:53:16Z</time>
      </trkpt>
      <trkpt lat="45.07186" lon="5.59121">
        <ele>1427.48</ele>
        <time>2021-03-29T08:53:26Z</time>
      </trkpt>
      <trkpt lat="45.07189" lon="5.59131">
        <ele>1429.12</ele>
        <time>2021-03-29T08:53:36Z</time>
      </trkpt>
      <trkpt lat="45.07196" lon="5.59144">
        <ele>1429.17</ele>
        <time>2021-03-29T08:53:46Z</time>
      </trkpt>
      <trkpt lat="45.07198" lon="5.59148">
        <ele>1429.69</ele>
        <time>2021-03-29T08:53:56Z</time>
      </trkpt>
      <trkpt lat="45.07198" lon="5.59153">
        <ele>1430.42</ele>
        <time>2021-03-29T08:54:06Z</time>
      </trkpt>
      <trkpt lat="45.07198" lon="5.59154">
        <ele>1430.43</ele>
        <time>2021-03-29T08:54:16Z</time>
      </trkpt>
      <trkpt lat="45.07195" lon="5.5916">
        <ele>1431.33</ele>
        <time>2021-03-29T08:54:26Z</time>
      </trkpt>
      <trkpt lat="45.07193" lon="5.59162">
        <ele>1435.41</ele>
        <time>2021-03-29T08:54:36Z</time>
      </trkpt>
      <trkpt lat="45.07189" lon="5.59166">
        <ele>1435.84</ele>
        <time>2021-03-29T08:54:46Z</time>
      </trkpt>
      <trkpt lat="45.07186" lon="5.59173">
        <ele>1436.07</ele>
        <time>2021-03-29T08:54:56Z</time>
      </trkpt>
      <trkpt lat="45.07185" lon="5.59176">
        <ele>1436.07</ele>
        <time>2021-03-29T08:55:06Z</time>
      </trkpt>
      <trkpt lat="45.07184" lon="5.59177">
        <ele>1436.26</ele>
        <time>2021-03-29T08:55:21Z</time>
      </trkpt>
      <trkpt lat="45.07183" lon="5.59183">
        <ele>1437.82</ele>
        <time>2021-03-29T08:55:31Z</time>
      </trkpt>
      <trkpt lat="45.07183" lon="5.59185">
        <ele>1437.82</ele>
        <time>2021-03-29T08:55:41Z</time>
      </trkpt>
      <trkpt lat="45.07182" lon="5.59186">
        <ele>1439.84</ele>
        <time>2021-03-29T08:55:58Z</time>
      </trkpt>
      <trkpt lat="45.07181" lon="5.59191">
        <ele>1441.18</ele>
        <time>2021-03-29T08:56:08Z</time>
      </trkpt>
      <trkpt lat="45.0718" lon="5.59192">
        <ele>1441.18</ele>
        <time>2021-03-29T08:56:21Z</time>
      </trkpt>
      <trkpt lat="45.0718" lon="5.59194">
        <ele>1441.1</ele>
        <time>2021-03-29T08:57:03Z</time>
      </trkpt>
      <trkpt lat="45.07176" lon="5.59204">
        <ele>1441.15</ele>
        <time>2021-03-29T08:57:13Z</time>
      </trkpt>
      <trkpt lat="45.07175" lon="5.59207">
        <ele>1441.15</ele>
        <time>2021-03-29T08:57:23Z</time>
      </trkpt>
      <trkpt lat="45.07174" lon="5.59209">
        <ele>1441.18</ele>
        <time>2021-03-29T08:57:59Z</time>
      </trkpt>
      <trkpt lat="45.07172" lon="5.59219">
        <ele>1444.74</ele>
        <time>2021-03-29T08:58:09Z</time>
      </trkpt>
      <trkpt lat="45.0717" lon="5.59223">
        <ele>1452.76</ele>
        <time>2021-03-29T08:58:19Z</time>
      </trkpt>
      <trkpt lat="45.07167" lon="5.59239">
        <ele>1452.76</ele>
        <time>2021-03-29T08:58:54Z</time>
      </trkpt>
      <trkpt lat="45.07122" lon="5.59276">
        <ele>1433.93</ele>
        <time>2021-03-29T09:03:30Z</time>
      </trkpt>
      <trkpt lat="45.07126" lon="5.59274">
        <ele>1486.86</ele>
        <time>2021-03-29T09:03:40Z</time>
      </trkpt>
      <trkpt lat="45.07135" lon="5.59277">
        <ele>1486.87</ele>
        <time>2021-03-29T09:03:50Z</time>
      </trkpt>
      <trkpt lat="45.07134" lon="5.59279">
        <ele>1491.82</ele>
        <time>2021-03-29T09:05:58Z</time>
      </trkpt>
      <trkpt lat="45.07127" lon="5.59299">
        <ele>1500.01</ele>
        <time>2021-03-29T09:06:08Z</time>
      </trkpt>
      <trkpt lat="45.07119" lon="5.59326">
        <ele>1500.41</ele>
        <time>2021-03-29T09:06:18Z</time>
      </trkpt>
      <trkpt lat="45.07117" lon="5.59332">
        <ele>1499.46</ele>
        <time>2021-03-29T09:06:28Z</time>
      </trkpt>
      <trkpt lat="45.07113" lon="5.5934">
        <ele>1499.93</ele>
        <time>2021-03-29T09:06:38Z</time>
      </trkpt>
      <trkpt lat="45.07109" lon="5.59343">
        <ele>1500.04</ele>
        <time>2021-03-29T09:06:48Z</time>
      </trkpt>
      <trkpt lat="45.07109" lon="5.59344">
        <ele>1500.1</ele>
        <time>2021-03-29T09:07:04Z</time>
      </trkpt>
      <trkpt lat="45.07106" lon="5.59347">
        <ele>1499.89</ele>
        <time>2021-03-29T09:07:14Z</time>
      </trkpt>
      <trkpt lat="45.07103" lon="5.59349">
        <ele>1501.62</ele>
        <time>2021-03-29T09:07:24Z</time>
      </trkpt>
      <trkpt lat="45.07091" lon="5.59356">
        <ele>1504.6</ele>
        <time>2021-03-29T09:07:34Z</time>
      </trkpt>
      <trkpt lat="45.07087" lon="5.5936">
        <ele>1506.88</ele>
        <time>2021-03-29T09:07:44Z</time>
      </trkpt>
      <trkpt lat="45.07084" lon="5.59367">
        <ele>1509</ele>
        <time>2021-03-29T09:07:54Z</time>
      </trkpt>
      <trkpt lat="45.07084" lon="5.59369">
        <ele>1509</ele>
        <time>2021-03-29T09:08:04Z</time>
      </trkpt>
      <trkpt lat="45.07084" lon="5.5937">
        <ele>1511.09</ele>
        <time>2021-03-29T09:08:20Z</time>
      </trkpt>
      <trkpt lat="45.07082" lon="5.59376">
        <ele>1512.9</ele>
        <time>2021-03-29T09:08:30Z</time>
      </trkpt>
      <trkpt lat="45.07081" lon="5.59381">
        <ele>1516.12</ele>
        <time>2021-03-29T09:08:40Z</time>
      </trkpt>
      <trkpt lat="45.07079" lon="5.59386">
        <ele>1517.06</ele>
        <time>2021-03-29T09:08:50Z</time>
      </trkpt>
      <trkpt lat="45.07078" lon="5.59391">
        <ele>1516.55</ele>
        <time>2021-03-29T09:09:00Z</time>
      </trkpt>
      <trkpt lat="45.07077" lon="5.59392">
        <ele>1516.95</ele>
        <time>2021-03-29T09:09:10Z</time>
      </trkpt>
      <trkpt lat="45.07076" lon="5.59397">
        <ele>1517.48</ele>
        <time>2021-03-29T09:09:20Z</time>
      </trkpt>
      <trkpt lat="45.07076" lon="5.59399">
        <ele>1517.48</ele>
        <time>2021-03-29T09:09:30Z</time>
      </trkpt>
      <trkpt lat="45.07075" lon="5.594">
        <ele>1519.44</ele>
        <time>2021-03-29T09:09:42Z</time>
      </trkpt>
      <trkpt lat="45.07073" lon="5.59406">
        <ele>1520.78</ele>
        <time>2021-03-29T09:09:52Z</time>
      </trkpt>
      <trkpt lat="45.07072" lon="5.59407">
        <ele>1520.78</ele>
        <time>2021-03-29T09:10:02Z</time>
      </trkpt>
      <trkpt lat="45.07071" lon="5.59409">
        <ele>1522.12</ele>
        <time>2021-03-29T09:12:02Z</time>
      </trkpt>
      <trkpt lat="45.07069" lon="5.59417">
        <ele>1523.26</ele>
        <time>2021-03-29T09:12:12Z</time>
      </trkpt>
      <trkpt lat="45.07068" lon="5.5942">
        <ele>1524.22</ele>
        <time>2021-03-29T09:12:22Z</time>
      </trkpt>
      <trkpt lat="45.07052" lon="5.59433">
        <ele>1524.24</ele>
        <time>2021-03-29T09:12:32Z</time>
      </trkpt>
      <trkpt lat="45.07049" lon="5.59435">
        <ele>1524.24</ele>
        <time>2021-03-29T09:12:42Z</time>
      </trkpt>
      <trkpt lat="45.07049" lon="5.59436">
        <ele>1530.66</ele>
        <time>2021-03-29T09:13:41Z</time>
      </trkpt>
      <trkpt lat="45.0703" lon="5.59457">
        <ele>1532.87</ele>
        <time>2021-03-29T09:13:51Z</time>
      </trkpt>
      <trkpt lat="45.07024" lon="5.59466">
        <ele>1533.01</ele>
        <time>2021-03-29T09:14:01Z</time>
      </trkpt>
      <trkpt lat="45.07022" lon="5.5947">
        <ele>1533.01</ele>
        <time>2021-03-29T09:14:11Z</time>
      </trkpt>
      <trkpt lat="45.07018" lon="5.59474">
        <ele>1538.79</ele>
        <time>2021-03-29T09:14:21Z</time>
      </trkpt>
      <trkpt lat="45.07011" lon="5.59482">
        <ele>1539.23</ele>
        <time>2021-03-29T09:14:31Z</time>
      </trkpt>
      <trkpt lat="45.0701" lon="5.59484">
        <ele>1539.23</ele>
        <time>2021-03-29T09:14:41Z</time>
      </trkpt>
      <trkpt lat="45.07009" lon="5.59486">
        <ele>1540.68</ele>
        <time>2021-03-29T09:15:21Z</time>
      </trkpt>
      <trkpt lat="45.07003" lon="5.59496">
        <ele>1548.56</ele>
        <time>2021-03-29T09:15:31Z</time>
      </trkpt>
      <trkpt lat="45.06998" lon="5.59506">
        <ele>1548.68</ele>
        <time>2021-03-29T09:15:41Z</time>
      </trkpt>
      <trkpt lat="45.06997" lon="5.59508">
        <ele>1548.68</ele>
        <time>2021-03-29T09:15:51Z</time>
      </trkpt>
      <trkpt lat="45.06995" lon="5.59514">
        <ele>1550.36</ele>
        <time>2021-03-29T09:16:01Z</time>
      </trkpt>
      <trkpt lat="45.06994" lon="5.59518">
        <ele>1550.36</ele>
        <time>2021-03-29T09:16:11Z</time>
      </trkpt>
      <trkpt lat="45.06993" lon="5.5952">
        <ele>1551.97</ele>
        <time>2021-03-29T09:17:17Z</time>
      </trkpt>
      <trkpt lat="45.06992" lon="5.59527">
        <ele>1553.85</ele>
        <time>2021-03-29T09:17:27Z</time>
      </trkpt>
      <trkpt lat="45.06991" lon="5.59529">
        <ele>1553.85</ele>
        <time>2021-03-29T09:17:37Z</time>
      </trkpt>
      <trkpt lat="45.0698" lon="5.59551">
        <ele>1557.7</ele>
        <time>2021-03-29T09:19:21Z</time>
      </trkpt>
      <trkpt lat="45.06971" lon="5.59581">
        <ele>1561.69</ele>
        <time>2021-03-29T09:19:31Z</time>
      </trkpt>
      <trkpt lat="45.06968" lon="5.59587">
        <ele>1562.88</ele>
        <time>2021-03-29T09:19:47Z</time>
      </trkpt>
      <trkpt lat="45.06967" lon="5.59588">
        <ele>1563.48</ele>
        <time>2021-03-29T09:20:04Z</time>
      </trkpt>
      <trkpt lat="45.06963" lon="5.59591">
        <ele>1565.4</ele>
        <time>2021-03-29T09:20:14Z</time>
      </trkpt>
      <trkpt lat="45.06962" lon="5.59592">
        <ele>1565.4</ele>
        <time>2021-03-29T09:20:24Z</time>
      </trkpt>
      <trkpt lat="45.0696" lon="5.59593">
        <ele>1569.07</ele>
        <time>2021-03-29T09:21:30Z</time>
      </trkpt>
      <trkpt lat="45.06949" lon="5.596">
        <ele>1585</ele>
        <time>2021-03-29T09:21:40Z</time>
      </trkpt>
      <trkpt lat="45.0694" lon="5.59613">
        <ele>1588.89</ele>
        <time>2021-03-29T09:21:50Z</time>
      </trkpt>
      <trkpt lat="45.06932" lon="5.59617">
        <ele>1592.77</ele>
        <time>2021-03-29T09:22:00Z</time>
      </trkpt>
      <trkpt lat="45.06926" lon="5.59618">
        <ele>1594.01</ele>
        <time>2021-03-29T09:22:10Z</time>
      </trkpt>
      <trkpt lat="45.06925" lon="5.59618">
        <ele>1594.01</ele>
        <time>2021-03-29T09:22:20Z</time>
      </trkpt>
      <trkpt lat="45.06921" lon="5.59618">
        <ele>1597.12</ele>
        <time>2021-03-29T09:22:30Z</time>
      </trkpt>
      <trkpt lat="45.06919" lon="5.59618">
        <ele>1597.12</ele>
        <time>2021-03-29T09:22:40Z</time>
      </trkpt>
      <trkpt lat="45.06918" lon="5.59618">
        <ele>1599.58</ele>
        <time>2021-03-29T09:23:11Z</time>
      </trkpt>
      <trkpt lat="45.06907" lon="5.59622">
        <ele>1607.18</ele>
        <time>2021-03-29T09:23:21Z</time>
      </trkpt>
      <trkpt lat="45.06903" lon="5.59624">
        <ele>1607.29</ele>
        <time>2021-03-29T09:23:31Z</time>
      </trkpt>
      <trkpt lat="45.06902" lon="5.59624">
        <ele>1607.29</ele>
        <time>2021-03-29T09:23:41Z</time>
      </trkpt>
      <trkpt lat="45.06901" lon="5.59625">
        <ele>1609.13</ele>
        <time>2021-03-29T09:24:43Z</time>
      </trkpt>
      <trkpt lat="45.06891" lon="5.59632">
        <ele>1611.13</ele>
        <time>2021-03-29T09:24:53Z</time>
      </trkpt>
      <trkpt lat="45.06889" lon="5.59633">
        <ele>1611.13</ele>
        <time>2021-03-29T09:25:03Z</time>
      </trkpt>
      <trkpt lat="45.06888" lon="5.59634">
        <ele>1611.91</ele>
        <time>2021-03-29T09:26:32Z</time>
      </trkpt>
      <trkpt lat="45.06882" lon="5.59641">
        <ele>1614.16</ele>
        <time>2021-03-29T09:26:42Z</time>
      </trkpt>
      <trkpt lat="45.0688" lon="5.59643">
        <ele>1614.16</ele>
        <time>2021-03-29T09:26:52Z</time>
      </trkpt>
      <trkpt lat="45.06879" lon="5.59644">
        <ele>1617.66</ele>
        <time>2021-03-29T09:27:18Z</time>
      </trkpt>
      <trkpt lat="45.06863" lon="5.5967">
        <ele>1620.78</ele>
        <time>2021-03-29T09:27:28Z</time>
      </trkpt>
      <trkpt lat="45.06859" lon="5.59676">
        <ele>1620.78</ele>
        <time>2021-03-29T09:27:38Z</time>
      </trkpt>
      <trkpt lat="45.06858" lon="5.59678">
        <ele>1624.2</ele>
        <time>2021-03-29T09:31:19Z</time>
      </trkpt>
      <trkpt lat="45.06848" lon="5.59692">
        <ele>1635.22</ele>
        <time>2021-03-29T09:31:29Z</time>
      </trkpt>
      <trkpt lat="45.06843" lon="5.59699">
        <ele>1635.23</ele>
        <time>2021-03-29T09:31:39Z</time>
      </trkpt>
      <trkpt lat="45.06841" lon="5.59701">
        <ele>1635.23</ele>
        <time>2021-03-29T09:31:49Z</time>
      </trkpt>
      <trkpt lat="45.06837" lon="5.59713">
        <ele>1643.65</ele>
        <time>2021-03-29T09:31:59Z</time>
      </trkpt>
      <trkpt lat="45.06833" lon="5.59726">
        <ele>1646.27</ele>
        <time>2021-03-29T09:32:09Z</time>
      </trkpt>
      <trkpt lat="45.06829" lon="5.5973">
        <ele>1649.43</ele>
        <time>2021-03-29T09:32:19Z</time>
      </trkpt>
      <trkpt lat="45.0682" lon="5.59732">
        <ele>1654.59</ele>
        <time>2021-03-29T09:32:29Z</time>
      </trkpt>
      <trkpt lat="45.06817" lon="5.59731">
        <ele>1654.6</ele>
        <time>2021-03-29T09:32:39Z</time>
      </trkpt>
      <trkpt lat="45.06816" lon="5.59731">
        <ele>1656.06</ele>
        <time>2021-03-29T09:33:02Z</time>
      </trkpt>
      <trkpt lat="45.06812" lon="5.59728">
        <ele>1657.32</ele>
        <time>2021-03-29T09:33:12Z</time>
      </trkpt>
      <trkpt lat="45.06811" lon="5.59726">
        <ele>1657.32</ele>
        <time>2021-03-29T09:33:22Z</time>
      </trkpt>
      <trkpt lat="45.06804" lon="5.59724">
        <ele>1663.98</ele>
        <time>2021-03-29T09:33:32Z</time>
      </trkpt>
      <trkpt lat="45.068" lon="5.59723">
        <ele>1664.07</ele>
        <time>2021-03-29T09:33:42Z</time>
      </trkpt>
      <trkpt lat="45.06799" lon="5.59722">
        <ele>1664.07</ele>
        <time>2021-03-29T09:33:52Z</time>
      </trkpt>
      <trkpt lat="45.06798" lon="5.59722">
        <ele>1665.83</ele>
        <time>2021-03-29T09:34:16Z</time>
      </trkpt>
      <trkpt lat="45.0679" lon="5.59722">
        <ele>1668.17</ele>
        <time>2021-03-29T09:34:26Z</time>
      </trkpt>
      <trkpt lat="45.06784" lon="5.59724">
        <ele>1672.43</ele>
        <time>2021-03-29T09:34:36Z</time>
      </trkpt>
      <trkpt lat="45.0678" lon="5.59727">
        <ele>1674.63</ele>
        <time>2021-03-29T09:34:46Z</time>
      </trkpt>
      <trkpt lat="45.06775" lon="5.59726">
        <ele>1679.09</ele>
        <time>2021-03-29T09:34:56Z</time>
      </trkpt>
      <trkpt lat="45.06769" lon="5.59722">
        <ele>1680.78</ele>
        <time>2021-03-29T09:35:06Z</time>
      </trkpt>
      <trkpt lat="45.06767" lon="5.59717">
        <ele>1682.06</ele>
        <time>2021-03-29T09:35:16Z</time>
      </trkpt>
      <trkpt lat="45.06766" lon="5.59716">
        <ele>1682.06</ele>
        <time>2021-03-29T09:35:26Z</time>
      </trkpt>
      <trkpt lat="45.06763" lon="5.59713">
        <ele>1683.61</ele>
        <time>2021-03-29T09:35:36Z</time>
      </trkpt>
      <trkpt lat="45.06762" lon="5.59711">
        <ele>1683.61</ele>
        <time>2021-03-29T09:35:46Z</time>
      </trkpt>
      <trkpt lat="45.06761" lon="5.59709">
        <ele>1684.7</ele>
        <time>2021-03-29T09:35:56Z</time>
      </trkpt>
      <trkpt lat="45.06761" lon="5.59702">
        <ele>1686.98</ele>
        <time>2021-03-29T09:36:06Z</time>
      </trkpt>
      <trkpt lat="45.06761" lon="5.597">
        <ele>1686.98</ele>
        <time>2021-03-29T09:36:16Z</time>
      </trkpt>
      <trkpt lat="45.0676" lon="5.59699">
        <ele>1687.58</ele>
        <time>2021-03-29T09:36:39Z</time>
      </trkpt>
      <trkpt lat="45.06756" lon="5.597">
        <ele>1687.83</ele>
        <time>2021-03-29T09:36:49Z</time>
      </trkpt>
      <trkpt lat="45.06755" lon="5.597">
        <ele>1687.83</ele>
        <time>2021-03-29T09:37:01Z</time>
      </trkpt>
      <trkpt lat="45.06748" lon="5.59706">
        <ele>1690.9</ele>
        <time>2021-03-29T09:37:11Z</time>
      </trkpt>
      <trkpt lat="45.06743" lon="5.59712">
        <ele>1694.52</ele>
        <time>2021-03-29T09:37:21Z</time>
      </trkpt>
      <trkpt lat="45.06741" lon="5.59714">
        <ele>1698.93</ele>
        <time>2021-03-29T09:37:31Z</time>
      </trkpt>
      <trkpt lat="45.06739" lon="5.59712">
        <ele>1699.79</ele>
        <time>2021-03-29T09:37:41Z</time>
      </trkpt>
      <trkpt lat="45.06738" lon="5.59712">
        <ele>1700.59</ele>
        <time>2021-03-29T09:39:09Z</time>
      </trkpt>
      <trkpt lat="45.0673" lon="5.5972">
        <ele>1705.39</ele>
        <time>2021-03-29T09:39:19Z</time>
      </trkpt>
      <trkpt lat="45.06723" lon="5.59729">
        <ele>1706.47</ele>
        <time>2021-03-29T09:39:29Z</time>
      </trkpt>
      <trkpt lat="45.06721" lon="5.59731">
        <ele>1707.31</ele>
        <time>2021-03-29T09:39:39Z</time>
      </trkpt>
      <trkpt lat="45.06719" lon="5.59732">
        <ele>1707.52</ele>
        <time>2021-03-29T09:39:49Z</time>
      </trkpt>
      <trkpt lat="45.06718" lon="5.59732">
        <ele>1708.81</ele>
        <time>2021-03-29T09:40:09Z</time>
      </trkpt>
      <trkpt lat="45.06712" lon="5.59735">
        <ele>1709.91</ele>
        <time>2021-03-29T09:40:19Z</time>
      </trkpt>
      <trkpt lat="45.06711" lon="5.59735">
        <ele>1709.91</ele>
        <time>2021-03-29T09:40:29Z</time>
      </trkpt>
      <trkpt lat="45.0671" lon="5.59736">
        <ele>1712.44</ele>
        <time>2021-03-29T09:41:14Z</time>
      </trkpt>
      <trkpt lat="45.06703" lon="5.59743">
        <ele>1714.05</ele>
        <time>2021-03-29T09:41:24Z</time>
      </trkpt>
      <trkpt lat="45.06701" lon="5.59745">
        <ele>1714.05</ele>
        <time>2021-03-29T09:41:34Z</time>
      </trkpt>
      <trkpt lat="45.06693" lon="5.59756">
        <ele>1720.77</ele>
        <time>2021-03-29T09:42:08Z</time>
      </trkpt>
      <trkpt lat="45.06683" lon="5.59762">
        <ele>1729.25</ele>
        <time>2021-03-29T09:42:18Z</time>
      </trkpt>
      <trkpt lat="45.06673" lon="5.59764">
        <ele>1734.31</ele>
        <time>2021-03-29T09:42:28Z</time>
      </trkpt>
      <trkpt lat="45.0667" lon="5.59765">
        <ele>1734.31</ele>
        <time>2021-03-29T09:42:38Z</time>
      </trkpt>
      <trkpt lat="45.06669" lon="5.59764">
        <ele>1735.42</ele>
        <time>2021-03-29T09:42:49Z</time>
      </trkpt>
      <trkpt lat="45.06666" lon="5.5976">
        <ele>1737.84</ele>
        <time>2021-03-29T09:42:59Z</time>
      </trkpt>
      <trkpt lat="45.06661" lon="5.59752">
        <ele>1743.05</ele>
        <time>2021-03-29T09:43:09Z</time>
      </trkpt>
      <trkpt lat="45.06656" lon="5.59746">
        <ele>1745.53</ele>
        <time>2021-03-29T09:43:19Z</time>
      </trkpt>
      <trkpt lat="45.06655" lon="5.59744">
        <ele>1745.53</ele>
        <time>2021-03-29T09:43:29Z</time>
      </trkpt>
      <trkpt lat="45.06654" lon="5.59742">
        <ele>1746.74</ele>
        <time>2021-03-29T09:43:39Z</time>
      </trkpt>
      <trkpt lat="45.06651" lon="5.59732">
        <ele>1748.55</ele>
        <time>2021-03-29T09:43:49Z</time>
      </trkpt>
      <trkpt lat="45.0665" lon="5.59724">
        <ele>1748.85</ele>
        <time>2021-03-29T09:43:59Z</time>
      </trkpt>
      <trkpt lat="45.0665" lon="5.59721">
        <ele>1750.1</ele>
        <time>2021-03-29T09:44:09Z</time>
      </trkpt>
      <trkpt lat="45.06651" lon="5.5971">
        <ele>1753.98</ele>
        <time>2021-03-29T09:44:19Z</time>
      </trkpt>
      <trkpt lat="45.06653" lon="5.59703">
        <ele>1755.23</ele>
        <time>2021-03-29T09:44:29Z</time>
      </trkpt>
      <trkpt lat="45.06655" lon="5.59693">
        <ele>1759.71</ele>
        <time>2021-03-29T09:44:39Z</time>
      </trkpt>
      <trkpt lat="45.06657" lon="5.59686">
        <ele>1760.19</ele>
        <time>2021-03-29T09:44:49Z</time>
      </trkpt>
      <trkpt lat="45.06656" lon="5.5968">
        <ele>1763.13</ele>
        <time>2021-03-29T09:44:59Z</time>
      </trkpt>
      <trkpt lat="45.06656" lon="5.59674">
        <ele>1764.56</ele>
        <time>2021-03-29T09:45:09Z</time>
      </trkpt>
      <trkpt lat="45.06655" lon="5.5967">
        <ele>1768.1</ele>
        <time>2021-03-29T09:45:19Z</time>
      </trkpt>
      <trkpt lat="45.06653" lon="5.59667">
        <ele>1769.75</ele>
        <time>2021-03-29T09:45:29Z</time>
      </trkpt>
      <trkpt lat="45.06651" lon="5.59657">
        <ele>1771.96</ele>
        <time>2021-03-29T09:45:39Z</time>
      </trkpt>
      <trkpt lat="45.06647" lon="5.59649">
        <ele>1773.5</ele>
        <time>2021-03-29T09:45:49Z</time>
      </trkpt>
      <trkpt lat="45.06644" lon="5.59645">
        <ele>1773.97</ele>
        <time>2021-03-29T09:45:59Z</time>
      </trkpt>
      <trkpt lat="45.0664" lon="5.59641">
        <ele>1775.22</ele>
        <time>2021-03-29T09:46:09Z</time>
      </trkpt>
      <trkpt lat="45.06634" lon="5.59634">
        <ele>1777.92</ele>
        <time>2021-03-29T09:46:19Z</time>
      </trkpt>
      <trkpt lat="45.0663" lon="5.5963">
        <ele>1781.53</ele>
        <time>2021-03-29T09:46:29Z</time>
      </trkpt>
      <trkpt lat="45.06626" lon="5.59622">
        <ele>1784.53</ele>
        <time>2021-03-29T09:46:39Z</time>
      </trkpt>
      <trkpt lat="45.06622" lon="5.59619">
        <ele>1786.96</ele>
        <time>2021-03-29T09:46:49Z</time>
      </trkpt>
      <trkpt lat="45.06619" lon="5.59619">
        <ele>1786.96</ele>
        <time>2021-03-29T09:46:59Z</time>
      </trkpt>
      <trkpt lat="45.06618" lon="5.59619">
        <ele>1786.96</ele>
        <time>2021-03-29T09:47:09Z</time>
      </trkpt>
      <trkpt lat="45.06617" lon="5.59619">
        <ele>1786.64</ele>
        <time>2021-03-29T09:47:25Z</time>
      </trkpt>
      <trkpt lat="45.06611" lon="5.59616">
        <ele>1786.42</ele>
        <time>2021-03-29T09:47:35Z</time>
      </trkpt>
      <trkpt lat="45.06605" lon="5.59612">
        <ele>1788.06</ele>
        <time>2021-03-29T09:47:45Z</time>
      </trkpt>
      <trkpt lat="45.06601" lon="5.59609">
        <ele>1790.04</ele>
        <time>2021-03-29T09:47:55Z</time>
      </trkpt>
      <trkpt lat="45.06598" lon="5.59608">
        <ele>1791.07</ele>
        <time>2021-03-29T09:48:05Z</time>
      </trkpt>
      <trkpt lat="45.06594" lon="5.59606">
        <ele>1790.99</ele>
        <time>2021-03-29T09:48:15Z</time>
      </trkpt>
      <trkpt lat="45.06588" lon="5.59601">
        <ele>1792.81</ele>
        <time>2021-03-29T09:48:25Z</time>
      </trkpt>
      <trkpt lat="45.06584" lon="5.59592">
        <ele>1794.25</ele>
        <time>2021-03-29T09:48:35Z</time>
      </trkpt>
      <trkpt lat="45.06581" lon="5.59587">
        <ele>1795.68</ele>
        <time>2021-03-29T09:48:45Z</time>
      </trkpt>
      <trkpt lat="45.06579" lon="5.59585">
        <ele>1796.31</ele>
        <time>2021-03-29T09:48:55Z</time>
      </trkpt>
      <trkpt lat="45.06578" lon="5.59584">
        <ele>1796.31</ele>
        <time>2021-03-29T09:49:05Z</time>
      </trkpt>
      <trkpt lat="45.06576" lon="5.59583">
        <ele>1796.72</ele>
        <time>2021-03-29T09:49:17Z</time>
      </trkpt>
      <trkpt lat="45.06571" lon="5.59581">
        <ele>1797.7</ele>
        <time>2021-03-29T09:49:27Z</time>
      </trkpt>
      <trkpt lat="45.06559" lon="5.59581">
        <ele>1802.04</ele>
        <time>2021-03-29T09:49:37Z</time>
      </trkpt>
      <trkpt lat="45.06554" lon="5.59581">
        <ele>1803.06</ele>
        <time>2021-03-29T09:49:47Z</time>
      </trkpt>
      <trkpt lat="45.06551" lon="5.59581">
        <ele>1804.34</ele>
        <time>2021-03-29T09:49:57Z</time>
      </trkpt>
      <trkpt lat="45.06547" lon="5.59581">
        <ele>1806.02</ele>
        <time>2021-03-29T09:50:07Z</time>
      </trkpt>
      <trkpt lat="45.06543" lon="5.59581">
        <ele>1806.57</ele>
        <time>2021-03-29T09:50:17Z</time>
      </trkpt>
      <trkpt lat="45.06543" lon="5.59581">
        <ele>1806.57</ele>
        <time>2021-03-29T09:50:27Z</time>
      </trkpt>
      <trkpt lat="45.06537" lon="5.59583">
        <ele>1806.92</ele>
        <time>2021-03-29T09:50:37Z</time>
      </trkpt>
      <trkpt lat="45.06532" lon="5.59585">
        <ele>1806.92</ele>
        <time>2021-03-29T09:50:47Z</time>
      </trkpt>
      <trkpt lat="45.06528" lon="5.59586">
        <ele>1807.85</ele>
        <time>2021-03-29T09:50:57Z</time>
      </trkpt>
      <trkpt lat="45.06516" lon="5.5959">
        <ele>1810.18</ele>
        <time>2021-03-29T09:51:07Z</time>
      </trkpt>
      <trkpt lat="45.06512" lon="5.59591">
        <ele>1811.93</ele>
        <time>2021-03-29T09:51:17Z</time>
      </trkpt>
      <trkpt lat="45.06509" lon="5.59592">
        <ele>1813.45</ele>
        <time>2021-03-29T09:51:27Z</time>
      </trkpt>
      <trkpt lat="45.06506" lon="5.59594">
        <ele>1814.74</ele>
        <time>2021-03-29T09:51:37Z</time>
      </trkpt>
      <trkpt lat="45.06502" lon="5.59595">
        <ele>1814.78</ele>
        <time>2021-03-29T09:51:47Z</time>
      </trkpt>
      <trkpt lat="45.065" lon="5.59596">
        <ele>1816.54</ele>
        <time>2021-03-29T09:51:57Z</time>
      </trkpt>
      <trkpt lat="45.06499" lon="5.59596">
        <ele>1816.55</ele>
        <time>2021-03-29T09:52:07Z</time>
      </trkpt>
      <trkpt lat="45.06494" lon="5.59597">
        <ele>1818.01</ele>
        <time>2021-03-29T09:52:17Z</time>
      </trkpt>
      <trkpt lat="45.06485" lon="5.596">
        <ele>1819.69</ele>
        <time>2021-03-29T09:52:27Z</time>
      </trkpt>
      <trkpt lat="45.06478" lon="5.59603">
        <ele>1821.53</ele>
        <time>2021-03-29T09:52:37Z</time>
      </trkpt>
      <trkpt lat="45.06476" lon="5.59605">
        <ele>1821.53</ele>
        <time>2021-03-29T09:52:47Z</time>
      </trkpt>
      <trkpt lat="45.06469" lon="5.59609">
        <ele>1824.02</ele>
        <time>2021-03-29T09:52:57Z</time>
      </trkpt>
      <trkpt lat="45.06467" lon="5.5961">
        <ele>1824.02</ele>
        <time>2021-03-29T09:53:07Z</time>
      </trkpt>
      <trkpt lat="45.06466" lon="5.59611">
        <ele>1826.23</ele>
        <time>2021-03-29T09:54:49Z</time>
      </trkpt>
      <trkpt lat="45.06445" lon="5.59623">
        <ele>1832.09</ele>
        <time>2021-03-29T09:54:59Z</time>
      </trkpt>
      <trkpt lat="45.06429" lon="5.59628">
        <ele>1836.06</ele>
        <time>2021-03-29T09:55:09Z</time>
      </trkpt>
      <trkpt lat="45.06421" lon="5.59632">
        <ele>1840.17</ele>
        <time>2021-03-29T09:55:19Z</time>
      </trkpt>
      <trkpt lat="45.06417" lon="5.59635">
        <ele>1843.02</ele>
        <time>2021-03-29T09:55:29Z</time>
      </trkpt>
      <trkpt lat="45.06413" lon="5.59642">
        <ele>1846.53</ele>
        <time>2021-03-29T09:55:39Z</time>
      </trkpt>
      <trkpt lat="45.06413" lon="5.59644">
        <ele>1846.55</ele>
        <time>2021-03-29T09:55:49Z</time>
      </trkpt>
      <trkpt lat="45.06412" lon="5.59645">
        <ele>1847.6</ele>
        <time>2021-03-29T09:56:07Z</time>
      </trkpt>
      <trkpt lat="45.06409" lon="5.59645">
        <ele>1849.81</ele>
        <time>2021-03-29T09:56:17Z</time>
      </trkpt>
      <trkpt lat="45.06405" lon="5.59646">
        <ele>1850.49</ele>
        <time>2021-03-29T09:56:27Z</time>
      </trkpt>
      <trkpt lat="45.06395" lon="5.59645">
        <ele>1852.63</ele>
        <time>2021-03-29T09:56:37Z</time>
      </trkpt>
      <trkpt lat="45.06387" lon="5.59644">
        <ele>1855</ele>
        <time>2021-03-29T09:56:47Z</time>
      </trkpt>
      <trkpt lat="45.06383" lon="5.59643">
        <ele>1855.83</ele>
        <time>2021-03-29T09:56:57Z</time>
      </trkpt>
      <trkpt lat="45.06378" lon="5.59642">
        <ele>1857.94</ele>
        <time>2021-03-29T09:57:07Z</time>
      </trkpt>
      <trkpt lat="45.06372" lon="5.59645">
        <ele>1862.34</ele>
        <time>2021-03-29T09:57:17Z</time>
      </trkpt>
      <trkpt lat="45.0637" lon="5.59648">
        <ele>1866.2</ele>
        <time>2021-03-29T09:57:27Z</time>
      </trkpt>
      <trkpt lat="45.06368" lon="5.59654">
        <ele>1867.39</ele>
        <time>2021-03-29T09:57:37Z</time>
      </trkpt>
      <trkpt lat="45.06368" lon="5.5966">
        <ele>1867.46</ele>
        <time>2021-03-29T09:57:47Z</time>
      </trkpt>
      <trkpt lat="45.06367" lon="5.59662">
        <ele>1867.46</ele>
        <time>2021-03-29T09:57:57Z</time>
      </trkpt>
      <trkpt lat="45.06365" lon="5.59663">
        <ele>1868.5</ele>
        <time>2021-03-29T09:58:07Z</time>
      </trkpt>
      <trkpt lat="45.06363" lon="5.59664">
        <ele>1869.75</ele>
        <time>2021-03-29T09:58:17Z</time>
      </trkpt>
      <trkpt lat="45.06356" lon="5.59665">
        <ele>1872.13</ele>
        <time>2021-03-29T09:58:27Z</time>
      </trkpt>
      <trkpt lat="45.06353" lon="5.59665">
        <ele>1872.81</ele>
        <time>2021-03-29T09:58:37Z</time>
      </trkpt>
      <trkpt lat="45.06352" lon="5.59665">
        <ele>1873.66</ele>
        <time>2021-03-29T09:58:49Z</time>
      </trkpt>
      <trkpt lat="45.06348" lon="5.59666">
        <ele>1875.53</ele>
        <time>2021-03-29T09:58:59Z</time>
      </trkpt>
      <trkpt lat="45.06346" lon="5.59666">
        <ele>1875.86</ele>
        <time>2021-03-29T09:59:09Z</time>
      </trkpt>
      <trkpt lat="45.06344" lon="5.59666">
        <ele>1875.87</ele>
        <time>2021-03-29T09:59:19Z</time>
      </trkpt>
      <trkpt lat="45.06343" lon="5.59667">
        <ele>1876.61</ele>
        <time>2021-03-29T09:59:29Z</time>
      </trkpt>
      <trkpt lat="45.0634" lon="5.59672">
        <ele>1876.97</ele>
        <time>2021-03-29T09:59:39Z</time>
      </trkpt>
      <trkpt lat="45.06339" lon="5.59674">
        <ele>1877.83</ele>
        <time>2021-03-29T09:59:49Z</time>
      </trkpt>
      <trkpt lat="45.06335" lon="5.59679">
        <ele>1877.95</ele>
        <time>2021-03-29T09:59:59Z</time>
      </trkpt>
      <trkpt lat="45.06333" lon="5.59683">
        <ele>1880.02</ele>
        <time>2021-03-29T10:00:09Z</time>
      </trkpt>
      <trkpt lat="45.06328" lon="5.59695">
        <ele>1885.74</ele>
        <time>2021-03-29T10:00:19Z</time>
      </trkpt>
      <trkpt lat="45.06328" lon="5.59699">
        <ele>1885.8</ele>
        <time>2021-03-29T10:00:29Z</time>
      </trkpt>
      <trkpt lat="45.06327" lon="5.59701">
        <ele>1886.87</ele>
        <time>2021-03-29T10:00:39Z</time>
      </trkpt>
      <trkpt lat="45.06327" lon="5.59709">
        <ele>1888.64</ele>
        <time>2021-03-29T10:00:49Z</time>
      </trkpt>
      <trkpt lat="45.06324" lon="5.59714">
        <ele>1891.6</ele>
        <time>2021-03-29T10:00:59Z</time>
      </trkpt>
      <trkpt lat="45.0632" lon="5.59716">
        <ele>1893.2</ele>
        <time>2021-03-29T10:01:09Z</time>
      </trkpt>
      <trkpt lat="45.06317" lon="5.59718">
        <ele>1894.51</ele>
        <time>2021-03-29T10:01:19Z</time>
      </trkpt>
      <trkpt lat="45.06313" lon="5.59721">
        <ele>1897.06</ele>
        <time>2021-03-29T10:01:29Z</time>
      </trkpt>
      <trkpt lat="45.0631" lon="5.59731">
        <ele>1900.84</ele>
        <time>2021-03-29T10:01:39Z</time>
      </trkpt>
      <trkpt lat="45.06308" lon="5.5974">
        <ele>1902.46</ele>
        <time>2021-03-29T10:01:49Z</time>
      </trkpt>
      <trkpt lat="45.06307" lon="5.5975">
        <ele>1903.19</ele>
        <time>2021-03-29T10:01:59Z</time>
      </trkpt>
      <trkpt lat="45.06307" lon="5.59752">
        <ele>1903.68</ele>
        <time>2021-03-29T10:02:09Z</time>
      </trkpt>
      <trkpt lat="45.06307" lon="5.59752">
        <ele>1903.68</ele>
        <time>2021-03-29T10:02:17Z</time>
      </trkpt>
    </trkseg>
  </trk>
</gpx>